PWSweather.com
Personal Weather Stations
Station Observations
KCTGROTO5
Groton, CT 06340

Groton, CT 06340

Lat: 41.355721, Lon: -72.084428

Elevation: 0

Station Type: acurite 5in1

High Low Average
Temperature 34.7°F1.5°C 24.1°F-4.4°C 29.0°F-1.7°C
Dew Point 16.2°F-8.8°C 4.7°F-15.2°C 9.4°F-12.6°C
Winds 27.0 mph 43.5 kmh 1.0 mph 1.6 kmh 13.0 mph WNW20.9 kmh WNW
Wind Gusts 29.0 mph46.7 kmh 6.0 mph9.7 kmh 18.0 mph29.0 kmh
Humidity 54% 34% 44%
Pressure 30.69 in1039.3 mb 30.15 in1021.0 mb -
Precipitation 0.28 in7.1 mm - -
Hour Temp Dew Point Humidity Winds Wind Gusts Pressure Precip Precip Rate Daily Precip Total
12:00 AM 33.4°F0.8°C 15.7°F-9.1°C 48% 13.0 mph NW20.9 kmh NW 20.0 mph32.2 kmh 30.15 in1021.0 mb 0.00 in0.0 mm 0.00 in0.0 mm 0.28 in7.1 mm
12:01 AM 33.4°F0.8°C 15.7°F-9.1°C 48% 16.0 mph NW25.7 kmh NW 20.0 mph32.2 kmh 30.15 in1021.0 mb 0.00 in0.0 mm 0.00 in0.0 mm 0.28 in7.1 mm
12:02 AM 33.4°F0.8°C 14.7°F-9.6°C 46% 13.0 mph WNW20.9 kmh WNW 20.0 mph32.2 kmh 30.16 in1021.3 mb 0.00 in0.0 mm 0.00 in0.0 mm 0.28 in7.1 mm
12:03 AM 33.4°F0.8°C 14.7°F-9.6°C 46% 12.0 mph NW19.3 kmh NW 18.0 mph29.0 kmh 30.16 in1021.3 mb 0.00 in0.0 mm 0.00 in0.0 mm 0.28 in7.1 mm
12:04 AM 33.4°F0.8°C 16.2°F-8.8°C 49% 11.0 mph WNW17.7 kmh WNW 18.0 mph29.0 kmh 30.16 in1021.3 mb 0.00 in0.0 mm 0.00 in0.0 mm 0.28 in7.1 mm
12:05 AM 33.2°F0.7°C 14.0°F-10.0°C 45% 17.0 mph WNW27.4 kmh WNW 19.0 mph30.6 kmh 30.17 in1021.7 mb 0.00 in0.0 mm 0.00 in0.0 mm 0.28 in7.1 mm
12:06 AM 33.2°F0.7°C 14.0°F-10.0°C 45% 18.0 mph WNW29.0 kmh WNW 19.0 mph30.6 kmh 30.17 in1021.7 mb 0.00 in0.0 mm 0.00 in0.0 mm 0.00 in0.0 mm
12:07 AM 33.2°F0.7°C 15.5°F-9.2°C 48% 21.0 mph WNW33.8 kmh WNW 21.0 mph33.8 kmh 30.17 in1021.7 mb 0.00 in0.0 mm 0.00 in0.0 mm 0.00 in0.0 mm
12:08 AM 33.2°F0.7°C 14.5°F-9.7°C 46% 21.0 mph WNW33.8 kmh WNW 21.0 mph33.8 kmh 30.17 in1021.7 mb 0.00 in0.0 mm 0.00 in0.0 mm 0.00 in0.0 mm
12:09 AM 33.2°F0.7°C 14.0°F-10.0°C 45% 13.0 mph W20.9 kmh W 24.0 mph38.6 kmh 30.17 in1021.7 mb 0.00 in0.0 mm 0.00 in0.0 mm 0.00 in0.0 mm
12:10 AM 33.2°F0.7°C 14.0°F-10.0°C 45% 10.0 mph NW16.1 kmh NW 24.0 mph38.6 kmh 30.17 in1021.7 mb 0.00 in0.0 mm 0.00 in0.0 mm 0.00 in0.0 mm
12:11 AM 33.2°F0.7°C 14.0°F-10.0°C 45% 12.0 mph WNW19.3 kmh WNW 24.0 mph38.6 kmh 30.17 in1021.7 mb 0.00 in0.0 mm 0.00 in0.0 mm 0.00 in0.0 mm
12:12 AM 33.2°F0.7°C 14.5°F-9.7°C 46% 13.0 mph W20.9 kmh W 24.0 mph38.6 kmh 30.17 in1021.7 mb 0.00 in0.0 mm 0.00 in0.0 mm 0.00 in0.0 mm
12:13 AM 33.0°F0.6°C 13.8°F-10.1°C 45% 14.0 mph NNW22.5 kmh NNW 24.0 mph38.6 kmh 30.17 in1021.7 mb 0.00 in0.0 mm 0.00 in0.0 mm 0.00 in0.0 mm
12:14 AM 33.0°F0.6°C 13.3°F-10.4°C 44% 15.0 mph NW24.1 kmh NW 24.0 mph38.6 kmh 30.17 in1021.7 mb 0.00 in0.0 mm 0.00 in0.0 mm 0.00 in0.0 mm
12:15 AM 33.0°F0.6°C 14.3°F-9.8°C 46% 12.0 mph W19.3 kmh W 24.0 mph38.6 kmh 30.17 in1021.7 mb 0.00 in0.0 mm 0.00 in0.0 mm 0.00 in0.0 mm
12:16 AM 33.0°F0.6°C 14.3°F-9.8°C 46% 15.0 mph W24.1 kmh W 24.0 mph38.6 kmh 30.17 in1021.7 mb 0.00 in0.0 mm 0.00 in0.0 mm 0.00 in0.0 mm
12:17 AM 33.0°F0.6°C 13.8°F-10.1°C 45% 14.0 mph W22.5 kmh W 24.0 mph38.6 kmh 30.17 in1021.7 mb 0.00 in0.0 mm 0.00 in0.0 mm 0.00 in0.0 mm
12:18 AM 33.0°F0.6°C 15.3°F-9.3°C 48% 16.0 mph NW25.7 kmh NW 24.0 mph38.6 kmh 30.17 in1021.7 mb 0.00 in0.0 mm 0.00 in0.0 mm 0.00 in0.0 mm
12:19 AM 33.0°F0.6°C 13.8°F-10.1°C 45% 15.0 mph WNW24.1 kmh WNW 19.0 mph30.6 kmh 30.17 in1021.7 mb 0.00 in0.0 mm 0.00 in0.0 mm 0.00 in0.0 mm
12:20 AM 32.9°F0.5°C 13.7°F-10.2°C 45% 11.0 mph NW17.7 kmh NW 19.0 mph30.6 kmh 30.17 in1021.7 mb 0.00 in0.0 mm 0.00 in0.0 mm 0.00 in0.0 mm
12:21 AM 32.9°F0.5°C 13.7°F-10.2°C 45% 11.0 mph NW17.7 kmh NW 19.0 mph30.6 kmh 30.17 in1021.7 mb 0.00 in0.0 mm 0.00 in0.0 mm 0.00 in0.0 mm
12:22 AM 32.9°F0.5°C 13.7°F-10.2°C 45% 9.0 mph WNW14.5 kmh WNW 19.0 mph30.6 kmh 30.18 in1022.0 mb 0.00 in0.0 mm 0.00 in0.0 mm 0.00 in0.0 mm
12:23 AM 32.9°F0.5°C 13.7°F-10.2°C 45% 15.0 mph WNW24.1 kmh WNW 19.0 mph30.6 kmh 30.17 in1021.7 mb 0.00 in0.0 mm 0.00 in0.0 mm 0.00 in0.0 mm
12:24 AM 32.9°F0.5°C 14.2°F-9.9°C 46% 10.0 mph WNW16.1 kmh WNW 19.0 mph30.6 kmh 30.18 in1022.0 mb 0.00 in0.0 mm 0.00 in0.0 mm 0.00 in0.0 mm
12:25 AM 32.9°F0.5°C 14.2°F-9.9°C 46% 12.0 mph WNW19.3 kmh WNW 19.0 mph30.6 kmh 30.18 in1022.0 mb 0.00 in0.0 mm 0.00 in0.0 mm 0.00 in0.0 mm
12:26 AM 32.6°F0.3°C 13.5°F-10.3°C 45% 11.0 mph WNW17.7 kmh WNW 19.0 mph30.6 kmh 30.18 in1022.0 mb 0.00 in0.0 mm 0.00 in0.0 mm 0.00 in0.0 mm
12:27 AM 32.6°F0.3°C 13.5°F-10.3°C 45% 20.0 mph WNW32.2 kmh WNW 20.0 mph32.2 kmh 30.18 in1022.0 mb 0.00 in0.0 mm 0.00 in0.0 mm 0.00 in0.0 mm
12:28 AM 32.6°F0.3°C 13.5°F-10.3°C 45% 13.0 mph WNW20.9 kmh WNW 20.0 mph32.2 kmh 30.18 in1022.0 mb 0.00 in0.0 mm 0.00 in0.0 mm 0.00 in0.0 mm
12:29 AM 32.6°F0.3°C 13.5°F-10.3°C 45% 13.0 mph W20.9 kmh W 20.0 mph32.2 kmh 30.18 in1022.0 mb 0.00 in0.0 mm 0.00 in0.0 mm 0.00 in0.0 mm
12:30 AM 32.6°F0.3°C 14.0°F-10.0°C 46% 20.0 mph NW32.2 kmh NW 20.0 mph32.2 kmh 30.18 in1022.0 mb 0.00 in0.0 mm 0.00 in0.0 mm 0.00 in0.0 mm
12:31 AM 32.6°F0.3°C 14.0°F-10.0°C 46% 19.0 mph NW30.6 kmh NW 20.0 mph32.2 kmh 30.18 in1022.0 mb 0.00 in0.0 mm 0.00 in0.0 mm 0.00 in0.0 mm
12:32 AM 32.6°F0.3°C 15.0°F-9.4°C 48% 13.0 mph WNW20.9 kmh WNW 20.0 mph32.2 kmh 30.18 in1022.0 mb 0.00 in0.0 mm 0.00 in0.0 mm 0.00 in0.0 mm
12:33 AM 32.6°F0.3°C 14.0°F-10.0°C 46% 18.0 mph NW29.0 kmh NW 20.0 mph32.2 kmh 30.18 in1022.0 mb 0.00 in0.0 mm 0.00 in0.0 mm 0.00 in0.0 mm
12:34 AM 32.6°F0.3°C 14.0°F-10.0°C 46% 15.0 mph NW24.1 kmh NW 20.0 mph32.2 kmh 30.18 in1022.0 mb 0.00 in0.0 mm 0.00 in0.0 mm 0.00 in0.0 mm
12:35 AM 32.6°F0.3°C 14.0°F-10.0°C 46% 10.0 mph W16.1 kmh W 20.0 mph32.2 kmh 30.18 in1022.0 mb 0.00 in0.0 mm 0.00 in0.0 mm 0.00 in0.0 mm
12:36 AM 32.5°F0.3°C 13.9°F-10.1°C 46% 11.0 mph NNW17.7 kmh NNW 20.0 mph32.2 kmh 30.18 in1022.0 mb 0.00 in0.0 mm 0.00 in0.0 mm 0.00 in0.0 mm
12:37 AM 32.5°F0.3°C 14.9°F-9.5°C 48% 16.0 mph NW25.7 kmh NW 20.0 mph32.2 kmh 30.18 in1022.0 mb 0.00 in0.0 mm 0.00 in0.0 mm 0.00 in0.0 mm
12:38 AM 32.5°F0.3°C 13.9°F-10.1°C 46% 16.0 mph WNW25.7 kmh WNW 20.0 mph32.2 kmh 30.19 in1022.4 mb 0.00 in0.0 mm 0.00 in0.0 mm 0.00 in0.0 mm
12:39 AM 32.5°F0.3°C 13.4°F-10.3°C 45% 16.0 mph W25.7 kmh W 20.0 mph32.2 kmh 30.18 in1022.0 mb 0.00 in0.0 mm 0.00 in0.0 mm 0.00 in0.0 mm
12:40 AM 32.5°F0.3°C 13.9°F-10.1°C 46% 11.0 mph NW17.7 kmh NW 20.0 mph32.2 kmh 30.18 in1022.0 mb 0.00 in0.0 mm 0.00 in0.0 mm 0.00 in0.0 mm
12:41 AM 32.5°F0.3°C 13.9°F-10.1°C 46% 13.0 mph NW20.9 kmh NW 20.0 mph32.2 kmh 30.18 in1022.0 mb 0.00 in0.0 mm 0.00 in0.0 mm 0.00 in0.0 mm
12:42 AM 32.5°F0.3°C 13.4°F-10.3°C 45% 12.0 mph WNW19.3 kmh WNW 20.0 mph32.2 kmh 30.18 in1022.0 mb 0.00 in0.0 mm 0.00 in0.0 mm 0.00 in0.0 mm
12:43 AM 32.4°F0.2°C 13.3°F-10.4°C 45% 20.0 mph WNW32.2 kmh WNW 20.0 mph32.2 kmh 30.18 in1022.0 mb 0.00 in0.0 mm 0.00 in0.0 mm 0.00 in0.0 mm
12:44 AM 32.4°F0.2°C 13.3°F-10.4°C 45% 16.0 mph WNW25.7 kmh WNW 20.0 mph32.2 kmh 30.18 in1022.0 mb 0.00 in0.0 mm 0.00 in0.0 mm 0.00 in0.0 mm
12:45 AM 32.4°F0.2°C 13.8°F-10.1°C 46% 17.0 mph NW27.4 kmh NW 20.0 mph32.2 kmh 30.19 in1022.4 mb 0.00 in0.0 mm 0.00 in0.0 mm 0.00 in0.0 mm
12:46 AM 32.4°F0.2°C 13.8°F-10.1°C 46% 16.0 mph WNW25.7 kmh WNW 20.0 mph32.2 kmh 30.19 in1022.4 mb 0.00 in0.0 mm 0.00 in0.0 mm 0.00 in0.0 mm
12:47 AM 32.4°F0.2°C 14.8°F-9.6°C 48% 15.0 mph NW24.1 kmh NW 20.0 mph32.2 kmh 30.18 in1022.0 mb 0.00 in0.0 mm 0.00 in0.0 mm 0.00 in0.0 mm
12:48 AM 32.4°F0.2°C 13.8°F-10.1°C 46% 14.0 mph WNW22.5 kmh WNW 20.0 mph32.2 kmh 30.19 in1022.4 mb 0.00 in0.0 mm 0.00 in0.0 mm 0.00 in0.0 mm
12:49 AM 32.4°F0.2°C 14.8°F-9.6°C 48% 13.0 mph W20.9 kmh W 20.0 mph32.2 kmh 30.18 in1022.0 mb 0.00 in0.0 mm 0.00 in0.0 mm 0.00 in0.0 mm
12:50 AM 32.4°F0.2°C 15.8°F-9.0°C 50% 12.0 mph NW19.3 kmh NW 20.0 mph32.2 kmh 30.18 in1022.0 mb 0.00 in0.0 mm 0.00 in0.0 mm 0.00 in0.0 mm
12:51 AM 32.2°F0.1°C 14.6°F-9.7°C 48% 18.0 mph WNW29.0 kmh WNW 20.0 mph32.2 kmh 30.18 in1022.0 mb 0.00 in0.0 mm 0.00 in0.0 mm 0.00 in0.0 mm
12:52 AM 32.2°F0.1°C 15.1°F-9.4°C 49% 12.0 mph W19.3 kmh W 20.0 mph32.2 kmh 30.18 in1022.0 mb 0.00 in0.0 mm 0.00 in0.0 mm 0.00 in0.0 mm
12:53 AM 32.2°F0.1°C 15.1°F-9.4°C 49% 16.0 mph NW25.7 kmh NW 20.0 mph32.2 kmh 30.18 in1022.0 mb 0.00 in0.0 mm 0.00 in0.0 mm 0.00 in0.0 mm
12:54 AM 32.2°F0.1°C 15.1°F-9.4°C 49% 15.0 mph NW24.1 kmh NW 20.0 mph32.2 kmh 30.18 in1022.0 mb 0.00 in0.0 mm 0.00 in0.0 mm 0.00 in0.0 mm
12:55 AM 32.2°F0.1°C 13.6°F-10.2°C 46% 16.0 mph NW25.7 kmh NW 18.0 mph29.0 kmh 30.18 in1022.0 mb 0.00 in0.0 mm 0.00 in0.0 mm 0.00 in0.0 mm
12:56 AM 32.2°F0.1°C 13.6°F-10.2°C 46% 20.0 mph WNW32.2 kmh WNW 24.0 mph38.6 kmh 30.18 in1022.0 mb 0.00 in0.0 mm 0.00 in0.0 mm 0.00 in0.0 mm
12:57 AM 31.9°F-0.1°C 12.8°F-10.7°C 45% 16.0 mph WNW25.7 kmh WNW 24.0 mph38.6 kmh 30.18 in1022.0 mb 0.00 in0.0 mm 0.00 in0.0 mm 0.00 in0.0 mm
12:58 AM 31.9°F-0.1°C 12.8°F-10.7°C 45% 10.0 mph NW16.1 kmh NW 24.0 mph38.6 kmh 30.18 in1022.0 mb 0.00 in0.0 mm 0.00 in0.0 mm 0.00 in0.0 mm
12:59 AM 31.7°F-0.2°C 12.6°F-10.8°C 45% 13.0 mph NW20.9 kmh NW 24.0 mph38.6 kmh 30.19 in1022.4 mb 0.00 in0.0 mm 0.00 in0.0 mm 0.00 in0.0 mm
01:00 AM 31.7°F-0.2°C 13.1°F-10.5°C 46% 13.0 mph W20.9 kmh W 24.0 mph38.6 kmh 30.19 in1022.4 mb 0.00 in0.0 mm 0.00 in0.0 mm 0.00 in0.0 mm
01:01 AM 31.7°F-0.2°C 13.1°F-10.5°C 46% 13.0 mph NW20.9 kmh NW 24.0 mph38.6 kmh 30.19 in1022.4 mb 0.00 in0.0 mm 0.00 in0.0 mm 0.00 in0.0 mm
01:02 AM 31.7°F-0.2°C 12.6°F-10.8°C 45% 12.0 mph WNW19.3 kmh WNW 24.0 mph38.6 kmh 30.19 in1022.4 mb 0.00 in0.0 mm 0.00 in0.0 mm 0.00 in0.0 mm
01:03 AM 31.7°F-0.2°C 12.6°F-10.8°C 45% 14.0 mph WNW22.5 kmh WNW 24.0 mph38.6 kmh 30.19 in1022.4 mb 0.00 in0.0 mm 0.00 in0.0 mm 0.00 in0.0 mm
01:04 AM 31.7°F-0.2°C 14.1°F-9.9°C 48% 10.0 mph WNW16.1 kmh WNW 24.0 mph38.6 kmh 30.19 in1022.4 mb 0.00 in0.0 mm 0.00 in0.0 mm 0.00 in0.0 mm
01:05 AM 31.7°F-0.2°C 14.1°F-9.9°C 48% 13.0 mph WNW20.9 kmh WNW 24.0 mph38.6 kmh 30.19 in1022.4 mb 0.00 in0.0 mm 0.00 in0.0 mm 0.00 in0.0 mm
01:06 AM 31.7°F-0.2°C 14.6°F-9.7°C 49% 21.0 mph WNW33.8 kmh WNW 21.0 mph33.8 kmh 30.19 in1022.4 mb 0.00 in0.0 mm 0.00 in0.0 mm 0.00 in0.0 mm
01:07 AM 31.7°F-0.2°C 14.1°F-9.9°C 48% 16.0 mph WNW25.7 kmh WNW 21.0 mph33.8 kmh 30.19 in1022.4 mb 0.00 in0.0 mm 0.00 in0.0 mm 0.00 in0.0 mm
01:08 AM 31.6°F-0.2°C 13.1°F-10.5°C 46% 16.0 mph WNW25.7 kmh WNW 21.0 mph33.8 kmh 30.19 in1022.4 mb 0.00 in0.0 mm 0.00 in0.0 mm 0.00 in0.0 mm
01:09 AM 31.6°F-0.2°C 14.1°F-9.9°C 48% 17.0 mph NW27.4 kmh NW 21.0 mph33.8 kmh 30.19 in1022.4 mb 0.00 in0.0 mm 0.00 in0.0 mm 0.00 in0.0 mm
01:10 AM 31.6°F-0.2°C 14.1°F-9.9°C 48% 12.0 mph NW19.3 kmh NW 21.0 mph33.8 kmh 30.19 in1022.4 mb 0.00 in0.0 mm 0.00 in0.0 mm 0.00 in0.0 mm
01:11 AM 31.6°F-0.2°C 13.1°F-10.5°C 46% 13.0 mph WNW20.9 kmh WNW 21.0 mph33.8 kmh 30.19 in1022.4 mb 0.00 in0.0 mm 0.00 in0.0 mm 0.00 in0.0 mm
01:12 AM 31.5°F-0.3°C 12.5°F-10.8°C 45% 13.0 mph W20.9 kmh W 21.0 mph33.8 kmh 30.19 in1022.4 mb 0.00 in0.0 mm 0.00 in0.0 mm 0.00 in0.0 mm
01:13 AM 31.5°F-0.3°C 13.0°F-10.6°C 46% 17.0 mph WNW27.4 kmh WNW 21.0 mph33.8 kmh 30.19 in1022.4 mb 0.00 in0.0 mm 0.00 in0.0 mm 0.00 in0.0 mm
01:14 AM 31.5°F-0.3°C 14.0°F-10.0°C 48% 15.0 mph WNW24.1 kmh WNW 21.0 mph33.8 kmh 30.20 in1022.7 mb 0.00 in0.0 mm 0.00 in0.0 mm 0.00 in0.0 mm
01:15 AM 31.5°F-0.3°C 14.4°F-9.8°C 49% 15.0 mph NW24.1 kmh NW 21.0 mph33.8 kmh 30.19 in1022.4 mb 0.00 in0.0 mm 0.00 in0.0 mm 0.00 in0.0 mm
01:16 AM 31.5°F-0.3°C 14.0°F-10.0°C 48% 11.0 mph WNW17.7 kmh WNW 21.0 mph33.8 kmh 30.19 in1022.4 mb 0.00 in0.0 mm 0.00 in0.0 mm 0.00 in0.0 mm
01:17 AM 31.5°F-0.3°C 13.0°F-10.6°C 46% 14.0 mph WNW22.5 kmh WNW 19.0 mph30.6 kmh 30.19 in1022.4 mb 0.00 in0.0 mm 0.00 in0.0 mm 0.00 in0.0 mm
01:18 AM 31.5°F-0.3°C 14.0°F-10.0°C 48% 14.0 mph NW22.5 kmh NW 19.0 mph30.6 kmh 30.19 in1022.4 mb 0.00 in0.0 mm 0.00 in0.0 mm 0.00 in0.0 mm
01:19 AM 31.5°F-0.3°C 14.4°F-9.8°C 49% 13.0 mph WNW20.9 kmh WNW 19.0 mph30.6 kmh 30.19 in1022.4 mb 0.00 in0.0 mm 0.00 in0.0 mm 0.00 in0.0 mm
01:20 AM 31.5°F-0.3°C 14.0°F-10.0°C 48% 15.0 mph WNW24.1 kmh WNW 19.0 mph30.6 kmh 30.20 in1022.7 mb 0.00 in0.0 mm 0.00 in0.0 mm 0.00 in0.0 mm
01:21 AM 31.2°F-0.4°C 12.7°F-10.7°C 46% 18.0 mph WNW29.0 kmh WNW 19.0 mph30.6 kmh 30.19 in1022.4 mb 0.00 in0.0 mm 0.00 in0.0 mm 0.00 in0.0 mm
01:22 AM 31.2°F-0.4°C 12.7°F-10.7°C 46% 11.0 mph NNW17.7 kmh NNW 19.0 mph30.6 kmh 30.19 in1022.4 mb 0.00 in0.0 mm 0.00 in0.0 mm 0.00 in0.0 mm
01:23 AM 31.2°F-0.4°C 13.7°F-10.2°C 48% 14.0 mph WNW22.5 kmh WNW 19.0 mph30.6 kmh 30.19 in1022.4 mb 0.00 in0.0 mm 0.00 in0.0 mm 0.00 in0.0 mm
01:24 AM 31.2°F-0.4°C 12.7°F-10.7°C 46% 10.0 mph NW16.1 kmh NW 18.0 mph29.0 kmh 30.19 in1022.4 mb 0.00 in0.0 mm 0.00 in0.0 mm 0.00 in0.0 mm
01:25 AM 31.2°F-0.4°C 13.7°F-10.2°C 48% 13.0 mph NW20.9 kmh NW 18.0 mph29.0 kmh 30.19 in1022.4 mb 0.00 in0.0 mm 0.00 in0.0 mm 0.00 in0.0 mm
01:26 AM 31.2°F-0.4°C 13.7°F-10.2°C 48% 16.0 mph WNW25.7 kmh WNW 20.0 mph32.2 kmh 30.19 in1022.4 mb 0.00 in0.0 mm 0.00 in0.0 mm 0.00 in0.0 mm
01:27 AM 31.2°F-0.4°C 14.2°F-9.9°C 49% 15.0 mph WNW24.1 kmh WNW 20.0 mph32.2 kmh 30.19 in1022.4 mb 0.00 in0.0 mm 0.00 in0.0 mm 0.00 in0.0 mm
01:28 AM 31.2°F-0.4°C 13.7°F-10.2°C 48% 13.0 mph WNW20.9 kmh WNW 20.0 mph32.2 kmh 30.20 in1022.7 mb 0.00 in0.0 mm 0.00 in0.0 mm 0.00 in0.0 mm
01:29 AM 31.2°F-0.4°C 14.2°F-9.9°C 49% 12.0 mph WNW19.3 kmh WNW 20.0 mph32.2 kmh 30.20 in1022.7 mb 0.00 in0.0 mm 0.00 in0.0 mm 0.00 in0.0 mm
01:30 AM 31.2°F-0.4°C 13.7°F-10.2°C 48% 18.0 mph W29.0 kmh W 20.0 mph32.2 kmh 30.20 in1022.7 mb 0.00 in0.0 mm 0.00 in0.0 mm 0.00 in0.0 mm
01:31 AM 31.2°F-0.4°C 13.7°F-10.2°C 48% 12.0 mph WNW19.3 kmh WNW 20.0 mph32.2 kmh 30.20 in1022.7 mb 0.00 in0.0 mm 0.00 in0.0 mm 0.00 in0.0 mm
01:32 AM 31.2°F-0.4°C 14.6°F-9.7°C 50% 17.0 mph NNW27.4 kmh NNW 20.0 mph32.2 kmh 30.20 in1022.7 mb 0.00 in0.0 mm 0.00 in0.0 mm 0.00 in0.0 mm
01:33 AM 31.1°F-0.5°C 14.1°F-9.9°C 49% 16.0 mph WNW25.7 kmh WNW 20.0 mph32.2 kmh 30.20 in1022.7 mb 0.00 in0.0 mm 0.00 in0.0 mm 0.00 in0.0 mm
01:34 AM 31.1°F-0.5°C 14.1°F-9.9°C 49% 15.0 mph NNW24.1 kmh NNW 20.0 mph32.2 kmh 30.21 in1023.0 mb 0.00 in0.0 mm 0.00 in0.0 mm 0.00 in0.0 mm
01:35 AM 31.1°F-0.5°C 14.6°F-9.7°C 50% 15.0 mph WNW24.1 kmh WNW 20.0 mph32.2 kmh 30.21 in1023.0 mb 0.00 in0.0 mm 0.00 in0.0 mm 0.00 in0.0 mm
01:36 AM 31.1°F-0.5°C 14.6°F-9.7°C 50% 11.0 mph WNW17.7 kmh WNW 18.0 mph29.0 kmh 30.21 in1023.0 mb 0.00 in0.0 mm 0.00 in0.0 mm 0.00 in0.0 mm
01:37 AM 31.1°F-0.5°C 14.6°F-9.7°C 50% 12.0 mph NW19.3 kmh NW 18.0 mph29.0 kmh 30.21 in1023.0 mb 0.00 in0.0 mm 0.00 in0.0 mm 0.00 in0.0 mm
01:38 AM 30.8°F-0.7°C 13.8°F-10.1°C 49% 12.0 mph WNW19.3 kmh WNW 18.0 mph29.0 kmh 30.21 in1023.0 mb 0.00 in0.0 mm 0.00 in0.0 mm 0.00 in0.0 mm
01:39 AM 30.8°F-0.7°C 13.8°F-10.1°C 49% 11.0 mph NW17.7 kmh NW 18.0 mph29.0 kmh 30.20 in1022.7 mb 0.00 in0.0 mm 0.00 in0.0 mm 0.00 in0.0 mm
01:40 AM 30.7°F-0.7°C 13.2°F-10.4°C 48% 18.0 mph NW29.0 kmh NW 18.0 mph29.0 kmh 30.21 in1023.0 mb 0.00 in0.0 mm 0.00 in0.0 mm 0.00 in0.0 mm
01:41 AM 30.7°F-0.7°C 13.7°F-10.2°C 49% 8.0 mph NW12.9 kmh NW 18.0 mph29.0 kmh 30.21 in1023.0 mb 0.00 in0.0 mm 0.00 in0.0 mm 0.00 in0.0 mm
01:42 AM 30.7°F-0.7°C 14.6°F-9.7°C 51% 11.0 mph NW17.7 kmh NW 18.0 mph29.0 kmh 30.20 in1022.7 mb 0.00 in0.0 mm 0.00 in0.0 mm 0.00 in0.0 mm
01:43 AM 30.7°F-0.7°C 14.6°F-9.7°C 51% 14.0 mph NW22.5 kmh NW 18.0 mph29.0 kmh 30.20 in1022.7 mb 0.00 in0.0 mm 0.00 in0.0 mm 0.00 in0.0 mm
01:44 AM 30.5°F-0.8°C 14.0°F-10.0°C 50% 10.0 mph WNW16.1 kmh WNW 18.0 mph29.0 kmh 30.21 in1023.0 mb 0.00 in0.0 mm 0.00 in0.0 mm 0.00 in0.0 mm
01:45 AM 30.5°F-0.8°C 14.0°F-10.0°C 50% 13.0 mph WNW20.9 kmh WNW 18.0 mph29.0 kmh 30.21 in1023.0 mb 0.00 in0.0 mm 0.00 in0.0 mm 0.00 in0.0 mm
01:46 AM 30.5°F-0.8°C 14.0°F-10.0°C 50% 6.0 mph NW9.7 kmh NW 18.0 mph29.0 kmh 30.21 in1023.0 mb 0.00 in0.0 mm 0.00 in0.0 mm 0.00 in0.0 mm
01:47 AM 30.5°F-0.8°C 15.4°F-9.2°C 53% 7.0 mph NNW11.3 kmh NNW 18.0 mph29.0 kmh 30.21 in1023.0 mb 0.00 in0.0 mm 0.00 in0.0 mm 0.00 in0.0 mm
01:48 AM 30.5°F-0.8°C 15.4°F-9.2°C 53% 8.0 mph NW12.9 kmh NW 18.0 mph29.0 kmh 30.21 in1023.0 mb 0.00 in0.0 mm 0.00 in0.0 mm 0.00 in0.0 mm
01:49 AM 30.5°F-0.8°C 15.8°F-9.0°C 54% 10.0 mph NNW16.1 kmh NNW 18.0 mph29.0 kmh 30.21 in1023.0 mb 0.00 in0.0 mm 0.00 in0.0 mm 0.00 in0.0 mm
01:50 AM 30.3°F-0.9°C 14.3°F-9.8°C 51% 11.0 mph NW17.7 kmh NW 15.0 mph24.1 kmh 30.22 in1023.4 mb 0.00 in0.0 mm 0.00 in0.0 mm 0.00 in0.0 mm
01:51 AM 30.3°F-0.9°C 13.8°F-10.1°C 50% 12.0 mph WNW19.3 kmh WNW 15.0 mph24.1 kmh 30.22 in1023.4 mb 0.00 in0.0 mm 0.00 in0.0 mm 0.00 in0.0 mm
01:52 AM 30.3°F-0.9°C 13.8°F-10.1°C 50% 12.0 mph NW19.3 kmh NW 15.0 mph24.1 kmh 30.21 in1023.0 mb 0.00 in0.0 mm 0.00 in0.0 mm 0.00 in0.0 mm
01:53 AM 30.3°F-0.9°C 13.8°F-10.1°C 50% 11.0 mph NW17.7 kmh NW 15.0 mph24.1 kmh 30.22 in1023.4 mb 0.00 in0.0 mm 0.00 in0.0 mm 0.00 in0.0 mm
01:54 AM 30.3°F-0.9°C 14.3°F-9.8°C 51% 13.0 mph NW20.9 kmh NW 15.0 mph24.1 kmh 30.22 in1023.4 mb 0.00 in0.0 mm 0.00 in0.0 mm 0.00 in0.0 mm
01:55 AM 30.3°F-0.9°C 14.3°F-9.8°C 51% 12.0 mph NW19.3 kmh NW 15.0 mph24.1 kmh 30.22 in1023.4 mb 0.00 in0.0 mm 0.00 in0.0 mm 0.00 in0.0 mm
01:56 AM 30.3°F-0.9°C 14.3°F-9.8°C 51% 11.0 mph NNW17.7 kmh NNW 15.0 mph24.1 kmh 30.22 in1023.4 mb 0.00 in0.0 mm 0.00 in0.0 mm 0.00 in0.0 mm
01:57 AM 30.1°F-1.1°C 13.6°F-10.2°C 50% 11.0 mph NW17.7 kmh NW 16.0 mph25.7 kmh 30.22 in1023.4 mb 0.00 in0.0 mm 0.00 in0.0 mm 0.00 in0.0 mm
01:58 AM 30.1°F-1.1°C 13.6°F-10.2°C 50% 12.0 mph WNW19.3 kmh WNW 16.0 mph25.7 kmh 30.22 in1023.4 mb 0.00 in0.0 mm 0.00 in0.0 mm 0.00 in0.0 mm
01:59 AM 30.1°F-1.1°C 14.1°F-9.9°C 51% 10.0 mph NNW16.1 kmh NNW 16.0 mph25.7 kmh 30.22 in1023.4 mb 0.00 in0.0 mm 0.00 in0.0 mm 0.00 in0.0 mm
02:00 AM 30.1°F-1.1°C 13.6°F-10.2°C 50% 11.0 mph NW17.7 kmh NW 16.0 mph25.7 kmh 30.22 in1023.4 mb 0.00 in0.0 mm 0.00 in0.0 mm 0.00 in0.0 mm
02:01 AM 30.0°F-1.1°C 13.5°F-10.3°C 50% 16.0 mph WNW25.7 kmh WNW 16.0 mph25.7 kmh 30.23 in1023.7 mb 0.00 in0.0 mm 0.00 in0.0 mm 0.00 in0.0 mm
02:02 AM 30.0°F-1.1°C 13.5°F-10.3°C 50% 12.0 mph W19.3 kmh W 16.0 mph25.7 kmh 30.23 in1023.7 mb 0.00 in0.0 mm 0.00 in0.0 mm 0.00 in0.0 mm
02:03 AM 30.0°F-1.1°C 13.1°F-10.5°C 49% 15.0 mph WNW24.1 kmh WNW 16.0 mph25.7 kmh 30.23 in1023.7 mb 0.00 in0.0 mm 0.00 in0.0 mm 0.00 in0.0 mm
02:04 AM 30.0°F-1.1°C 13.5°F-10.3°C 50% 19.0 mph NW30.6 kmh NW 19.0 mph30.6 kmh 30.23 in1023.7 mb 0.00 in0.0 mm 0.00 in0.0 mm 0.00 in0.0 mm
02:05 AM 30.0°F-1.1°C 13.5°F-10.3°C 50% 11.0 mph WNW17.7 kmh WNW 19.0 mph30.6 kmh 30.23 in1023.7 mb 0.00 in0.0 mm 0.00 in0.0 mm 0.00 in0.0 mm
02:06 AM 29.8°F-1.2°C 12.9°F-10.6°C 49% 14.0 mph NNW22.5 kmh NNW 19.0 mph30.6 kmh 30.23 in1023.7 mb 0.00 in0.0 mm 0.00 in0.0 mm 0.00 in0.0 mm
02:07 AM 29.8°F-1.2°C 13.3°F-10.4°C 50% 12.0 mph NW19.3 kmh NW 19.0 mph30.6 kmh 30.22 in1023.4 mb 0.00 in0.0 mm 0.00 in0.0 mm 0.00 in0.0 mm
02:08 AM 29.8°F-1.2°C 13.3°F-10.4°C 50% 11.0 mph NW17.7 kmh NW 19.0 mph30.6 kmh 30.22 in1023.4 mb 0.00 in0.0 mm 0.00 in0.0 mm 0.00 in0.0 mm
02:09 AM 29.8°F-1.2°C 13.3°F-10.4°C 50% 17.0 mph NW27.4 kmh NW 19.0 mph30.6 kmh 30.22 in1023.4 mb 0.00 in0.0 mm 0.00 in0.0 mm 0.00 in0.0 mm
02:10 AM 29.8°F-1.2°C 13.3°F-10.4°C 50% 11.0 mph NW17.7 kmh NW 19.0 mph30.6 kmh 30.23 in1023.7 mb 0.00 in0.0 mm 0.00 in0.0 mm 0.00 in0.0 mm
02:11 AM 29.6°F-1.3°C 12.7°F-10.7°C 49% 17.0 mph NW27.4 kmh NW 19.0 mph30.6 kmh 30.23 in1023.7 mb 0.00 in0.0 mm 0.00 in0.0 mm 0.00 in0.0 mm
02:12 AM 29.6°F-1.3°C 12.2°F-11.0°C 48% 10.0 mph NW16.1 kmh NW 19.0 mph30.6 kmh 30.23 in1023.7 mb 0.00 in0.0 mm 0.00 in0.0 mm 0.00 in0.0 mm
02:13 AM 29.6°F-1.3°C 13.2°F-10.4°C 50% 10.0 mph NNW16.1 kmh NNW 19.0 mph30.6 kmh 30.23 in1023.7 mb 0.00 in0.0 mm 0.00 in0.0 mm 0.00 in0.0 mm
02:14 AM 29.6°F-1.3°C 13.2°F-10.4°C 50% 12.0 mph WNW19.3 kmh WNW 18.0 mph29.0 kmh 30.23 in1023.7 mb 0.00 in0.0 mm 0.00 in0.0 mm 0.00 in0.0 mm
02:15 AM 29.6°F-1.3°C 12.2°F-11.0°C 48% 11.0 mph NW17.7 kmh NW 18.0 mph29.0 kmh 30.23 in1023.7 mb 0.00 in0.0 mm 0.00 in0.0 mm 0.00 in0.0 mm
02:16 AM 29.6°F-1.3°C 12.7°F-10.7°C 49% 11.0 mph NNW17.7 kmh NNW 18.0 mph29.0 kmh 30.23 in1023.7 mb 0.00 in0.0 mm 0.00 in0.0 mm 0.00 in0.0 mm
02:17 AM 29.5°F-1.4°C 12.6°F-10.8°C 49% 12.0 mph WNW19.3 kmh WNW 18.0 mph29.0 kmh 30.22 in1023.4 mb 0.00 in0.0 mm 0.00 in0.0 mm 0.00 in0.0 mm
02:18 AM 29.5°F-1.4°C 12.6°F-10.8°C 49% 10.0 mph NW16.1 kmh NW 18.0 mph29.0 kmh 30.23 in1023.7 mb 0.00 in0.0 mm 0.00 in0.0 mm 0.00 in0.0 mm
02:19 AM 29.5°F-1.4°C 12.1°F-11.1°C 48% 9.0 mph NNW14.5 kmh NNW 18.0 mph29.0 kmh 30.23 in1023.7 mb 0.00 in0.0 mm 0.00 in0.0 mm 0.00 in0.0 mm
02:20 AM 29.5°F-1.4°C 12.1°F-11.1°C 48% 16.0 mph NNW25.7 kmh NNW 17.0 mph27.4 kmh 30.23 in1023.7 mb 0.00 in0.0 mm 0.00 in0.0 mm 0.00 in0.0 mm
02:21 AM 29.5°F-1.4°C 12.1°F-11.1°C 48% 15.0 mph NW24.1 kmh NW 19.0 mph30.6 kmh 30.23 in1023.7 mb 0.00 in0.0 mm 0.00 in0.0 mm 0.00 in0.0 mm
02:22 AM 29.2°F-1.6°C 10.3°F-12.1°C 45% 12.0 mph W19.3 kmh W 19.0 mph30.6 kmh 30.24 in1024.0 mb 0.00 in0.0 mm 0.00 in0.0 mm 0.00 in0.0 mm
02:23 AM 29.2°F-1.6°C 12.3°F-10.9°C 49% 15.0 mph WNW24.1 kmh WNW 19.0 mph30.6 kmh 30.24 in1024.0 mb 0.00 in0.0 mm 0.00 in0.0 mm 0.00 in0.0 mm
02:24 AM 29.2°F-1.6°C 10.9°F-11.7°C 46% 16.0 mph NW25.7 kmh NW 20.0 mph32.2 kmh 30.24 in1024.0 mb 0.00 in0.0 mm 0.00 in0.0 mm 0.00 in0.0 mm
02:25 AM 29.1°F-1.6°C 10.3°F-12.1°C 45% 20.0 mph NNW32.2 kmh NNW 20.0 mph32.2 kmh 30.24 in1024.0 mb 0.00 in0.0 mm 0.00 in0.0 mm 0.00 in0.0 mm
02:26 AM 29.1°F-1.6°C 10.3°F-12.1°C 45% 16.0 mph NW25.7 kmh NW 20.0 mph32.2 kmh 30.23 in1023.7 mb 0.00 in0.0 mm 0.00 in0.0 mm 0.00 in0.0 mm
02:27 AM 29.1°F-1.6°C 10.3°F-12.1°C 45% 18.0 mph WNW29.0 kmh WNW 20.0 mph32.2 kmh 30.23 in1023.7 mb 0.00 in0.0 mm 0.00 in0.0 mm 0.00 in0.0 mm
02:28 AM 29.1°F-1.6°C 9.7°F-12.4°C 44% 8.0 mph NW12.9 kmh NW 20.0 mph32.2 kmh 30.24 in1024.0 mb 0.00 in0.0 mm 0.00 in0.0 mm 0.00 in0.0 mm
02:29 AM 29.1°F-1.6°C 9.7°F-12.4°C 44% 11.0 mph 17.7 kmh 20.0 mph32.2 kmh 30.24 in1024.0 mb 0.00 in0.0 mm 0.00 in0.0 mm 0.00 in0.0 mm
02:30 AM 28.8°F-1.8°C 10.5°F-11.9°C 46% 12.0 mph NW19.3 kmh NW 20.0 mph32.2 kmh 30.24 in1024.0 mb 0.00 in0.0 mm 0.00 in0.0 mm 0.00 in0.0 mm
02:31 AM 28.8°F-1.8°C 10.5°F-11.9°C 46% 16.0 mph 25.7 kmh 20.0 mph32.2 kmh 30.24 in1024.0 mb 0.00 in0.0 mm 0.00 in0.0 mm 0.00 in0.0 mm
02:32 AM 28.8°F-1.8°C 10.5°F-11.9°C 46% 15.0 mph NW24.1 kmh NW 20.0 mph32.2 kmh 30.24 in1024.0 mb 0.00 in0.0 mm 0.00 in0.0 mm 0.00 in0.0 mm
02:33 AM 28.8°F-1.8°C 10.0°F-12.2°C 45% 12.0 mph NNW19.3 kmh NNW 20.0 mph32.2 kmh 30.24 in1024.0 mb 0.00 in0.0 mm 0.00 in0.0 mm 0.00 in0.0 mm
02:34 AM 28.8°F-1.8°C 10.0°F-12.2°C 45% 17.0 mph NW27.4 kmh NW 20.0 mph32.2 kmh 30.24 in1024.0 mb 0.00 in0.0 mm 0.00 in0.0 mm 0.00 in0.0 mm
02:35 AM 28.8°F-1.8°C 10.0°F-12.2°C 45% 12.0 mph WNW19.3 kmh WNW 20.0 mph32.2 kmh 30.24 in1024.0 mb 0.00 in0.0 mm 0.00 in0.0 mm 0.00 in0.0 mm
02:36 AM 28.8°F-1.8°C 10.0°F-12.2°C 45% 12.0 mph NW19.3 kmh NW 20.0 mph32.2 kmh 30.25 in1024.4 mb 0.00 in0.0 mm 0.00 in0.0 mm 0.00 in0.0 mm
02:37 AM 28.8°F-1.8°C 10.0°F-12.2°C 45% 10.0 mph WNW16.1 kmh WNW 20.0 mph32.2 kmh 30.25 in1024.4 mb 0.00 in0.0 mm 0.00 in0.0 mm 0.00 in0.0 mm
02:38 AM 28.8°F-1.8°C 10.0°F-12.2°C 45% 11.0 mph WNW17.7 kmh WNW 20.0 mph32.2 kmh 30.25 in1024.4 mb 0.00 in0.0 mm 0.00 in0.0 mm 0.00 in0.0 mm
02:39 AM 28.8°F-1.8°C 10.5°F-11.9°C 46% 13.0 mph NW20.9 kmh NW 20.0 mph32.2 kmh 30.25 in1024.4 mb 0.00 in0.0 mm 0.00 in0.0 mm 0.00 in0.0 mm
02:40 AM 28.8°F-1.8°C 10.0°F-12.2°C 45% 13.0 mph W20.9 kmh W 20.0 mph32.2 kmh 30.25 in1024.4 mb 0.00 in0.0 mm 0.00 in0.0 mm 0.00 in0.0 mm
02:41 AM 28.8°F-1.8°C 10.0°F-12.2°C 45% 13.0 mph WNW20.9 kmh WNW 20.0 mph32.2 kmh 30.25 in1024.4 mb 0.00 in0.0 mm 0.00 in0.0 mm 0.00 in0.0 mm
02:42 AM 28.8°F-1.8°C 11.5°F-11.4°C 48% 11.0 mph WNW17.7 kmh WNW 20.0 mph32.2 kmh 30.25 in1024.4 mb 0.00 in0.0 mm 0.00 in0.0 mm 0.00 in0.0 mm
02:43 AM 28.8°F-1.8°C 12.0°F-11.1°C 49% 14.0 mph NW22.5 kmh NW 20.0 mph32.2 kmh 30.25 in1024.4 mb 0.00 in0.0 mm 0.00 in0.0 mm 0.00 in0.0 mm
02:44 AM 28.7°F-1.8°C 9.9°F-12.3°C 45% 8.0 mph NW12.9 kmh NW 20.0 mph32.2 kmh 30.25 in1024.4 mb 0.00 in0.0 mm 0.00 in0.0 mm 0.00 in0.0 mm
02:45 AM 28.7°F-1.8°C 10.4°F-12.0°C 46% 7.0 mph WNW11.3 kmh WNW 18.0 mph29.0 kmh 30.25 in1024.4 mb 0.00 in0.0 mm 0.00 in0.0 mm 0.00 in0.0 mm
02:46 AM 28.7°F-1.8°C 11.9°F-11.2°C 49% 11.0 mph NW17.7 kmh NW 18.0 mph29.0 kmh 30.25 in1024.4 mb 0.00 in0.0 mm 0.00 in0.0 mm 0.00 in0.0 mm
02:47 AM 28.7°F-1.8°C 10.4°F-12.0°C 46% 6.0 mph WNW9.7 kmh WNW 18.0 mph29.0 kmh 30.25 in1024.4 mb 0.00 in0.0 mm 0.00 in0.0 mm 0.00 in0.0 mm
02:48 AM 28.7°F-1.8°C 10.4°F-12.0°C 46% 9.0 mph NNW14.5 kmh NNW 18.0 mph29.0 kmh 30.25 in1024.4 mb 0.00 in0.0 mm 0.00 in0.0 mm 0.00 in0.0 mm
02:49 AM 28.6°F-1.9°C 9.8°F-12.3°C 45% 10.0 mph WNW16.1 kmh WNW 18.0 mph29.0 kmh 30.25 in1024.4 mb 0.00 in0.0 mm 0.00 in0.0 mm 0.00 in0.0 mm
02:50 AM 28.6°F-1.9°C 9.8°F-12.3°C 45% 7.0 mph WNW11.3 kmh WNW 18.0 mph29.0 kmh 30.25 in1024.4 mb 0.00 in0.0 mm 0.00 in0.0 mm 0.00 in0.0 mm
02:51 AM 28.6°F-1.9°C 10.3°F-12.1°C 46% 11.0 mph NNW17.7 kmh NNW 18.0 mph29.0 kmh 30.25 in1024.4 mb 0.00 in0.0 mm 0.00 in0.0 mm 0.00 in0.0 mm
02:52 AM 28.6°F-1.9°C 9.8°F-12.3°C 45% 9.0 mph NNW14.5 kmh NNW 18.0 mph29.0 kmh 30.25 in1024.4 mb 0.00 in0.0 mm 0.00 in0.0 mm 0.00 in0.0 mm
02:53 AM 28.6°F-1.9°C 10.3°F-12.1°C 46% 16.0 mph NW25.7 kmh NW 16.0 mph25.7 kmh 30.25 in1024.4 mb 0.00 in0.0 mm 0.00 in0.0 mm 0.00 in0.0 mm
02:54 AM 28.6°F-1.9°C 9.8°F-12.3°C 45% 16.0 mph WNW25.7 kmh WNW 18.0 mph29.0 kmh 30.25 in1024.4 mb 0.00 in0.0 mm 0.00 in0.0 mm 0.00 in0.0 mm
02:55 AM 28.6°F-1.9°C 10.3°F-12.1°C 46% 18.0 mph NW29.0 kmh NW 18.0 mph29.0 kmh 30.25 in1024.4 mb 0.00 in0.0 mm 0.00 in0.0 mm 0.00 in0.0 mm
02:56 AM 28.6°F-1.9°C 9.8°F-12.3°C 45% 17.0 mph NNW27.4 kmh NNW 20.0 mph32.2 kmh 30.25 in1024.4 mb 0.00 in0.0 mm 0.00 in0.0 mm 0.00 in0.0 mm
02:57 AM 28.6°F-1.9°C 10.3°F-12.1°C 46% 21.0 mph NW33.8 kmh NW 21.0 mph33.8 kmh 30.25 in1024.4 mb 0.00 in0.0 mm 0.00 in0.0 mm 0.00 in0.0 mm
02:58 AM 28.6°F-1.9°C 9.8°F-12.3°C 45% 16.0 mph NNW25.7 kmh NNW 21.0 mph33.8 kmh 30.25 in1024.4 mb 0.00 in0.0 mm 0.00 in0.0 mm 0.00 in0.0 mm
02:59 AM 28.6°F-1.9°C 10.3°F-12.1°C 46% 12.0 mph WNW19.3 kmh WNW 21.0 mph33.8 kmh 30.25 in1024.4 mb 0.00 in0.0 mm 0.00 in0.0 mm 0.00 in0.0 mm
03:00 AM 28.6°F-1.9°C 11.8°F-11.2°C 49% 13.0 mph W20.9 kmh W 21.0 mph33.8 kmh 30.25 in1024.4 mb 0.00 in0.0 mm 0.00 in0.0 mm 0.00 in0.0 mm
03:01 AM 28.6°F-1.9°C 9.8°F-12.3°C 45% 7.0 mph WNW11.3 kmh WNW 21.0 mph33.8 kmh 30.25 in1024.4 mb 0.00 in0.0 mm 0.00 in0.0 mm 0.00 in0.0 mm
03:02 AM 28.6°F-1.9°C 11.3°F-11.5°C 48% 14.0 mph WNW22.5 kmh WNW 21.0 mph33.8 kmh 30.25 in1024.4 mb 0.00 in0.0 mm 0.00 in0.0 mm 0.00 in0.0 mm
03:03 AM 28.6°F-1.9°C 11.3°F-11.5°C 48% 17.0 mph NW27.4 kmh NW 21.0 mph33.8 kmh 30.25 in1024.4 mb 0.00 in0.0 mm 0.00 in0.0 mm 0.00 in0.0 mm
03:04 AM 28.6°F-1.9°C 10.3°F-12.1°C 46% 17.0 mph NNW27.4 kmh NNW 21.0 mph33.8 kmh 30.25 in1024.4 mb 0.00 in0.0 mm 0.00 in0.0 mm 0.00 in0.0 mm
03:05 AM 28.6°F-1.9°C 10.3°F-12.1°C 46% 11.0 mph WNW17.7 kmh WNW 21.0 mph33.8 kmh 30.25 in1024.4 mb 0.00 in0.0 mm 0.00 in0.0 mm 0.00 in0.0 mm
03:06 AM 28.6°F-1.9°C 10.3°F-12.1°C 46% 17.0 mph NW27.4 kmh NW 21.0 mph33.8 kmh 30.26 in1024.7 mb 0.00 in0.0 mm 0.00 in0.0 mm 0.00 in0.0 mm
03:07 AM 28.6°F-1.9°C 11.3°F-11.5°C 48% 19.0 mph NW30.6 kmh NW 20.0 mph32.2 kmh 30.26 in1024.7 mb 0.00 in0.0 mm 0.00 in0.0 mm 0.00 in0.0 mm
03:08 AM 28.3°F-2.1°C 9.5°F-12.5°C 45% 15.0 mph NNW24.1 kmh NNW 20.0 mph32.2 kmh 30.26 in1024.7 mb 0.00 in0.0 mm 0.00 in0.0 mm 0.00 in0.0 mm
03:09 AM 28.3°F-2.1°C 10.0°F-12.2°C 46% 15.0 mph NW24.1 kmh NW 20.0 mph32.2 kmh 30.25 in1024.4 mb 0.00 in0.0 mm 0.00 in0.0 mm 0.00 in0.0 mm
03:10 AM 28.3°F-2.1°C 9.5°F-12.5°C 45% 13.0 mph NNW20.9 kmh NNW 20.0 mph32.2 kmh 30.25 in1024.4 mb 0.00 in0.0 mm 0.00 in0.0 mm 0.00 in0.0 mm
03:11 AM 28.3°F-2.1°C 10.0°F-12.2°C 46% 17.0 mph WNW27.4 kmh WNW 20.0 mph32.2 kmh 30.25 in1024.4 mb 0.00 in0.0 mm 0.00 in0.0 mm 0.00 in0.0 mm
03:12 AM 28.2°F-2.1°C 9.4°F-12.6°C 45% 12.0 mph NW19.3 kmh NW 20.0 mph32.2 kmh 30.25 in1024.4 mb 0.00 in0.0 mm 0.00 in0.0 mm 0.00 in0.0 mm
03:13 AM 28.2°F-2.1°C 10.9°F-11.7°C 48% 13.0 mph NW20.9 kmh NW 20.0 mph32.2 kmh 30.25 in1024.4 mb 0.00 in0.0 mm 0.00 in0.0 mm 0.00 in0.0 mm
03:14 AM 28.2°F-2.1°C 10.9°F-11.7°C 48% 18.0 mph WNW29.0 kmh WNW 20.0 mph32.2 kmh 30.26 in1024.7 mb 0.00 in0.0 mm 0.00 in0.0 mm 0.00 in0.0 mm
03:15 AM 28.2°F-2.1°C 9.9°F-12.3°C 46% 13.0 mph NNW20.9 kmh NNW 20.0 mph32.2 kmh 30.25 in1024.4 mb 0.00 in0.0 mm 0.00 in0.0 mm 0.00 in0.0 mm
03:16 AM 28.2°F-2.1°C 11.4°F-11.4°C 49% 17.0 mph NNW27.4 kmh NNW 20.0 mph32.2 kmh 30.25 in1024.4 mb 0.00 in0.0 mm 0.00 in0.0 mm 0.00 in0.0 mm
03:17 AM 28.2°F-2.1°C 11.9°F-11.2°C 50% 20.0 mph NNW32.2 kmh NNW 20.0 mph32.2 kmh 30.25 in1024.4 mb 0.00 in0.0 mm 0.00 in0.0 mm 0.00 in0.0 mm
03:18 AM 28.2°F-2.1°C 10.9°F-11.7°C 48% 17.0 mph NW27.4 kmh NW 20.0 mph32.2 kmh 30.26 in1024.7 mb 0.00 in0.0 mm 0.00 in0.0 mm 0.00 in0.0 mm
03:19 AM 28.2°F-2.1°C 10.9°F-11.7°C 48% 18.0 mph WNW29.0 kmh WNW 20.0 mph32.2 kmh 30.25 in1024.4 mb 0.00 in0.0 mm 0.00 in0.0 mm 0.00 in0.0 mm
03:20 AM 28.2°F-2.1°C 11.4°F-11.4°C 49% 13.0 mph NW20.9 kmh NW 20.0 mph32.2 kmh 30.26 in1024.7 mb 0.00 in0.0 mm 0.00 in0.0 mm 0.00 in0.0 mm
03:21 AM 28.2°F-2.1°C 10.9°F-11.7°C 48% 12.0 mph NW19.3 kmh NW 20.0 mph32.2 kmh 30.26 in1024.7 mb 0.00 in0.0 mm 0.00 in0.0 mm 0.00 in0.0 mm
03:22 AM 28.2°F-2.1°C 9.4°F-12.6°C 45% 18.0 mph WNW29.0 kmh WNW 20.0 mph32.2 kmh 30.26 in1024.7 mb 0.00 in0.0 mm 0.00 in0.0 mm 0.00 in0.0 mm
03:23 AM 28.2°F-2.1°C 10.9°F-11.7°C 48% 16.0 mph WNW25.7 kmh WNW 21.0 mph33.8 kmh 30.26 in1024.7 mb 0.00 in0.0 mm 0.00 in0.0 mm 0.00 in0.0 mm
03:24 AM 28.2°F-2.1°C 9.9°F-12.3°C 46% 16.0 mph NW25.7 kmh NW 21.0 mph33.8 kmh 30.26 in1024.7 mb 0.00 in0.0 mm 0.00 in0.0 mm 0.00 in0.0 mm
03:25 AM 28.2°F-2.1°C 10.9°F-11.7°C 48% 21.0 mph NNW33.8 kmh NNW 21.0 mph33.8 kmh 30.26 in1024.7 mb 0.00 in0.0 mm 0.00 in0.0 mm 0.00 in0.0 mm
03:26 AM 28.2°F-2.1°C 11.4°F-11.4°C 49% 18.0 mph NW29.0 kmh NW 21.0 mph33.8 kmh 30.26 in1024.7 mb 0.00 in0.0 mm 0.00 in0.0 mm 0.00 in0.0 mm
03:27 AM 28.2°F-2.1°C 11.4°F-11.4°C 49% 17.0 mph WNW27.4 kmh WNW 21.0 mph33.8 kmh 30.26 in1024.7 mb 0.00 in0.0 mm 0.00 in0.0 mm 0.00 in0.0 mm
03:28 AM 28.2°F-2.1°C 11.9°F-11.2°C 50% 15.0 mph WNW24.1 kmh WNW 21.0 mph33.8 kmh 30.26 in1024.7 mb 0.00 in0.0 mm 0.00 in0.0 mm 0.00 in0.0 mm
03:29 AM 28.2°F-2.1°C 11.4°F-11.4°C 49% 15.0 mph W24.1 kmh W 21.0 mph33.8 kmh 30.26 in1024.7 mb 0.00 in0.0 mm 0.00 in0.0 mm 0.00 in0.0 mm
03:30 AM 28.2°F-2.1°C 10.9°F-11.7°C 48% 13.0 mph NW20.9 kmh NW 21.0 mph33.8 kmh 30.26 in1024.7 mb 0.00 in0.0 mm 0.00 in0.0 mm 0.00 in0.0 mm
03:31 AM 28.2°F-2.1°C 11.4°F-11.4°C 49% 14.0 mph WNW22.5 kmh WNW 21.0 mph33.8 kmh 30.27 in1025.1 mb 0.00 in0.0 mm 0.00 in0.0 mm 0.00 in0.0 mm
03:32 AM 28.2°F-2.1°C 10.9°F-11.7°C 48% 14.0 mph WNW22.5 kmh WNW 21.0 mph33.8 kmh 30.27 in1025.1 mb 0.00 in0.0 mm 0.00 in0.0 mm 0.00 in0.0 mm
03:33 AM 28.2°F-2.1°C 11.4°F-11.4°C 49% 21.0 mph NW33.8 kmh NW 21.0 mph33.8 kmh 30.27 in1025.1 mb 0.00 in0.0 mm 0.00 in0.0 mm 0.00 in0.0 mm
03:34 AM 28.2°F-2.1°C 11.4°F-11.4°C 49% 15.0 mph WNW24.1 kmh WNW 22.0 mph35.4 kmh 30.26 in1024.7 mb 0.00 in0.0 mm 0.00 in0.0 mm 0.00 in0.0 mm
03:35 AM 28.2°F-2.1°C 10.9°F-11.7°C 48% 18.0 mph NW29.0 kmh NW 22.0 mph35.4 kmh 30.26 in1024.7 mb 0.00 in0.0 mm 0.00 in0.0 mm 0.00 in0.0 mm
03:36 AM 27.9°F-2.3°C 9.7°F-12.4°C 46% 17.0 mph WNW27.4 kmh WNW 22.0 mph35.4 kmh 30.26 in1024.7 mb 0.00 in0.0 mm 0.00 in0.0 mm 0.00 in0.0 mm
03:37 AM 27.9°F-2.3°C 10.6°F-11.9°C 48% 17.0 mph WNW27.4 kmh WNW 22.0 mph35.4 kmh 30.26 in1024.7 mb 0.00 in0.0 mm 0.00 in0.0 mm 0.00 in0.0 mm
03:38 AM 27.9°F-2.3°C 11.1°F-11.6°C 49% 13.0 mph WNW20.9 kmh WNW 22.0 mph35.4 kmh 30.26 in1024.7 mb 0.00 in0.0 mm 0.00 in0.0 mm 0.00 in0.0 mm
03:39 AM 27.9°F-2.3°C 9.7°F-12.4°C 46% 17.0 mph NW27.4 kmh NW 22.0 mph35.4 kmh 30.26 in1024.7 mb 0.00 in0.0 mm 0.00 in0.0 mm 0.00 in0.0 mm
03:40 AM 27.9°F-2.3°C 9.7°F-12.4°C 46% 21.0 mph NW33.8 kmh NW 22.0 mph35.4 kmh 30.26 in1024.7 mb 0.00 in0.0 mm 0.00 in0.0 mm 0.00 in0.0 mm
03:41 AM 27.8°F-2.3°C 9.1°F-12.7°C 45% 16.0 mph NNW25.7 kmh NNW 22.0 mph35.4 kmh 30.26 in1024.7 mb 0.00 in0.0 mm 0.00 in0.0 mm 0.00 in0.0 mm
03:42 AM 27.8°F-2.3°C 9.1°F-12.7°C 45% 21.0 mph NW33.8 kmh NW 22.0 mph35.4 kmh 30.26 in1024.7 mb 0.00 in0.0 mm 0.00 in0.0 mm 0.00 in0.0 mm
03:43 AM 27.8°F-2.3°C 9.6°F-12.4°C 46% 16.0 mph WNW25.7 kmh WNW 22.0 mph35.4 kmh 30.26 in1024.7 mb 0.00 in0.0 mm 0.00 in0.0 mm 0.00 in0.0 mm
03:44 AM 27.8°F-2.3°C 10.5°F-11.9°C 48% 21.0 mph WNW33.8 kmh WNW 22.0 mph35.4 kmh 30.27 in1025.1 mb 0.00 in0.0 mm 0.00 in0.0 mm 0.00 in0.0 mm
03:45 AM 27.8°F-2.3°C 10.5°F-11.9°C 48% 16.0 mph WNW25.7 kmh WNW 22.0 mph35.4 kmh 30.27 in1025.1 mb 0.00 in0.0 mm 0.00 in0.0 mm 0.00 in0.0 mm
03:46 AM 27.8°F-2.3°C 9.6°F-12.4°C 46% 16.0 mph NW25.7 kmh NW 22.0 mph35.4 kmh 30.27 in1025.1 mb 0.00 in0.0 mm 0.00 in0.0 mm 0.00 in0.0 mm
03:47 AM 27.8°F-2.3°C 10.5°F-11.9°C 48% 14.0 mph WNW22.5 kmh WNW 22.0 mph35.4 kmh 30.27 in1025.1 mb 0.00 in0.0 mm 0.00 in0.0 mm 0.00 in0.0 mm
03:48 AM 27.8°F-2.3°C 9.6°F-12.4°C 46% 17.0 mph W27.4 kmh W 22.0 mph35.4 kmh 30.28 in1025.4 mb 0.00 in0.0 mm 0.00 in0.0 mm 0.00 in0.0 mm
03:49 AM 27.8°F-2.3°C 11.0°F-11.7°C 49% 15.0 mph NW24.1 kmh NW 22.0 mph35.4 kmh 30.27 in1025.1 mb 0.00 in0.0 mm 0.00 in0.0 mm 0.00 in0.0 mm
03:50 AM 27.8°F-2.3°C 11.0°F-11.7°C 49% 16.0 mph NW25.7 kmh NW 22.0 mph35.4 kmh 30.27 in1025.1 mb 0.00 in0.0 mm 0.00 in0.0 mm 0.00 in0.0 mm
03:51 AM 27.8°F-2.3°C 9.6°F-12.4°C 46% 15.0 mph NNW24.1 kmh NNW 22.0 mph35.4 kmh 30.27 in1025.1 mb 0.00 in0.0 mm 0.00 in0.0 mm 0.00 in0.0 mm
03:52 AM 27.6°F-2.4°C 8.9°F-12.8°C 45% 12.0 mph NW19.3 kmh NW 21.0 mph33.8 kmh 30.27 in1025.1 mb 0.00 in0.0 mm 0.00 in0.0 mm 0.00 in0.0 mm
03:53 AM 27.6°F-2.4°C 8.9°F-12.8°C 45% 10.0 mph NW16.1 kmh NW 21.0 mph33.8 kmh 30.27 in1025.1 mb 0.00 in0.0 mm 0.00 in0.0 mm 0.00 in0.0 mm
03:54 AM 27.6°F-2.4°C 9.4°F-12.6°C 46% 9.0 mph WNW14.5 kmh WNW 21.0 mph33.8 kmh 30.27 in1025.1 mb 0.00 in0.0 mm 0.00 in0.0 mm 0.00 in0.0 mm
03:55 AM 27.5°F-2.5°C 9.3°F-12.6°C 46% 13.0 mph WNW20.9 kmh WNW 21.0 mph33.8 kmh 30.27 in1025.1 mb 0.00 in0.0 mm 0.00 in0.0 mm 0.00 in0.0 mm
03:56 AM 27.5°F-2.5°C 10.7°F-11.8°C 49% 7.0 mph NW11.3 kmh NW 21.0 mph33.8 kmh 30.27 in1025.1 mb 0.00 in0.0 mm 0.00 in0.0 mm 0.00 in0.0 mm
03:57 AM 27.5°F-2.5°C 10.7°F-11.8°C 49% 9.0 mph NNW14.5 kmh NNW 17.0 mph27.4 kmh 30.27 in1025.1 mb 0.00 in0.0 mm 0.00 in0.0 mm 0.00 in0.0 mm
03:58 AM 27.5°F-2.5°C 10.7°F-11.8°C 49% 10.0 mph NNW16.1 kmh NNW 17.0 mph27.4 kmh 30.27 in1025.1 mb 0.00 in0.0 mm 0.00 in0.0 mm 0.00 in0.0 mm
03:59 AM 27.5°F-2.5°C 11.2°F-11.6°C 50% 10.0 mph NW16.1 kmh NW 16.0 mph25.7 kmh 30.27 in1025.1 mb 0.00 in0.0 mm 0.00 in0.0 mm 0.00 in0.0 mm
04:00 AM 27.3°F-2.6°C 10.6°F-11.9°C 49% 11.0 mph WNW17.7 kmh WNW 16.0 mph25.7 kmh 30.27 in1025.1 mb 0.00 in0.0 mm 0.00 in0.0 mm 0.00 in0.0 mm
04:01 AM 27.3°F-2.6°C 10.6°F-11.9°C 49% 11.0 mph WNW17.7 kmh WNW 16.0 mph25.7 kmh 30.27 in1025.1 mb 0.00 in0.0 mm 0.00 in0.0 mm 0.00 in0.0 mm
04:02 AM 27.1°F-2.7°C 8.4°F-13.1°C 45% 13.0 mph NW20.9 kmh NW 14.0 mph22.5 kmh 30.27 in1025.1 mb 0.00 in0.0 mm 0.00 in0.0 mm 0.00 in0.0 mm
04:03 AM 27.1°F-2.7°C 8.9°F-12.8°C 46% 13.0 mph WNW20.9 kmh WNW 14.0 mph22.5 kmh 30.27 in1025.1 mb 0.00 in0.0 mm 0.00 in0.0 mm 0.00 in0.0 mm
04:04 AM 27.1°F-2.7°C 9.9°F-12.3°C 48% 13.0 mph WNW20.9 kmh WNW 14.0 mph22.5 kmh 30.28 in1025.4 mb 0.00 in0.0 mm 0.00 in0.0 mm 0.00 in0.0 mm
04:05 AM 27.1°F-2.7°C 10.4°F-12.0°C 49% 15.0 mph NW24.1 kmh NW 15.0 mph24.1 kmh 30.28 in1025.4 mb 0.00 in0.0 mm 0.00 in0.0 mm 0.00 in0.0 mm
04:06 AM 27.1°F-2.7°C 9.9°F-12.3°C 48% 12.0 mph NW19.3 kmh NW 15.0 mph24.1 kmh 30.28 in1025.4 mb 0.00 in0.0 mm 0.00 in0.0 mm 0.00 in0.0 mm
04:07 AM 27.1°F-2.7°C 8.9°F-12.8°C 46% 10.0 mph WNW16.1 kmh WNW 15.0 mph24.1 kmh 30.28 in1025.4 mb 0.00 in0.0 mm 0.00 in0.0 mm 0.00 in0.0 mm
04:08 AM 27.1°F-2.7°C 9.9°F-12.3°C 48% 16.0 mph WNW25.7 kmh WNW 16.0 mph25.7 kmh 30.29 in1025.7 mb 0.00 in0.0 mm 0.00 in0.0 mm 0.00 in0.0 mm
04:09 AM 27.1°F-2.7°C 8.9°F-12.8°C 46% 17.0 mph W27.4 kmh W 22.0 mph35.4 kmh 30.28 in1025.4 mb 0.00 in0.0 mm 0.00 in0.0 mm 0.00 in0.0 mm
04:10 AM 27.3°F-2.6°C 10.6°F-11.9°C 49% 17.0 mph NW27.4 kmh NW 22.0 mph35.4 kmh 30.29 in1025.7 mb 0.00 in0.0 mm 0.00 in0.0 mm 0.00 in0.0 mm
04:11 AM 27.3°F-2.6°C 10.1°F-12.2°C 48% 22.0 mph WNW35.4 kmh WNW 22.0 mph35.4 kmh 30.29 in1025.7 mb 0.00 in0.0 mm 0.00 in0.0 mm 0.00 in0.0 mm
04:12 AM 27.1°F-2.7°C 8.4°F-13.1°C 45% 22.0 mph WNW35.4 kmh WNW 23.0 mph37.0 kmh 30.29 in1025.7 mb 0.00 in0.0 mm 0.00 in0.0 mm 0.00 in0.0 mm
04:13 AM 27.1°F-2.7°C 8.9°F-12.8°C 46% 13.0 mph NW20.9 kmh NW 23.0 mph37.0 kmh 30.28 in1025.4 mb 0.00 in0.0 mm 0.00 in0.0 mm 0.00 in0.0 mm
04:14 AM 27.1°F-2.7°C 8.9°F-12.8°C 46% 17.0 mph W27.4 kmh W 23.0 mph37.0 kmh 30.29 in1025.7 mb 0.00 in0.0 mm 0.00 in0.0 mm 0.00 in0.0 mm
04:15 AM 27.1°F-2.7°C 8.4°F-13.1°C 45% 15.0 mph NW24.1 kmh NW 23.0 mph37.0 kmh 30.29 in1025.7 mb 0.00 in0.0 mm 0.00 in0.0 mm 0.00 in0.0 mm
04:16 AM 27.1°F-2.7°C 9.9°F-12.3°C 48% 16.0 mph WNW25.7 kmh WNW 23.0 mph37.0 kmh 30.29 in1025.7 mb 0.00 in0.0 mm 0.00 in0.0 mm 0.00 in0.0 mm
04:17 AM 27.1°F-2.7°C 8.9°F-12.8°C 46% 16.0 mph WNW25.7 kmh WNW 23.0 mph37.0 kmh 30.29 in1025.7 mb 0.00 in0.0 mm 0.00 in0.0 mm 0.00 in0.0 mm
04:18 AM 27.1°F-2.7°C 8.4°F-13.1°C 45% 15.0 mph W24.1 kmh W 23.0 mph37.0 kmh 30.29 in1025.7 mb 0.00 in0.0 mm 0.00 in0.0 mm 0.00 in0.0 mm
04:19 AM 27.1°F-2.7°C 8.4°F-13.1°C 45% 15.0 mph W24.1 kmh W 23.0 mph37.0 kmh 30.29 in1025.7 mb 0.00 in0.0 mm 0.00 in0.0 mm 0.00 in0.0 mm
04:20 AM 27.1°F-2.7°C 8.9°F-12.8°C 46% 18.0 mph WNW29.0 kmh WNW 23.0 mph37.0 kmh 30.29 in1025.7 mb 0.00 in0.0 mm 0.00 in0.0 mm 0.00 in0.0 mm
04:21 AM 27.1°F-2.7°C 8.9°F-12.8°C 46% 12.0 mph NNW19.3 kmh NNW 23.0 mph37.0 kmh 30.29 in1025.7 mb 0.00 in0.0 mm 0.00 in0.0 mm 0.00 in0.0 mm
04:22 AM 27.1°F-2.7°C 8.9°F-12.8°C 46% 13.0 mph WNW20.9 kmh WNW 19.0 mph30.6 kmh 30.29 in1025.7 mb 0.00 in0.0 mm 0.00 in0.0 mm 0.00 in0.0 mm
04:23 AM 27.0°F-2.8°C 8.3°F-13.2°C 45% 11.0 mph NW17.7 kmh NW 19.0 mph30.6 kmh 30.29 in1025.7 mb 0.00 in0.0 mm 0.00 in0.0 mm 0.00 in0.0 mm
04:24 AM 27.0°F-2.8°C 10.3°F-12.1°C 49% 12.0 mph WNW19.3 kmh WNW 19.0 mph30.6 kmh 30.29 in1025.7 mb 0.00 in0.0 mm 0.00 in0.0 mm 0.00 in0.0 mm
04:25 AM 27.1°F-2.7°C 9.9°F-12.3°C 48% 11.0 mph W17.7 kmh W 19.0 mph30.6 kmh 30.29 in1025.7 mb 0.00 in0.0 mm 0.00 in0.0 mm 0.00 in0.0 mm
04:26 AM 27.1°F-2.7°C 8.9°F-12.8°C 46% 10.0 mph W16.1 kmh W 19.0 mph30.6 kmh 30.29 in1025.7 mb 0.00 in0.0 mm 0.00 in0.0 mm 0.00 in0.0 mm
04:27 AM 27.1°F-2.7°C 8.4°F-13.1°C 45% 12.0 mph W19.3 kmh W 19.0 mph30.6 kmh 30.29 in1025.7 mb 0.00 in0.0 mm 0.00 in0.0 mm 0.00 in0.0 mm
04:28 AM 27.1°F-2.7°C 10.4°F-12.0°C 49% 15.0 mph WNW24.1 kmh WNW 19.0 mph30.6 kmh 30.30 in1026.1 mb 0.00 in0.0 mm 0.00 in0.0 mm 0.00 in0.0 mm
04:29 AM 27.0°F-2.8°C 8.3°F-13.2°C 45% 21.0 mph W33.8 kmh W 21.0 mph33.8 kmh 30.30 in1026.1 mb 0.00 in0.0 mm 0.00 in0.0 mm 0.00 in0.0 mm
04:30 AM 27.0°F-2.8°C 8.3°F-13.2°C 45% 21.0 mph WNW33.8 kmh WNW 23.0 mph37.0 kmh 30.30 in1026.1 mb 0.00 in0.0 mm 0.00 in0.0 mm 0.00 in0.0 mm
04:31 AM 27.0°F-2.8°C 8.3°F-13.2°C 45% 19.0 mph WNW30.6 kmh WNW 23.0 mph37.0 kmh 30.30 in1026.1 mb 0.00 in0.0 mm 0.00 in0.0 mm 0.00 in0.0 mm
04:32 AM 27.0°F-2.8°C 8.3°F-13.2°C 45% 17.0 mph WNW27.4 kmh WNW 23.0 mph37.0 kmh 30.30 in1026.1 mb 0.00 in0.0 mm 0.00 in0.0 mm 0.00 in0.0 mm
04:33 AM 26.7°F-2.9°C 7.0°F-13.9°C 43% 13.0 mph WNW20.9 kmh WNW 23.0 mph37.0 kmh 30.30 in1026.1 mb 0.00 in0.0 mm 0.00 in0.0 mm 0.00 in0.0 mm
04:34 AM 26.7°F-2.9°C 7.5°F-13.6°C 44% 15.0 mph WNW24.1 kmh WNW 23.0 mph37.0 kmh 30.30 in1026.1 mb 0.00 in0.0 mm 0.00 in0.0 mm 0.00 in0.0 mm
04:35 AM 27.0°F-2.8°C 9.8°F-12.3°C 48% 16.0 mph NW25.7 kmh NW 23.0 mph37.0 kmh 30.30 in1026.1 mb 0.00 in0.0 mm 0.00 in0.0 mm 0.00 in0.0 mm
04:36 AM 27.0°F-2.8°C 8.8°F-12.9°C 46% 15.0 mph W24.1 kmh W 23.0 mph37.0 kmh 30.31 in1026.4 mb 0.00 in0.0 mm 0.00 in0.0 mm 0.00 in0.0 mm
04:37 AM 27.0°F-2.8°C 8.3°F-13.2°C 45% 20.0 mph WNW32.2 kmh WNW 24.0 mph38.6 kmh 30.30 in1026.1 mb 0.00 in0.0 mm 0.00 in0.0 mm 0.00 in0.0 mm
04:38 AM 27.0°F-2.8°C 8.3°F-13.2°C 45% 16.0 mph W25.7 kmh W 24.0 mph38.6 kmh 30.30 in1026.1 mb 0.00 in0.0 mm 0.00 in0.0 mm 0.00 in0.0 mm
04:39 AM 27.0°F-2.8°C 9.8°F-12.3°C 48% 21.0 mph WNW33.8 kmh WNW 24.0 mph38.6 kmh 30.30 in1026.1 mb 0.00 in0.0 mm 0.00 in0.0 mm 0.00 in0.0 mm
04:40 AM 26.7°F-2.9°C 8.1°F-13.3°C 45% 17.0 mph WNW27.4 kmh WNW 24.0 mph38.6 kmh 30.30 in1026.1 mb 0.00 in0.0 mm 0.00 in0.0 mm 0.00 in0.0 mm
04:41 AM 26.7°F-2.9°C 8.1°F-13.3°C 45% 12.0 mph WNW19.3 kmh WNW 24.0 mph38.6 kmh 30.30 in1026.1 mb 0.00 in0.0 mm 0.00 in0.0 mm 0.00 in0.0 mm
04:42 AM 26.7°F-2.9°C 8.6°F-13.0°C 46% 13.0 mph WNW20.9 kmh WNW 24.0 mph38.6 kmh 30.31 in1026.4 mb 0.00 in0.0 mm 0.00 in0.0 mm 0.00 in0.0 mm
04:43 AM 26.7°F-2.9°C 7.5°F-13.6°C 44% 11.0 mph WNW17.7 kmh WNW 24.0 mph38.6 kmh 30.31 in1026.4 mb 0.00 in0.0 mm 0.00 in0.0 mm 0.00 in0.0 mm
04:44 AM 26.6°F-3.0°C 7.5°F-13.6°C 44% 17.0 mph NNW27.4 kmh NNW 24.0 mph38.6 kmh 30.30 in1026.1 mb 0.00 in0.0 mm 0.00 in0.0 mm 0.00 in0.0 mm
04:45 AM 26.6°F-3.0°C 7.5°F-13.6°C 44% 22.0 mph WNW35.4 kmh WNW 24.0 mph38.6 kmh 30.30 in1026.1 mb 0.00 in0.0 mm 0.00 in0.0 mm 0.00 in0.0 mm
04:46 AM 26.6°F-3.0°C 7.5°F-13.6°C 44% 20.0 mph W32.2 kmh W 24.0 mph38.6 kmh 30.31 in1026.4 mb 0.00 in0.0 mm 0.00 in0.0 mm 0.00 in0.0 mm
04:47 AM 26.6°F-3.0°C 7.5°F-13.6°C 44% 21.0 mph WNW33.8 kmh WNW 24.0 mph38.6 kmh 30.31 in1026.4 mb 0.00 in0.0 mm 0.00 in0.0 mm 0.00 in0.0 mm
04:48 AM 26.6°F-3.0°C 8.5°F-13.1°C 46% 18.0 mph NNW29.0 kmh NNW 24.0 mph38.6 kmh 30.32 in1026.8 mb 0.00 in0.0 mm 0.00 in0.0 mm 0.00 in0.0 mm
04:49 AM 26.6°F-3.0°C 8.5°F-13.1°C 46% 24.0 mph WNW38.6 kmh WNW 24.0 mph38.6 kmh 30.31 in1026.4 mb 0.00 in0.0 mm 0.00 in0.0 mm 0.00 in0.0 mm
04:50 AM 26.6°F-3.0°C 8.0°F-13.3°C 45% 18.0 mph WNW29.0 kmh WNW 25.0 mph40.2 kmh 30.31 in1026.4 mb 0.00 in0.0 mm 0.00 in0.0 mm 0.00 in0.0 mm
04:51 AM 26.6°F-3.0°C 8.0°F-13.3°C 45% 13.0 mph WNW20.9 kmh WNW 25.0 mph40.2 kmh 30.31 in1026.4 mb 0.00 in0.0 mm 0.00 in0.0 mm 0.00 in0.0 mm
04:52 AM 26.6°F-3.0°C 8.0°F-13.3°C 45% 17.0 mph WNW27.4 kmh WNW 25.0 mph40.2 kmh 30.32 in1026.8 mb 0.00 in0.0 mm 0.00 in0.0 mm 0.00 in0.0 mm
04:53 AM 26.6°F-3.0°C 8.5°F-13.1°C 46% 13.0 mph NW20.9 kmh NW 25.0 mph40.2 kmh 30.31 in1026.4 mb 0.00 in0.0 mm 0.00 in0.0 mm 0.00 in0.0 mm
04:54 AM 26.6°F-3.0°C 8.0°F-13.3°C 45% 15.0 mph W24.1 kmh W 25.0 mph40.2 kmh 30.31 in1026.4 mb 0.00 in0.0 mm 0.00 in0.0 mm 0.00 in0.0 mm
04:55 AM 26.6°F-3.0°C 9.4°F-12.6°C 48% 20.0 mph NW32.2 kmh NW 25.0 mph40.2 kmh 30.31 in1026.4 mb 0.00 in0.0 mm 0.00 in0.0 mm 0.00 in0.0 mm
04:56 AM 26.6°F-3.0°C 8.5°F-13.1°C 46% 12.0 mph NW19.3 kmh NW 25.0 mph40.2 kmh 30.32 in1026.8 mb 0.00 in0.0 mm 0.00 in0.0 mm 0.00 in0.0 mm
04:57 AM 26.6°F-3.0°C 8.5°F-13.1°C 46% 18.0 mph NW29.0 kmh NW 25.0 mph40.2 kmh 30.31 in1026.4 mb 0.00 in0.0 mm 0.00 in0.0 mm 0.00 in0.0 mm
04:58 AM 26.3°F-3.2°C 7.7°F-13.5°C 45% 17.0 mph NW27.4 kmh NW 25.0 mph40.2 kmh 30.32 in1026.8 mb 0.00 in0.0 mm 0.00 in0.0 mm 0.00 in0.0 mm
04:59 AM 26.3°F-3.2°C 7.2°F-13.8°C 44% 13.0 mph WNW20.9 kmh WNW 25.0 mph40.2 kmh 30.32 in1026.8 mb 0.00 in0.0 mm 0.00 in0.0 mm 0.00 in0.0 mm
05:00 AM 26.3°F-3.2°C 7.7°F-13.5°C 45% 18.0 mph WNW29.0 kmh WNW 20.0 mph32.2 kmh 30.32 in1026.8 mb 0.00 in0.0 mm 0.00 in0.0 mm 0.00 in0.0 mm
05:01 AM 26.3°F-3.2°C 7.7°F-13.5°C 45% 13.0 mph WNW20.9 kmh WNW 20.0 mph32.2 kmh 30.32 in1026.8 mb 0.00 in0.0 mm 0.00 in0.0 mm 0.00 in0.0 mm
05:02 AM 26.3°F-3.2°C 7.7°F-13.5°C 45% 13.0 mph NW20.9 kmh NW 20.0 mph32.2 kmh 30.32 in1026.8 mb 0.00 in0.0 mm 0.00 in0.0 mm 0.00 in0.0 mm
05:03 AM 26.3°F-3.2°C 8.2°F-13.2°C 46% 17.0 mph NW27.4 kmh NW 20.0 mph32.2 kmh 30.31 in1026.4 mb 0.00 in0.0 mm 0.00 in0.0 mm 0.00 in0.0 mm
05:04 AM 26.6°F-3.0°C 9.4°F-12.6°C 48% 15.0 mph NNW24.1 kmh NNW 20.0 mph32.2 kmh 30.32 in1026.8 mb 0.00 in0.0 mm 0.00 in0.0 mm 0.00 in0.0 mm
05:05 AM 26.6°F-3.0°C 8.0°F-13.3°C 45% 13.0 mph NNW20.9 kmh NNW 20.0 mph32.2 kmh 30.32 in1026.8 mb 0.00 in0.0 mm 0.00 in0.0 mm 0.00 in0.0 mm
05:06 AM 26.3°F-3.2°C 7.7°F-13.5°C 45% 23.0 mph NW37.0 kmh NW 23.0 mph37.0 kmh 30.32 in1026.8 mb 0.00 in0.0 mm 0.00 in0.0 mm 0.00 in0.0 mm
05:07 AM 26.3°F-3.2°C 7.7°F-13.5°C 45% 20.0 mph NW32.2 kmh NW 23.0 mph37.0 kmh 30.32 in1026.8 mb 0.00 in0.0 mm 0.00 in0.0 mm 0.00 in0.0 mm
05:08 AM 26.3°F-3.2°C 7.2°F-13.8°C 44% 23.0 mph WNW37.0 kmh WNW 26.0 mph41.8 kmh 30.33 in1027.1 mb 0.00 in0.0 mm 0.00 in0.0 mm 0.00 in0.0 mm
05:09 AM 26.3°F-3.2°C 7.7°F-13.5°C 45% 16.0 mph WNW25.7 kmh WNW 26.0 mph41.8 kmh 30.33 in1027.1 mb 0.00 in0.0 mm 0.00 in0.0 mm 0.00 in0.0 mm
05:10 AM 26.3°F-3.2°C 7.7°F-13.5°C 45% 15.0 mph NW24.1 kmh NW 26.0 mph41.8 kmh 30.33 in1027.1 mb 0.00 in0.0 mm 0.00 in0.0 mm 0.00 in0.0 mm
05:11 AM 26.3°F-3.2°C 7.7°F-13.5°C 45% 22.0 mph NW35.4 kmh NW 26.0 mph41.8 kmh 30.33 in1027.1 mb 0.00 in0.0 mm 0.00 in0.0 mm 0.00 in0.0 mm
05:12 AM 26.2°F-3.2°C 7.6°F-13.6°C 45% 21.0 mph WNW33.8 kmh WNW 26.0 mph41.8 kmh 30.32 in1026.8 mb 0.00 in0.0 mm 0.00 in0.0 mm 0.00 in0.0 mm
05:13 AM 26.2°F-3.2°C 7.6°F-13.6°C 45% 18.0 mph NW29.0 kmh NW 26.0 mph41.8 kmh 30.32 in1026.8 mb 0.00 in0.0 mm 0.00 in0.0 mm 0.00 in0.0 mm
05:14 AM 26.3°F-3.2°C 8.2°F-13.2°C 46% 20.0 mph NW32.2 kmh NW 26.0 mph41.8 kmh 30.33 in1027.1 mb 0.00 in0.0 mm 0.00 in0.0 mm 0.00 in0.0 mm
05:15 AM 26.3°F-3.2°C 7.7°F-13.5°C 45% 18.0 mph WNW29.0 kmh WNW 26.0 mph41.8 kmh 30.32 in1026.8 mb 0.00 in0.0 mm 0.00 in0.0 mm 0.00 in0.0 mm
05:16 AM 26.3°F-3.2°C 8.2°F-13.2°C 46% 14.0 mph WNW22.5 kmh WNW 26.0 mph41.8 kmh 30.33 in1027.1 mb 0.00 in0.0 mm 0.00 in0.0 mm 0.00 in0.0 mm
05:17 AM 26.2°F-3.2°C 7.6°F-13.6°C 45% 18.0 mph NW29.0 kmh NW 26.0 mph41.8 kmh 30.32 in1026.8 mb 0.00 in0.0 mm 0.00 in0.0 mm 0.00 in0.0 mm
05:18 AM 26.2°F-3.2°C 7.6°F-13.6°C 45% 11.0 mph WNW17.7 kmh WNW 26.0 mph41.8 kmh 30.32 in1026.8 mb 0.00 in0.0 mm 0.00 in0.0 mm 0.00 in0.0 mm
05:19 AM 26.1°F-3.3°C 6.5°F-14.2°C 43% 15.0 mph W24.1 kmh W 26.0 mph41.8 kmh 30.32 in1026.8 mb 0.00 in0.0 mm 0.00 in0.0 mm 0.00 in0.0 mm
05:20 AM 26.1°F-3.3°C 7.0°F-13.9°C 44% 12.0 mph W19.3 kmh W 26.0 mph41.8 kmh 30.32 in1026.8 mb 0.00 in0.0 mm 0.00 in0.0 mm 0.00 in0.0 mm
05:21 AM 26.1°F-3.3°C 7.5°F-13.6°C 45% 15.0 mph NW24.1 kmh NW 26.0 mph41.8 kmh 30.32 in1026.8 mb 0.00 in0.0 mm 0.00 in0.0 mm 0.00 in0.0 mm
05:22 AM 26.1°F-3.3°C 7.5°F-13.6°C 45% 19.0 mph WNW30.6 kmh WNW 23.0 mph37.0 kmh 30.33 in1027.1 mb 0.00 in0.0 mm 0.00 in0.0 mm 0.00 in0.0 mm
05:23 AM 26.1°F-3.3°C 7.5°F-13.6°C 45% 22.0 mph WNW35.4 kmh WNW 23.0 mph37.0 kmh 30.32 in1026.8 mb 0.00 in0.0 mm 0.00 in0.0 mm 0.00 in0.0 mm
05:24 AM 26.1°F-3.3°C 8.0°F-13.3°C 46% 20.0 mph NW32.2 kmh NW 24.0 mph38.6 kmh 30.33 in1027.1 mb 0.00 in0.0 mm 0.00 in0.0 mm 0.00 in0.0 mm
05:25 AM 26.1°F-3.3°C 7.5°F-13.6°C 45% 21.0 mph WNW33.8 kmh WNW 26.0 mph41.8 kmh 30.33 in1027.1 mb 0.00 in0.0 mm 0.00 in0.0 mm 0.00 in0.0 mm
05:26 AM 26.1°F-3.3°C 7.5°F-13.6°C 45% 24.0 mph NW38.6 kmh NW 26.0 mph41.8 kmh 30.34 in1027.4 mb 0.00 in0.0 mm 0.00 in0.0 mm 0.00 in0.0 mm
05:27 AM 26.2°F-3.2°C 8.1°F-13.3°C 46% 23.0 mph WNW37.0 kmh WNW 26.0 mph41.8 kmh 30.33 in1027.1 mb 0.00 in0.0 mm 0.00 in0.0 mm 0.00 in0.0 mm
05:28 AM 26.2°F-3.2°C 7.6°F-13.6°C 45% 16.0 mph NW25.7 kmh NW 26.0 mph41.8 kmh 30.33 in1027.1 mb 0.00 in0.0 mm 0.00 in0.0 mm 0.00 in0.0 mm
05:29 AM 26.2°F-3.2°C 8.1°F-13.3°C 46% 20.0 mph WNW32.2 kmh WNW 26.0 mph41.8 kmh 30.33 in1027.1 mb 0.00 in0.0 mm 0.00 in0.0 mm 0.00 in0.0 mm
05:30 AM 26.2°F-3.2°C 8.1°F-13.3°C 46% 21.0 mph WNW33.8 kmh WNW 26.0 mph41.8 kmh 30.34 in1027.4 mb 0.00 in0.0 mm 0.00 in0.0 mm 0.00 in0.0 mm
05:31 AM 26.2°F-3.2°C 8.1°F-13.3°C 46% 12.0 mph W19.3 kmh W 26.0 mph41.8 kmh 30.34 in1027.4 mb 0.00 in0.0 mm 0.00 in0.0 mm 0.00 in0.0 mm
05:32 AM 26.2°F-3.2°C 8.1°F-13.3°C 46% 20.0 mph WNW32.2 kmh WNW 26.0 mph41.8 kmh 30.34 in1027.4 mb 0.00 in0.0 mm 0.00 in0.0 mm 0.00 in0.0 mm
05:33 AM 26.1°F-3.3°C 7.5°F-13.6°C 45% 24.0 mph WNW38.6 kmh WNW 26.0 mph41.8 kmh 30.33 in1027.1 mb 0.00 in0.0 mm 0.00 in0.0 mm 0.00 in0.0 mm
05:34 AM 26.1°F-3.3°C 7.5°F-13.6°C 45% 22.0 mph WNW35.4 kmh WNW 26.0 mph41.8 kmh 30.34 in1027.4 mb 0.00 in0.0 mm 0.00 in0.0 mm 0.00 in0.0 mm
05:35 AM 26.1°F-3.3°C 7.5°F-13.6°C 45% 22.0 mph WNW35.4 kmh WNW 25.0 mph40.2 kmh 30.34 in1027.4 mb 0.00 in0.0 mm 0.00 in0.0 mm 0.00 in0.0 mm
05:36 AM 26.1°F-3.3°C 7.5°F-13.6°C 45% 27.0 mph NW43.5 kmh NW 27.0 mph43.5 kmh 30.34 in1027.4 mb 0.00 in0.0 mm 0.00 in0.0 mm 0.00 in0.0 mm
05:37 AM 25.9°F-3.4°C 6.3°F-14.3°C 43% 22.0 mph NW35.4 kmh NW 27.0 mph43.5 kmh 30.33 in1027.1 mb 0.00 in0.0 mm 0.00 in0.0 mm 0.00 in0.0 mm
05:38 AM 26.1°F-3.3°C 7.5°F-13.6°C 45% 21.0 mph WNW33.8 kmh WNW 27.0 mph43.5 kmh 30.34 in1027.4 mb 0.00 in0.0 mm 0.00 in0.0 mm 0.00 in0.0 mm
05:39 AM 26.1°F-3.3°C 7.5°F-13.6°C 45% 23.0 mph WNW37.0 kmh WNW 27.0 mph43.5 kmh 30.34 in1027.4 mb 0.00 in0.0 mm 0.00 in0.0 mm 0.00 in0.0 mm
05:40 AM 25.7°F-3.5°C 6.1°F-14.4°C 43% 21.0 mph WNW33.8 kmh WNW 27.0 mph43.5 kmh 30.34 in1027.4 mb 0.00 in0.0 mm 0.00 in0.0 mm 0.00 in0.0 mm
05:41 AM 25.7°F-3.5°C 7.1°F-13.8°C 45% 20.0 mph WNW32.2 kmh WNW 27.0 mph43.5 kmh 30.34 in1027.4 mb 0.00 in0.0 mm 0.00 in0.0 mm 0.00 in0.0 mm
05:42 AM 25.7°F-3.5°C 7.1°F-13.8°C 45% 18.0 mph W29.0 kmh W 27.0 mph43.5 kmh 30.34 in1027.4 mb 0.00 in0.0 mm 0.00 in0.0 mm 0.00 in0.0 mm
05:43 AM 25.7°F-3.5°C 7.1°F-13.8°C 45% 18.0 mph NW29.0 kmh NW 27.0 mph43.5 kmh 30.34 in1027.4 mb 0.00 in0.0 mm 0.00 in0.0 mm 0.00 in0.0 mm
05:44 AM 25.7°F-3.5°C 7.1°F-13.8°C 45% 20.0 mph NW32.2 kmh NW 27.0 mph43.5 kmh 30.34 in1027.4 mb 0.00 in0.0 mm 0.00 in0.0 mm 0.00 in0.0 mm
05:45 AM 25.7°F-3.5°C 7.1°F-13.8°C 45% 21.0 mph WNW33.8 kmh WNW 27.0 mph43.5 kmh 30.34 in1027.4 mb 0.00 in0.0 mm 0.00 in0.0 mm 0.00 in0.0 mm
05:46 AM 25.7°F-3.5°C 7.1°F-13.8°C 45% 20.0 mph W32.2 kmh W 27.0 mph43.5 kmh 30.34 in1027.4 mb 0.00 in0.0 mm 0.00 in0.0 mm 0.00 in0.0 mm
05:47 AM 25.7°F-3.5°C 7.1°F-13.8°C 45% 22.0 mph WNW35.4 kmh WNW 27.0 mph43.5 kmh 30.34 in1027.4 mb 0.00 in0.0 mm 0.00 in0.0 mm 0.00 in0.0 mm
05:48 AM 25.7°F-3.5°C 7.1°F-13.8°C 45% 19.0 mph NW30.6 kmh NW 27.0 mph43.5 kmh 30.35 in1027.8 mb 0.00 in0.0 mm 0.00 in0.0 mm 0.00 in0.0 mm
05:49 AM 25.7°F-3.5°C 7.1°F-13.8°C 45% 24.0 mph NW38.6 kmh NW 27.0 mph43.5 kmh 30.34 in1027.4 mb 0.00 in0.0 mm 0.00 in0.0 mm 0.00 in0.0 mm
05:50 AM 25.7°F-3.5°C 7.1°F-13.8°C 45% 19.0 mph NW30.6 kmh NW 25.0 mph40.2 kmh 30.34 in1027.4 mb 0.00 in0.0 mm 0.00 in0.0 mm 0.00 in0.0 mm
05:51 AM 25.7°F-3.5°C 7.1°F-13.8°C 45% 13.0 mph NNW20.9 kmh NNW 25.0 mph40.2 kmh 30.34 in1027.4 mb 0.00 in0.0 mm 0.00 in0.0 mm 0.00 in0.0 mm
05:52 AM 25.7°F-3.5°C 7.6°F-13.6°C 46% 18.0 mph NW29.0 kmh NW 25.0 mph40.2 kmh 30.34 in1027.4 mb 0.00 in0.0 mm 0.00 in0.0 mm 0.00 in0.0 mm
05:53 AM 25.7°F-3.5°C 7.6°F-13.6°C 46% 18.0 mph NW29.0 kmh NW 25.0 mph40.2 kmh 30.34 in1027.4 mb 0.00 in0.0 mm 0.00 in0.0 mm 0.00 in0.0 mm
05:54 AM 25.7°F-3.5°C 8.6°F-13.0°C 48% 17.0 mph WNW27.4 kmh WNW 25.0 mph40.2 kmh 30.34 in1027.4 mb 0.00 in0.0 mm 0.00 in0.0 mm 0.00 in0.0 mm
05:55 AM 25.4°F-3.7°C 7.4°F-13.7°C 46% 18.0 mph WNW29.0 kmh WNW 25.0 mph40.2 kmh 30.34 in1027.4 mb 0.00 in0.0 mm 0.00 in0.0 mm 0.00 in0.0 mm
05:56 AM 25.4°F-3.7°C 6.9°F-13.9°C 45% 15.0 mph W24.1 kmh W 25.0 mph40.2 kmh 30.35 in1027.8 mb 0.00 in0.0 mm 0.00 in0.0 mm 0.00 in0.0 mm
05:57 AM 25.4°F-3.7°C 7.4°F-13.7°C 46% 17.0 mph NW27.4 kmh NW 25.0 mph40.2 kmh 30.35 in1027.8 mb 0.00 in0.0 mm 0.00 in0.0 mm 0.00 in0.0 mm
05:58 AM 25.4°F-3.7°C 7.4°F-13.7°C 46% 19.0 mph NW30.6 kmh NW 24.0 mph38.6 kmh 30.34 in1027.4 mb 0.00 in0.0 mm 0.00 in0.0 mm 0.00 in0.0 mm
05:59 AM 25.4°F-3.7°C 7.4°F-13.7°C 46% 13.0 mph 20.9 kmh 24.0 mph38.6 kmh 30.34 in1027.4 mb 0.00 in0.0 mm 0.00 in0.0 mm 0.00 in0.0 mm
06:00 AM 25.2°F-3.8°C 6.7°F-14.1°C 45% 12.0 mph WNW19.3 kmh WNW 20.0 mph32.2 kmh 30.34 in1027.4 mb 0.00 in0.0 mm 0.00 in0.0 mm 0.00 in0.0 mm
06:01 AM 25.2°F-3.8°C 6.7°F-14.1°C 45% 13.0 mph WNW20.9 kmh WNW 20.0 mph32.2 kmh 30.34 in1027.4 mb 0.00 in0.0 mm 0.00 in0.0 mm 0.00 in0.0 mm
06:02 AM 25.2°F-3.8°C 6.7°F-14.1°C 45% 13.0 mph WNW20.9 kmh WNW 20.0 mph32.2 kmh 30.35 in1027.8 mb 0.00 in0.0 mm 0.00 in0.0 mm 0.00 in0.0 mm
06:03 AM 25.2°F-3.8°C 6.7°F-14.1°C 45% 13.0 mph NNW20.9 kmh NNW 19.0 mph30.6 kmh 30.35 in1027.8 mb 0.00 in0.0 mm 0.00 in0.0 mm 0.00 in0.0 mm
06:04 AM 25.2°F-3.8°C 7.2°F-13.8°C 46% 12.0 mph WNW19.3 kmh WNW 19.0 mph30.6 kmh 30.35 in1027.8 mb 0.00 in0.0 mm 0.00 in0.0 mm 0.00 in0.0 mm
06:05 AM 25.2°F-3.8°C 7.2°F-13.8°C 46% 12.0 mph WNW19.3 kmh WNW 19.0 mph30.6 kmh 30.35 in1027.8 mb 0.00 in0.0 mm 0.00 in0.0 mm 0.00 in0.0 mm
06:06 AM 25.2°F-3.8°C 8.2°F-13.2°C 48% 17.0 mph NW27.4 kmh NW 19.0 mph30.6 kmh 30.36 in1028.1 mb 0.00 in0.0 mm 0.00 in0.0 mm 0.00 in0.0 mm
06:07 AM 25.1°F-3.8°C 6.6°F-14.1°C 45% 13.0 mph NNW20.9 kmh NNW 19.0 mph30.6 kmh 30.35 in1027.8 mb 0.00 in0.0 mm 0.00 in0.0 mm 0.00 in0.0 mm
06:08 AM 25.1°F-3.8°C 6.6°F-14.1°C 45% 20.0 mph WNW32.2 kmh WNW 20.0 mph32.2 kmh 30.36 in1028.1 mb 0.00 in0.0 mm 0.00 in0.0 mm 0.00 in0.0 mm
06:09 AM 25.1°F-3.8°C 7.1°F-13.8°C 46% 16.0 mph NW25.7 kmh NW 20.0 mph32.2 kmh 30.35 in1027.8 mb 0.00 in0.0 mm 0.00 in0.0 mm 0.00 in0.0 mm
06:10 AM 25.1°F-3.8°C 6.6°F-14.1°C 45% 13.0 mph NNW20.9 kmh NNW 20.0 mph32.2 kmh 30.36 in1028.1 mb 0.00 in0.0 mm 0.00 in0.0 mm 0.00 in0.0 mm
06:11 AM 25.1°F-3.8°C 6.6°F-14.1°C 45% 16.0 mph NNW25.7 kmh NNW 20.0 mph32.2 kmh 30.36 in1028.1 mb 0.00 in0.0 mm 0.00 in0.0 mm 0.00 in0.0 mm
06:12 AM 25.0°F-3.9°C 6.5°F-14.2°C 45% 16.0 mph WNW25.7 kmh WNW 20.0 mph32.2 kmh 30.36 in1028.1 mb 0.00 in0.0 mm 0.00 in0.0 mm 0.00 in0.0 mm
06:13 AM 25.0°F-3.9°C 6.5°F-14.2°C 45% 14.0 mph NW22.5 kmh NW 20.0 mph32.2 kmh 30.36 in1028.1 mb 0.00 in0.0 mm 0.00 in0.0 mm 0.00 in0.0 mm
06:14 AM 25.0°F-3.9°C 6.5°F-14.2°C 45% 18.0 mph WNW29.0 kmh WNW 20.0 mph32.2 kmh 30.36 in1028.1 mb 0.00 in0.0 mm 0.00 in0.0 mm 0.00 in0.0 mm
06:15 AM 25.1°F-3.8°C 6.6°F-14.1°C 45% 18.0 mph WNW29.0 kmh WNW 20.0 mph32.2 kmh 30.36 in1028.1 mb 0.00 in0.0 mm 0.00 in0.0 mm 0.00 in0.0 mm
06:16 AM 25.1°F-3.8°C 6.6°F-14.1°C 45% 16.0 mph WNW25.7 kmh WNW 20.0 mph32.2 kmh 30.36 in1028.1 mb 0.00 in0.0 mm 0.00 in0.0 mm 0.00 in0.0 mm
06:17 AM 25.1°F-3.8°C 6.6°F-14.1°C 45% 18.0 mph NW29.0 kmh NW 20.0 mph32.2 kmh 30.36 in1028.1 mb 0.00 in0.0 mm 0.00 in0.0 mm 0.00 in0.0 mm
06:18 AM 25.1°F-3.8°C 7.1°F-13.8°C 46% 15.0 mph W24.1 kmh W 21.0 mph33.8 kmh 30.36 in1028.1 mb 0.00 in0.0 mm 0.00 in0.0 mm 0.00 in0.0 mm
06:19 AM 25.1°F-3.8°C 6.6°F-14.1°C 45% 10.0 mph NW16.1 kmh NW 21.0 mph33.8 kmh 30.36 in1028.1 mb 0.00 in0.0 mm 0.00 in0.0 mm 0.00 in0.0 mm
06:20 AM 25.0°F-3.9°C 6.0°F-14.4°C 44% 15.0 mph WNW24.1 kmh WNW 21.0 mph33.8 kmh 30.36 in1028.1 mb 0.00 in0.0 mm 0.00 in0.0 mm 0.00 in0.0 mm
06:21 AM 25.0°F-3.9°C 6.5°F-14.2°C 45% 12.0 mph WNW19.3 kmh WNW 21.0 mph33.8 kmh 30.36 in1028.1 mb 0.00 in0.0 mm 0.00 in0.0 mm 0.00 in0.0 mm
06:22 AM 25.0°F-3.9°C 6.5°F-14.2°C 45% 18.0 mph NW29.0 kmh NW 21.0 mph33.8 kmh 30.36 in1028.1 mb 0.00 in0.0 mm 0.00 in0.0 mm 0.00 in0.0 mm
06:23 AM 25.0°F-3.9°C 6.5°F-14.2°C 45% 19.0 mph WNW30.6 kmh WNW 21.0 mph33.8 kmh 30.36 in1028.1 mb 0.00 in0.0 mm 0.00 in0.0 mm 0.00 in0.0 mm
06:24 AM 25.1°F-3.8°C 6.6°F-14.1°C 45% 17.0 mph WNW27.4 kmh WNW 21.0 mph33.8 kmh 30.37 in1028.4 mb 0.00 in0.0 mm 0.00 in0.0 mm 0.00 in0.0 mm
06:25 AM 25.1°F-3.8°C 6.6°F-14.1°C 45% 14.0 mph WNW22.5 kmh WNW 21.0 mph33.8 kmh 30.37 in1028.4 mb 0.00 in0.0 mm 0.00 in0.0 mm 0.00 in0.0 mm
06:26 AM 25.1°F-3.8°C 8.1°F-13.3°C 48% 10.0 mph NW16.1 kmh NW 21.0 mph33.8 kmh 30.37 in1028.4 mb 0.00 in0.0 mm 0.00 in0.0 mm 0.00 in0.0 mm
06:27 AM 25.1°F-3.8°C 8.1°F-13.3°C 48% 17.0 mph NW27.4 kmh NW 21.0 mph33.8 kmh 30.37 in1028.4 mb 0.00 in0.0 mm 0.00 in0.0 mm 0.00 in0.0 mm
06:28 AM 25.0°F-3.9°C 6.5°F-14.2°C 45% 14.0 mph NW22.5 kmh NW 20.0 mph32.2 kmh 30.37 in1028.4 mb 0.00 in0.0 mm 0.00 in0.0 mm 0.00 in0.0 mm
06:29 AM 25.0°F-3.9°C 6.5°F-14.2°C 45% 18.0 mph WNW29.0 kmh WNW 20.0 mph32.2 kmh 30.37 in1028.4 mb 0.00 in0.0 mm 0.00 in0.0 mm 0.00 in0.0 mm
06:30 AM 25.0°F-3.9°C 6.5°F-14.2°C 45% 12.0 mph W19.3 kmh W 20.0 mph32.2 kmh 30.38 in1028.8 mb 0.00 in0.0 mm 0.00 in0.0 mm 0.00 in0.0 mm
06:31 AM 25.0°F-3.9°C 6.5°F-14.2°C 45% 10.0 mph W16.1 kmh W 20.0 mph32.2 kmh 30.37 in1028.4 mb 0.00 in0.0 mm 0.00 in0.0 mm 0.00 in0.0 mm
06:32 AM 25.0°F-3.9°C 8.0°F-13.3°C 48% 15.0 mph NW24.1 kmh NW 20.0 mph32.2 kmh 30.37 in1028.4 mb 0.00 in0.0 mm 0.00 in0.0 mm 0.00 in0.0 mm
06:33 AM 24.8°F-4.0°C 5.8°F-14.6°C 44% 15.0 mph WNW24.1 kmh WNW 19.0 mph30.6 kmh 30.37 in1028.4 mb 0.00 in0.0 mm 0.00 in0.0 mm 0.00 in0.0 mm
06:34 AM 24.6°F-4.1°C 5.6°F-14.7°C 44% 13.0 mph NW20.9 kmh NW 18.0 mph29.0 kmh 30.37 in1028.4 mb 0.00 in0.0 mm 0.00 in0.0 mm 0.00 in0.0 mm
06:35 AM 24.6°F-4.1°C 5.6°F-14.7°C 44% 17.0 mph W27.4 kmh W 18.0 mph29.0 kmh 30.37 in1028.4 mb 0.00 in0.0 mm 0.00 in0.0 mm 0.00 in0.0 mm
06:36 AM 24.8°F-4.0°C 6.3°F-14.3°C 45% 18.0 mph WNW29.0 kmh WNW 18.0 mph29.0 kmh 30.37 in1028.4 mb 0.00 in0.0 mm 0.00 in0.0 mm 0.00 in0.0 mm
06:37 AM 24.8°F-4.0°C 6.3°F-14.3°C 45% 11.0 mph WNW17.7 kmh WNW 21.0 mph33.8 kmh 30.37 in1028.4 mb 0.00 in0.0 mm 0.00 in0.0 mm 0.00 in0.0 mm
06:38 AM 24.8°F-4.0°C 6.8°F-14.0°C 46% 16.0 mph NW25.7 kmh NW 21.0 mph33.8 kmh 30.37 in1028.4 mb 0.00 in0.0 mm 0.00 in0.0 mm 0.00 in0.0 mm
06:39 AM 24.8°F-4.0°C 6.8°F-14.0°C 46% 16.0 mph W25.7 kmh W 21.0 mph33.8 kmh 30.37 in1028.4 mb 0.00 in0.0 mm 0.00 in0.0 mm 0.00 in0.0 mm
06:40 AM 24.8°F-4.0°C 6.3°F-14.3°C 45% 18.0 mph WNW29.0 kmh WNW 23.0 mph37.0 kmh 30.37 in1028.4 mb 0.00 in0.0 mm 0.00 in0.0 mm 0.00 in0.0 mm
06:41 AM 24.8°F-4.0°C 6.3°F-14.3°C 45% 13.0 mph WNW20.9 kmh WNW 23.0 mph37.0 kmh 30.37 in1028.4 mb 0.00 in0.0 mm 0.00 in0.0 mm 0.00 in0.0 mm
06:42 AM 24.8°F-4.0°C 6.3°F-14.3°C 45% 17.0 mph W27.4 kmh W 23.0 mph37.0 kmh 30.38 in1028.8 mb 0.00 in0.0 mm 0.00 in0.0 mm 0.00 in0.0 mm
06:43 AM 24.6°F-4.1°C 5.6°F-14.7°C 44% 10.0 mph WNW16.1 kmh WNW 23.0 mph37.0 kmh 30.38 in1028.8 mb 0.00 in0.0 mm 0.00 in0.0 mm 0.00 in0.0 mm
06:44 AM 24.4°F-4.2°C 5.4°F-14.8°C 44% 10.0 mph WNW16.1 kmh WNW 23.0 mph37.0 kmh 30.38 in1028.8 mb 0.00 in0.0 mm 0.00 in0.0 mm 0.00 in0.0 mm
06:45 AM 24.4°F-4.2°C 6.0°F-14.4°C 45% 13.0 mph WNW20.9 kmh WNW 23.0 mph37.0 kmh 30.38 in1028.8 mb 0.00 in0.0 mm 0.00 in0.0 mm 0.00 in0.0 mm
06:46 AM 24.6°F-4.1°C 6.6°F-14.1°C 46% 15.0 mph NW24.1 kmh NW 23.0 mph37.0 kmh 30.38 in1028.8 mb 0.00 in0.0 mm 0.00 in0.0 mm 0.00 in0.0 mm
06:47 AM 24.6°F-4.1°C 6.1°F-14.4°C 45% 20.0 mph WNW32.2 kmh WNW 23.0 mph37.0 kmh 30.38 in1028.8 mb 0.00 in0.0 mm 0.00 in0.0 mm 0.00 in0.0 mm
06:48 AM 24.4°F-4.2°C 4.9°F-15.1°C 43% 13.0 mph WNW20.9 kmh WNW 23.0 mph37.0 kmh 30.38 in1028.8 mb 0.00 in0.0 mm 0.00 in0.0 mm 0.00 in0.0 mm
06:49 AM 24.6°F-4.1°C 6.1°F-14.4°C 45% 16.0 mph NW25.7 kmh NW 23.0 mph37.0 kmh 30.38 in1028.8 mb 0.00 in0.0 mm 0.00 in0.0 mm 0.00 in0.0 mm
06:50 AM 24.6°F-4.1°C 6.1°F-14.4°C 45% 12.0 mph W19.3 kmh W 20.0 mph32.2 kmh 30.38 in1028.8 mb 0.00 in0.0 mm 0.00 in0.0 mm 0.00 in0.0 mm
06:51 AM 24.6°F-4.1°C 7.6°F-13.6°C 48% 16.0 mph NW25.7 kmh NW 20.0 mph32.2 kmh 30.38 in1028.8 mb 0.00 in0.0 mm 0.00 in0.0 mm 0.00 in0.0 mm
06:52 AM 24.6°F-4.1°C 6.6°F-14.1°C 46% 15.0 mph WNW24.1 kmh WNW 20.0 mph32.2 kmh 30.38 in1028.8 mb 0.00 in0.0 mm 0.00 in0.0 mm 0.00 in0.0 mm
06:53 AM 24.6°F-4.1°C 7.6°F-13.6°C 48% 12.0 mph NW19.3 kmh NW 20.0 mph32.2 kmh 30.38 in1028.8 mb 0.00 in0.0 mm 0.00 in0.0 mm 0.00 in0.0 mm
06:54 AM 24.6°F-4.1°C 6.6°F-14.1°C 46% 12.0 mph WNW19.3 kmh WNW 20.0 mph32.2 kmh 30.39 in1029.1 mb 0.00 in0.0 mm 0.00 in0.0 mm 0.00 in0.0 mm
06:55 AM 24.4°F-4.2°C 5.4°F-14.8°C 44% 9.0 mph WNW14.5 kmh WNW 20.0 mph32.2 kmh 30.38 in1028.8 mb 0.00 in0.0 mm 0.00 in0.0 mm 0.00 in0.0 mm
06:56 AM 24.4°F-4.2°C 6.0°F-14.4°C 45% 13.0 mph WNW20.9 kmh WNW 20.0 mph32.2 kmh 30.38 in1028.8 mb 0.00 in0.0 mm 0.00 in0.0 mm 0.00 in0.0 mm
06:57 AM 24.6°F-4.1°C 8.1°F-13.3°C 49% 15.0 mph WNW24.1 kmh WNW 20.0 mph32.2 kmh 30.38 in1028.8 mb 0.00 in0.0 mm 0.00 in0.0 mm 0.00 in0.0 mm
06:58 AM 24.6°F-4.1°C 6.6°F-14.1°C 46% 16.0 mph WNW25.7 kmh WNW 18.0 mph29.0 kmh 30.39 in1029.1 mb 0.00 in0.0 mm 0.00 in0.0 mm 0.00 in0.0 mm
06:59 AM 24.6°F-4.1°C 6.1°F-14.4°C 45% 13.0 mph WNW20.9 kmh WNW 18.0 mph29.0 kmh 30.38 in1028.8 mb 0.00 in0.0 mm 0.00 in0.0 mm 0.00 in0.0 mm
07:00 AM 24.6°F-4.1°C 6.6°F-14.1°C 46% 10.0 mph WNW16.1 kmh WNW 18.0 mph29.0 kmh 30.39 in1029.1 mb 0.00 in0.0 mm 0.00 in0.0 mm 0.00 in0.0 mm
07:01 AM 24.6°F-4.1°C 7.6°F-13.6°C 48% 16.0 mph WNW25.7 kmh WNW 18.0 mph29.0 kmh 30.39 in1029.1 mb 0.00 in0.0 mm 0.00 in0.0 mm 0.00 in0.0 mm
07:02 AM 24.4°F-4.2°C 6.4°F-14.2°C 46% 18.0 mph NW29.0 kmh NW 18.0 mph29.0 kmh 30.39 in1029.1 mb 0.00 in0.0 mm 0.00 in0.0 mm 0.00 in0.0 mm
07:03 AM 24.4°F-4.2°C 6.0°F-14.4°C 45% 13.0 mph WNW20.9 kmh WNW 18.0 mph29.0 kmh 30.38 in1028.8 mb 0.00 in0.0 mm 0.00 in0.0 mm 0.00 in0.0 mm
07:04 AM 24.2°F-4.3°C 5.3°F-14.8°C 44% 15.0 mph W24.1 kmh W 18.0 mph29.0 kmh 30.39 in1029.1 mb 0.00 in0.0 mm 0.00 in0.0 mm 0.00 in0.0 mm
07:05 AM 24.2°F-4.3°C 5.8°F-14.6°C 45% 12.0 mph W19.3 kmh W 18.0 mph29.0 kmh 30.39 in1029.1 mb 0.00 in0.0 mm 0.00 in0.0 mm 0.00 in0.0 mm
07:06 AM 24.2°F-4.3°C 5.8°F-14.6°C 45% 11.0 mph WNW17.7 kmh WNW 18.0 mph29.0 kmh 30.39 in1029.1 mb 0.00 in0.0 mm 0.00 in0.0 mm 0.00 in0.0 mm
07:07 AM 24.2°F-4.3°C 5.8°F-14.6°C 45% 14.0 mph NW22.5 kmh NW 18.0 mph29.0 kmh 30.39 in1029.1 mb 0.00 in0.0 mm 0.00 in0.0 mm 0.00 in0.0 mm
07:08 AM 24.2°F-4.3°C 5.8°F-14.6°C 45% 9.0 mph NW14.5 kmh NW 18.0 mph29.0 kmh 30.39 in1029.1 mb 0.00 in0.0 mm 0.00 in0.0 mm 0.00 in0.0 mm
07:09 AM 24.2°F-4.3°C 5.8°F-14.6°C 45% 10.0 mph W16.1 kmh W 18.0 mph29.0 kmh 30.39 in1029.1 mb 0.00 in0.0 mm 0.00 in0.0 mm 0.00 in0.0 mm
07:10 AM 24.4°F-4.2°C 7.4°F-13.7°C 48% 12.0 mph W19.3 kmh W 18.0 mph29.0 kmh 30.39 in1029.1 mb 0.00 in0.0 mm 0.00 in0.0 mm 0.00 in0.0 mm
07:11 AM 24.6°F-4.1°C 8.1°F-13.3°C 49% 12.0 mph W19.3 kmh W 18.0 mph29.0 kmh 30.39 in1029.1 mb 0.00 in0.0 mm 0.00 in0.0 mm 0.00 in0.0 mm
07:12 AM 24.6°F-4.1°C 6.6°F-14.1°C 46% 19.0 mph WNW30.6 kmh WNW 19.0 mph30.6 kmh 30.40 in1029.5 mb 0.00 in0.0 mm 0.00 in0.0 mm 0.00 in0.0 mm
07:13 AM 24.4°F-4.2°C 6.0°F-14.4°C 45% 13.0 mph WNW20.9 kmh WNW 19.0 mph30.6 kmh 30.39 in1029.1 mb 0.00 in0.0 mm 0.00 in0.0 mm 0.00 in0.0 mm
07:14 AM 24.4°F-4.2°C 6.0°F-14.4°C 45% 12.0 mph WNW19.3 kmh WNW 19.0 mph30.6 kmh 30.40 in1029.5 mb 0.00 in0.0 mm 0.00 in0.0 mm 0.00 in0.0 mm
07:15 AM 24.2°F-4.3°C 5.3°F-14.8°C 44% 13.0 mph W20.9 kmh W 19.0 mph30.6 kmh 30.40 in1029.5 mb 0.00 in0.0 mm 0.00 in0.0 mm 0.00 in0.0 mm
07:16 AM 24.2°F-4.3°C 5.8°F-14.6°C 45% 19.0 mph W30.6 kmh W 19.0 mph30.6 kmh 30.40 in1029.5 mb 0.00 in0.0 mm 0.00 in0.0 mm 0.00 in0.0 mm
07:17 AM 24.2°F-4.3°C 5.8°F-14.6°C 45% 10.0 mph W16.1 kmh W 19.0 mph30.6 kmh 30.40 in1029.5 mb 0.00 in0.0 mm 0.00 in0.0 mm 0.00 in0.0 mm
07:18 AM 24.4°F-4.2°C 6.4°F-14.2°C 46% 17.0 mph W27.4 kmh W 19.0 mph30.6 kmh 30.40 in1029.5 mb 0.00 in0.0 mm 0.00 in0.0 mm 0.00 in0.0 mm
07:19 AM 24.4°F-4.2°C 6.0°F-14.4°C 45% 9.0 mph WNW14.5 kmh WNW 19.0 mph30.6 kmh 30.40 in1029.5 mb 0.00 in0.0 mm 0.00 in0.0 mm 0.00 in0.0 mm
07:20 AM 24.4°F-4.2°C 7.4°F-13.7°C 48% 7.0 mph WNW11.3 kmh WNW 19.0 mph30.6 kmh 30.40 in1029.5 mb 0.00 in0.0 mm 0.00 in0.0 mm 0.00 in0.0 mm
07:21 AM 24.4°F-4.2°C 6.4°F-14.2°C 46% 11.0 mph NW17.7 kmh NW 19.0 mph30.6 kmh 30.40 in1029.5 mb 0.00 in0.0 mm 0.00 in0.0 mm 0.00 in0.0 mm
07:22 AM 24.2°F-4.3°C 5.8°F-14.6°C 45% 11.0 mph WNW17.7 kmh WNW 19.0 mph30.6 kmh 30.41 in1029.8 mb 0.00 in0.0 mm 0.00 in0.0 mm 0.00 in0.0 mm
07:23 AM 24.2°F-4.3°C 4.7°F-15.2°C 43% 9.0 mph WNW14.5 kmh WNW 19.0 mph30.6 kmh 30.40 in1029.5 mb 0.00 in0.0 mm 0.00 in0.0 mm 0.00 in0.0 mm
07:24 AM 24.2°F-4.3°C 5.3°F-14.8°C 44% 8.0 mph WNW12.9 kmh WNW 19.0 mph30.6 kmh 30.41 in1029.8 mb 0.00 in0.0 mm 0.00 in0.0 mm 0.00 in0.0 mm
07:25 AM 24.2°F-4.3°C 5.8°F-14.6°C 45% 19.0 mph NW30.6 kmh NW 19.0 mph30.6 kmh 30.40 in1029.5 mb 0.00 in0.0 mm 0.00 in0.0 mm 0.00 in0.0 mm
07:26 AM 24.2°F-4.3°C 5.8°F-14.6°C 45% 9.0 mph WNW14.5 kmh WNW 19.0 mph30.6 kmh 30.40 in1029.5 mb 0.00 in0.0 mm 0.00 in0.0 mm 0.00 in0.0 mm
07:27 AM 24.2°F-4.3°C 5.8°F-14.6°C 45% 8.0 mph WNW12.9 kmh WNW 19.0 mph30.6 kmh 30.40 in1029.5 mb 0.00 in0.0 mm 0.00 in0.0 mm 0.00 in0.0 mm
07:28 AM 24.2°F-4.3°C 5.8°F-14.6°C 45% 10.0 mph WNW16.1 kmh WNW 19.0 mph30.6 kmh 30.40 in1029.5 mb 0.00 in0.0 mm 0.00 in0.0 mm 0.00 in0.0 mm
07:29 AM 24.2°F-4.3°C 5.8°F-14.6°C 45% 13.0 mph WNW20.9 kmh WNW 19.0 mph30.6 kmh 30.40 in1029.5 mb 0.00 in0.0 mm 0.00 in0.0 mm 0.00 in0.0 mm
07:30 AM 24.2°F-4.3°C 5.8°F-14.6°C 45% 12.0 mph WNW19.3 kmh WNW 19.0 mph30.6 kmh 30.40 in1029.5 mb 0.00 in0.0 mm 0.00 in0.0 mm 0.00 in0.0 mm
07:31 AM 24.2°F-4.3°C 5.8°F-14.6°C 45% 10.0 mph NW16.1 kmh NW 19.0 mph30.6 kmh 30.40 in1029.5 mb 0.00 in0.0 mm 0.00 in0.0 mm 0.00 in0.0 mm
07:32 AM 24.2°F-4.3°C 5.8°F-14.6°C 45% 12.0 mph WNW19.3 kmh WNW 19.0 mph30.6 kmh 30.41 in1029.8 mb 0.00 in0.0 mm 0.00 in0.0 mm 0.00 in0.0 mm
07:33 AM 24.2°F-4.3°C 5.8°F-14.6°C 45% 11.0 mph NW17.7 kmh NW 19.0 mph30.6 kmh 30.41 in1029.8 mb 0.00 in0.0 mm 0.00 in0.0 mm 0.00 in0.0 mm
07:34 AM 24.2°F-4.3°C 5.8°F-14.6°C 45% 8.0 mph W12.9 kmh W 19.0 mph30.6 kmh 30.41 in1029.8 mb 0.00 in0.0 mm 0.00 in0.0 mm 0.00 in0.0 mm
07:35 AM 24.2°F-4.3°C 6.3°F-14.3°C 46% 7.0 mph WNW11.3 kmh WNW 19.0 mph30.6 kmh 30.41 in1029.8 mb 0.00 in0.0 mm 0.00 in0.0 mm 0.00 in0.0 mm
07:36 AM 24.2°F-4.3°C 6.3°F-14.3°C 46% 17.0 mph WNW27.4 kmh WNW 17.0 mph27.4 kmh 30.41 in1029.8 mb 0.00 in0.0 mm 0.00 in0.0 mm 0.00 in0.0 mm
07:37 AM 24.2°F-4.3°C 5.8°F-14.6°C 45% 17.0 mph WNW27.4 kmh WNW 18.0 mph29.0 kmh 30.41 in1029.8 mb 0.00 in0.0 mm 0.00 in0.0 mm 0.00 in0.0 mm
07:38 AM 24.2°F-4.3°C 5.8°F-14.6°C 45% 18.0 mph WNW29.0 kmh WNW 18.0 mph29.0 kmh 30.41 in1029.8 mb 0.00 in0.0 mm 0.00 in0.0 mm 0.00 in0.0 mm
07:39 AM 24.2°F-4.3°C 5.8°F-14.6°C 45% 18.0 mph NW29.0 kmh NW 18.0 mph29.0 kmh 30.41 in1029.8 mb 0.00 in0.0 mm 0.00 in0.0 mm 0.00 in0.0 mm
07:40 AM 24.1°F-4.4°C 5.2°F-14.9°C 44% 12.0 mph WNW19.3 kmh WNW 18.0 mph29.0 kmh 30.41 in1029.8 mb 0.00 in0.0 mm 0.00 in0.0 mm 0.00 in0.0 mm
07:41 AM 24.2°F-4.3°C 6.3°F-14.3°C 46% 16.0 mph WNW25.7 kmh WNW 19.0 mph30.6 kmh 30.41 in1029.8 mb 0.00 in0.0 mm 0.00 in0.0 mm 0.00 in0.0 mm
07:42 AM 24.2°F-4.3°C 6.3°F-14.3°C 46% 15.0 mph W24.1 kmh W 19.0 mph30.6 kmh 30.41 in1029.8 mb 0.00 in0.0 mm 0.00 in0.0 mm 0.00 in0.0 mm
07:43 AM 24.4°F-4.2°C 7.9°F-13.4°C 49% 13.0 mph WNW20.9 kmh WNW 19.0 mph30.6 kmh 30.41 in1029.8 mb 0.00 in0.0 mm 0.00 in0.0 mm 0.00 in0.0 mm
07:44 AM 24.4°F-4.2°C 6.4°F-14.2°C 46% 12.0 mph WNW19.3 kmh WNW 19.0 mph30.6 kmh 30.41 in1029.8 mb 0.00 in0.0 mm 0.00 in0.0 mm 0.00 in0.0 mm
07:45 AM 24.4°F-4.2°C 6.0°F-14.4°C 45% 15.0 mph WNW24.1 kmh WNW 19.0 mph30.6 kmh 30.41 in1029.8 mb 0.00 in0.0 mm 0.00 in0.0 mm 0.00 in0.0 mm
07:46 AM 24.4°F-4.2°C 6.4°F-14.2°C 46% 19.0 mph WNW30.6 kmh WNW 21.0 mph33.8 kmh 30.41 in1029.8 mb 0.00 in0.0 mm 0.00 in0.0 mm 0.00 in0.0 mm
07:47 AM 24.4°F-4.2°C 7.4°F-13.7°C 48% 17.0 mph NW27.4 kmh NW 21.0 mph33.8 kmh 30.41 in1029.8 mb 0.00 in0.0 mm 0.00 in0.0 mm 0.00 in0.0 mm
07:48 AM 24.4°F-4.2°C 6.0°F-14.4°C 45% 18.0 mph NW29.0 kmh NW 22.0 mph35.4 kmh 30.42 in1030.1 mb 0.00 in0.0 mm 0.00 in0.0 mm 0.00 in0.0 mm
07:49 AM 24.4°F-4.2°C 6.0°F-14.4°C 45% 20.0 mph NW32.2 kmh NW 22.0 mph35.4 kmh 30.42 in1030.1 mb 0.00 in0.0 mm 0.00 in0.0 mm 0.00 in0.0 mm
07:50 AM 24.4°F-4.2°C 6.4°F-14.2°C 46% 21.0 mph NNW33.8 kmh NNW 22.0 mph35.4 kmh 30.42 in1030.1 mb 0.00 in0.0 mm 0.00 in0.0 mm 0.00 in0.0 mm
07:51 AM 24.4°F-4.2°C 6.4°F-14.2°C 46% 19.0 mph WNW30.6 kmh WNW 22.0 mph35.4 kmh 30.42 in1030.1 mb 0.00 in0.0 mm 0.00 in0.0 mm 0.00 in0.0 mm
07:52 AM 24.4°F-4.2°C 6.0°F-14.4°C 45% 15.0 mph W24.1 kmh W 22.0 mph35.4 kmh 30.42 in1030.1 mb 0.00 in0.0 mm 0.00 in0.0 mm 0.00 in0.0 mm
07:53 AM 24.4°F-4.2°C 6.0°F-14.4°C 45% 17.0 mph NNW27.4 kmh NNW 22.0 mph35.4 kmh 30.42 in1030.1 mb 0.00 in0.0 mm 0.00 in0.0 mm 0.00 in0.0 mm
07:54 AM 24.4°F-4.2°C 6.4°F-14.2°C 46% 17.0 mph NW27.4 kmh NW 22.0 mph35.4 kmh 30.42 in1030.1 mb 0.00 in0.0 mm 0.00 in0.0 mm 0.00 in0.0 mm
07:55 AM 24.4°F-4.2°C 6.0°F-14.4°C 45% 12.0 mph WNW19.3 kmh WNW 22.0 mph35.4 kmh 30.42 in1030.1 mb 0.00 in0.0 mm 0.00 in0.0 mm 0.00 in0.0 mm
07:56 AM 24.4°F-4.2°C 6.4°F-14.2°C 46% 18.0 mph W29.0 kmh W 22.0 mph35.4 kmh 30.42 in1030.1 mb 0.00 in0.0 mm 0.00 in0.0 mm 0.00 in0.0 mm
07:57 AM 24.6°F-4.1°C 7.6°F-13.6°C 48% 14.0 mph W22.5 kmh W 22.0 mph35.4 kmh 30.41 in1029.8 mb 0.00 in0.0 mm 0.00 in0.0 mm 0.00 in0.0 mm
07:58 AM 24.6°F-4.1°C 7.6°F-13.6°C 48% 15.0 mph NW24.1 kmh NW 21.0 mph33.8 kmh 30.42 in1030.1 mb 0.00 in0.0 mm 0.00 in0.0 mm 0.00 in0.0 mm
07:59 AM 24.6°F-4.1°C 6.6°F-14.1°C 46% 18.0 mph NW29.0 kmh NW 21.0 mph33.8 kmh 30.42 in1030.1 mb 0.00 in0.0 mm 0.00 in0.0 mm 0.00 in0.0 mm
08:00 AM 24.4°F-4.2°C 5.4°F-14.8°C 44% 18.0 mph W29.0 kmh W 21.0 mph33.8 kmh 30.42 in1030.1 mb 0.00 in0.0 mm 0.00 in0.0 mm 0.00 in0.0 mm
08:01 AM 24.6°F-4.1°C 6.6°F-14.1°C 46% 24.0 mph NW38.6 kmh NW 24.0 mph38.6 kmh 30.42 in1030.1 mb 0.00 in0.0 mm 0.00 in0.0 mm 0.00 in0.0 mm
08:02 AM 24.6°F-4.1°C 7.6°F-13.6°C 48% 25.0 mph WNW40.2 kmh WNW 25.0 mph40.2 kmh 30.42 in1030.1 mb 0.00 in0.0 mm 0.00 in0.0 mm 0.00 in0.0 mm
08:03 AM 24.6°F-4.1°C 6.1°F-14.4°C 45% 17.0 mph W27.4 kmh W 25.0 mph40.2 kmh 30.42 in1030.1 mb 0.00 in0.0 mm 0.00 in0.0 mm 0.00 in0.0 mm
08:04 AM 24.8°F-4.0°C 7.8°F-13.4°C 48% 20.0 mph NNW32.2 kmh NNW 25.0 mph40.2 kmh 30.42 in1030.1 mb 0.00 in0.0 mm 0.00 in0.0 mm 0.00 in0.0 mm
08:05 AM 24.8°F-4.0°C 7.8°F-13.4°C 48% 17.0 mph NW27.4 kmh NW 25.0 mph40.2 kmh 30.42 in1030.1 mb 0.00 in0.0 mm 0.00 in0.0 mm 0.00 in0.0 mm
08:06 AM 24.8°F-4.0°C 8.7°F-12.9°C 50% 15.0 mph WNW24.1 kmh WNW 25.0 mph40.2 kmh 30.42 in1030.1 mb 0.00 in0.0 mm 0.00 in0.0 mm 0.00 in0.0 mm
08:07 AM 24.8°F-4.0°C 7.8°F-13.4°C 48% 13.0 mph WNW20.9 kmh WNW 25.0 mph40.2 kmh 30.42 in1030.1 mb 0.00 in0.0 mm 0.00 in0.0 mm 0.00 in0.0 mm
08:08 AM 24.6°F-4.1°C 6.1°F-14.4°C 45% 15.0 mph WNW24.1 kmh WNW 25.0 mph40.2 kmh 30.42 in1030.1 mb 0.00 in0.0 mm 0.00 in0.0 mm 0.00 in0.0 mm
08:09 AM 24.6°F-4.1°C 6.6°F-14.1°C 46% 18.0 mph WNW29.0 kmh WNW 25.0 mph40.2 kmh 30.42 in1030.1 mb 0.00 in0.0 mm 0.00 in0.0 mm 0.00 in0.0 mm
08:10 AM 24.6°F-4.1°C 6.1°F-14.4°C 45% 12.0 mph WNW19.3 kmh WNW 25.0 mph40.2 kmh 30.42 in1030.1 mb 0.00 in0.0 mm 0.00 in0.0 mm 0.00 in0.0 mm
08:11 AM 24.6°F-4.1°C 6.1°F-14.4°C 45% 15.0 mph WNW24.1 kmh WNW 25.0 mph40.2 kmh 30.42 in1030.1 mb 0.00 in0.0 mm 0.00 in0.0 mm 0.00 in0.0 mm
08:12 AM 24.6°F-4.1°C 6.1°F-14.4°C 45% 14.0 mph WNW22.5 kmh WNW 22.0 mph35.4 kmh 30.43 in1030.5 mb 0.00 in0.0 mm 0.00 in0.0 mm 0.00 in0.0 mm
08:13 AM 24.4°F-4.2°C 5.4°F-14.8°C 44% 20.0 mph NW32.2 kmh NW 22.0 mph35.4 kmh 30.43 in1030.5 mb 0.00 in0.0 mm 0.00 in0.0 mm 0.00 in0.0 mm
08:14 AM 24.6°F-4.1°C 6.1°F-14.4°C 45% 25.0 mph NNW40.2 kmh NNW 25.0 mph40.2 kmh 30.43 in1030.5 mb 0.00 in0.0 mm 0.00 in0.0 mm 0.00 in0.0 mm
08:15 AM 24.6°F-4.1°C 6.1°F-14.4°C 45% 19.0 mph NNW30.6 kmh NNW 25.0 mph40.2 kmh 30.43 in1030.5 mb 0.00 in0.0 mm 0.00 in0.0 mm 0.00 in0.0 mm
08:16 AM 24.6°F-4.1°C 6.1°F-14.4°C 45% 14.0 mph WNW22.5 kmh WNW 25.0 mph40.2 kmh 30.43 in1030.5 mb 0.00 in0.0 mm 0.00 in0.0 mm 0.00 in0.0 mm
08:17 AM 24.6°F-4.1°C 6.1°F-14.4°C 45% 13.0 mph WNW20.9 kmh WNW 25.0 mph40.2 kmh 30.43 in1030.5 mb 0.00 in0.0 mm 0.00 in0.0 mm 0.00 in0.0 mm
08:18 AM 24.6°F-4.1°C 7.6°F-13.6°C 48% 16.0 mph NW25.7 kmh NW 25.0 mph40.2 kmh 30.43 in1030.5 mb 0.00 in0.0 mm 0.00 in0.0 mm 0.00 in0.0 mm
08:19 AM 24.8°F-4.0°C 7.8°F-13.4°C 48% 11.0 mph NNW17.7 kmh NNW 25.0 mph40.2 kmh 30.43 in1030.5 mb 0.00 in0.0 mm 0.00 in0.0 mm 0.00 in0.0 mm
08:20 AM 24.8°F-4.0°C 8.3°F-13.2°C 49% 16.0 mph WNW25.7 kmh WNW 25.0 mph40.2 kmh 30.43 in1030.5 mb 0.00 in0.0 mm 0.00 in0.0 mm 0.00 in0.0 mm
08:21 AM 24.8°F-4.0°C 6.8°F-14.0°C 46% 21.0 mph WNW33.8 kmh WNW 25.0 mph40.2 kmh 30.43 in1030.5 mb 0.00 in0.0 mm 0.00 in0.0 mm 0.00 in0.0 mm
08:22 AM 24.8°F-4.0°C 6.3°F-14.3°C 45% 11.0 mph NW17.7 kmh NW 25.0 mph40.2 kmh 30.44 in1030.8 mb 0.00 in0.0 mm 0.00 in0.0 mm 0.00 in0.0 mm
08:23 AM 24.6°F-4.1°C 5.6°F-14.7°C 44% 11.0 mph NW17.7 kmh NW 25.0 mph40.2 kmh 30.44 in1030.8 mb 0.00 in0.0 mm 0.00 in0.0 mm 0.00 in0.0 mm
08:24 AM 24.8°F-4.0°C 6.3°F-14.3°C 45% 18.0 mph NW29.0 kmh NW 25.0 mph40.2 kmh 30.44 in1030.8 mb 0.00 in0.0 mm 0.00 in0.0 mm 0.00 in0.0 mm
08:25 AM 24.8°F-4.0°C 6.3°F-14.3°C 45% 14.0 mph WNW22.5 kmh WNW 21.0 mph33.8 kmh 30.43 in1030.5 mb 0.00 in0.0 mm 0.00 in0.0 mm 0.00 in0.0 mm
08:26 AM 24.8°F-4.0°C 6.8°F-14.0°C 46% 12.0 mph WNW19.3 kmh WNW 21.0 mph33.8 kmh 30.43 in1030.5 mb 0.00 in0.0 mm 0.00 in0.0 mm 0.00 in0.0 mm
08:27 AM 24.8°F-4.0°C 6.8°F-14.0°C 46% 21.0 mph NW33.8 kmh NW 21.0 mph33.8 kmh 30.43 in1030.5 mb 0.00 in0.0 mm 0.00 in0.0 mm 0.00 in0.0 mm
08:28 AM 24.8°F-4.0°C 6.3°F-14.3°C 45% 15.0 mph W24.1 kmh W 21.0 mph33.8 kmh 30.43 in1030.5 mb 0.00 in0.0 mm 0.00 in0.0 mm 0.00 in0.0 mm
08:29 AM 24.6°F-4.1°C 5.6°F-14.7°C 44% 14.0 mph NNW22.5 kmh NNW 21.0 mph33.8 kmh 30.43 in1030.5 mb 0.00 in0.0 mm 0.00 in0.0 mm 0.00 in0.0 mm
08:30 AM 24.6°F-4.1°C 6.1°F-14.4°C 45% 13.0 mph WNW20.9 kmh WNW 21.0 mph33.8 kmh 30.44 in1030.8 mb 0.00 in0.0 mm 0.00 in0.0 mm 0.00 in0.0 mm
08:31 AM 24.6°F-4.1°C 6.1°F-14.4°C 45% 10.0 mph NW16.1 kmh NW 21.0 mph33.8 kmh 30.44 in1030.8 mb 0.00 in0.0 mm 0.00 in0.0 mm 0.00 in0.0 mm
08:32 AM 24.8°F-4.0°C 6.8°F-14.0°C 46% 9.0 mph WNW14.5 kmh WNW 21.0 mph33.8 kmh 30.43 in1030.5 mb 0.00 in0.0 mm 0.00 in0.0 mm 0.00 in0.0 mm
08:33 AM 25.0°F-3.9°C 8.0°F-13.3°C 48% 13.0 mph WNW20.9 kmh WNW 21.0 mph33.8 kmh 30.43 in1030.5 mb 0.00 in0.0 mm 0.00 in0.0 mm 0.00 in0.0 mm
08:34 AM 25.0°F-3.9°C 8.4°F-13.1°C 49% 24.0 mph WNW38.6 kmh WNW 24.0 mph38.6 kmh 30.44 in1030.8 mb 0.00 in0.0 mm 0.00 in0.0 mm 0.00 in0.0 mm
08:35 AM 25.0°F-3.9°C 8.0°F-13.3°C 48% 17.0 mph WNW27.4 kmh WNW 24.0 mph38.6 kmh 30.44 in1030.8 mb 0.00 in0.0 mm 0.00 in0.0 mm 0.00 in0.0 mm
08:36 AM 25.1°F-3.8°C 8.1°F-13.3°C 48% 12.0 mph WNW19.3 kmh WNW 24.0 mph38.6 kmh 30.44 in1030.8 mb 0.00 in0.0 mm 0.00 in0.0 mm 0.00 in0.0 mm
08:37 AM 25.0°F-3.9°C 8.0°F-13.3°C 48% 19.0 mph NW30.6 kmh NW 24.0 mph38.6 kmh 30.44 in1030.8 mb 0.00 in0.0 mm 0.00 in0.0 mm 0.00 in0.0 mm
08:38 AM 25.0°F-3.9°C 7.0°F-13.9°C 46% 22.0 mph NNW35.4 kmh NNW 24.0 mph38.6 kmh 30.44 in1030.8 mb 0.00 in0.0 mm 0.00 in0.0 mm 0.00 in0.0 mm
08:39 AM 25.0°F-3.9°C 6.5°F-14.2°C 45% 15.0 mph NW24.1 kmh NW 24.0 mph38.6 kmh 30.44 in1030.8 mb 0.00 in0.0 mm 0.00 in0.0 mm 0.00 in0.0 mm
08:40 AM 25.2°F-3.8°C 8.6°F-13.0°C 49% 13.0 mph NNW20.9 kmh NNW 24.0 mph38.6 kmh 30.45 in1031.2 mb 0.00 in0.0 mm 0.00 in0.0 mm 0.00 in0.0 mm
08:41 AM 25.2°F-3.8°C 7.2°F-13.8°C 46% 15.0 mph NW24.1 kmh NW 24.0 mph38.6 kmh 30.45 in1031.2 mb 0.00 in0.0 mm 0.00 in0.0 mm 0.00 in0.0 mm
08:42 AM 25.2°F-3.8°C 7.2°F-13.8°C 46% 16.0 mph NW25.7 kmh NW 24.0 mph38.6 kmh 30.44 in1030.8 mb 0.00 in0.0 mm 0.00 in0.0 mm 0.00 in0.0 mm
08:43 AM 25.2°F-3.8°C 6.7°F-14.1°C 45% 15.0 mph NW24.1 kmh NW 24.0 mph38.6 kmh 30.44 in1030.8 mb 0.00 in0.0 mm 0.00 in0.0 mm 0.00 in0.0 mm
08:44 AM 25.4°F-3.7°C 7.4°F-13.7°C 46% 20.0 mph WNW32.2 kmh WNW 24.0 mph38.6 kmh 30.45 in1031.2 mb 0.00 in0.0 mm 0.00 in0.0 mm 0.00 in0.0 mm
08:45 AM 25.4°F-3.7°C 6.9°F-13.9°C 45% 15.0 mph NW24.1 kmh NW 25.0 mph40.2 kmh 30.45 in1031.2 mb 0.00 in0.0 mm 0.00 in0.0 mm 0.00 in0.0 mm
08:46 AM 25.4°F-3.7°C 6.9°F-13.9°C 45% 17.0 mph WNW27.4 kmh WNW 25.0 mph40.2 kmh 30.45 in1031.2 mb 0.00 in0.0 mm 0.00 in0.0 mm 0.00 in0.0 mm
08:47 AM 25.4°F-3.7°C 7.4°F-13.7°C 46% 13.0 mph NW20.9 kmh NW 25.0 mph40.2 kmh 30.45 in1031.2 mb 0.00 in0.0 mm 0.00 in0.0 mm 0.00 in0.0 mm
08:48 AM 25.4°F-3.7°C 6.9°F-13.9°C 45% 14.0 mph WNW22.5 kmh WNW 25.0 mph40.2 kmh 30.45 in1031.2 mb 0.00 in0.0 mm 0.00 in0.0 mm 0.00 in0.0 mm
08:49 AM 25.7°F-3.5°C 7.1°F-13.8°C 45% 17.0 mph NW27.4 kmh NW 25.0 mph40.2 kmh 30.45 in1031.2 mb 0.00 in0.0 mm 0.00 in0.0 mm 0.00 in0.0 mm
08:50 AM 25.7°F-3.5°C 7.6°F-13.6°C 46% 21.0 mph NW33.8 kmh NW 25.0 mph40.2 kmh 30.45 in1031.2 mb 0.00 in0.0 mm 0.00 in0.0 mm 0.00 in0.0 mm
08:51 AM 25.7°F-3.5°C 7.6°F-13.6°C 46% 18.0 mph NW29.0 kmh NW 25.0 mph40.2 kmh 30.45 in1031.2 mb 0.00 in0.0 mm 0.00 in0.0 mm 0.00 in0.0 mm
08:52 AM 25.7°F-3.5°C 7.1°F-13.8°C 45% 17.0 mph WNW27.4 kmh WNW 25.0 mph40.2 kmh 30.45 in1031.2 mb 0.00 in0.0 mm 0.00 in0.0 mm 0.00 in0.0 mm
08:53 AM 25.9°F-3.4°C 8.8°F-12.9°C 48% 22.0 mph NW35.4 kmh NW 25.0 mph40.2 kmh 30.45 in1031.2 mb 0.00 in0.0 mm 0.00 in0.0 mm 0.00 in0.0 mm
08:54 AM 25.9°F-3.4°C 8.8°F-12.9°C 48% 17.0 mph WNW27.4 kmh WNW 25.0 mph40.2 kmh 30.45 in1031.2 mb 0.00 in0.0 mm 0.00 in0.0 mm 0.00 in0.0 mm
08:55 AM 25.9°F-3.4°C 8.8°F-12.9°C 48% 16.0 mph NNW25.7 kmh NNW 24.0 mph38.6 kmh 30.45 in1031.2 mb 0.00 in0.0 mm 0.00 in0.0 mm 0.00 in0.0 mm
08:56 AM 25.9°F-3.4°C 8.8°F-12.9°C 48% 21.0 mph NW33.8 kmh NW 24.0 mph38.6 kmh 30.45 in1031.2 mb 0.00 in0.0 mm 0.00 in0.0 mm 0.00 in0.0 mm
08:57 AM 25.9°F-3.4°C 7.3°F-13.7°C 45% 16.0 mph WNW25.7 kmh WNW 24.0 mph38.6 kmh 30.45 in1031.2 mb 0.00 in0.0 mm 0.00 in0.0 mm 0.00 in0.0 mm
08:58 AM 25.9°F-3.4°C 7.8°F-13.4°C 46% 13.0 mph NW20.9 kmh NW 24.0 mph38.6 kmh 30.45 in1031.2 mb 0.00 in0.0 mm 0.00 in0.0 mm 0.00 in0.0 mm
08:59 AM 26.1°F-3.3°C 8.0°F-13.3°C 46% 15.0 mph WNW24.1 kmh WNW 24.0 mph38.6 kmh 30.45 in1031.2 mb 0.00 in0.0 mm 0.00 in0.0 mm 0.00 in0.0 mm
09:00 AM 26.1°F-3.3°C 8.0°F-13.3°C 46% 17.0 mph WNW27.4 kmh WNW 24.0 mph38.6 kmh 30.45 in1031.2 mb 0.00 in0.0 mm 0.00 in0.0 mm 0.00 in0.0 mm
09:01 AM 26.1°F-3.3°C 8.0°F-13.3°C 46% 24.0 mph WNW38.6 kmh WNW 24.0 mph38.6 kmh 30.45 in1031.2 mb 0.00 in0.0 mm 0.00 in0.0 mm 0.00 in0.0 mm
09:02 AM 26.1°F-3.3°C 7.5°F-13.6°C 45% 17.0 mph W27.4 kmh W 24.0 mph38.6 kmh 30.45 in1031.2 mb 0.00 in0.0 mm 0.00 in0.0 mm 0.00 in0.0 mm
09:03 AM 26.3°F-3.2°C 10.1°F-12.2°C 50% 25.0 mph W40.2 kmh W 25.0 mph40.2 kmh 30.45 in1031.2 mb 0.00 in0.0 mm 0.00 in0.0 mm 0.00 in0.0 mm
09:04 AM 26.3°F-3.2°C 9.6°F-12.4°C 49% 15.0 mph WNW24.1 kmh WNW 25.0 mph40.2 kmh 30.45 in1031.2 mb 0.00 in0.0 mm 0.00 in0.0 mm 0.00 in0.0 mm
09:05 AM 26.3°F-3.2°C 8.2°F-13.2°C 46% 18.0 mph NNW29.0 kmh NNW 25.0 mph40.2 kmh 30.45 in1031.2 mb 0.00 in0.0 mm 0.00 in0.0 mm 0.00 in0.0 mm
09:06 AM 26.3°F-3.2°C 7.7°F-13.5°C 45% 27.0 mph WNW43.5 kmh WNW 27.0 mph43.5 kmh 30.45 in1031.2 mb 0.00 in0.0 mm 0.00 in0.0 mm 0.00 in0.0 mm
09:07 AM 26.2°F-3.2°C 7.6°F-13.6°C 45% 22.0 mph NW35.4 kmh NW 27.0 mph43.5 kmh 30.45 in1031.2 mb 0.00 in0.0 mm 0.00 in0.0 mm 0.00 in0.0 mm
09:08 AM 26.2°F-3.2°C 7.6°F-13.6°C 45% 16.0 mph WNW25.7 kmh WNW 27.0 mph43.5 kmh 30.45 in1031.2 mb 0.00 in0.0 mm 0.00 in0.0 mm 0.00 in0.0 mm
09:09 AM 26.2°F-3.2°C 7.6°F-13.6°C 45% 16.0 mph 25.7 kmh 27.0 mph43.5 kmh 30.45 in1031.2 mb 0.00 in0.0 mm 0.00 in0.0 mm 0.00 in0.0 mm
09:10 AM 26.3°F-3.2°C 7.7°F-13.5°C 45% 16.0 mph NNW25.7 kmh NNW 27.0 mph43.5 kmh 30.45 in1031.2 mb 0.00 in0.0 mm 0.00 in0.0 mm 0.00 in0.0 mm
09:11 AM 26.3°F-3.2°C 7.7°F-13.5°C 45% 13.0 mph NW20.9 kmh NW 27.0 mph43.5 kmh 30.45 in1031.2 mb 0.00 in0.0 mm 0.00 in0.0 mm 0.00 in0.0 mm
09:12 AM 26.3°F-3.2°C 8.2°F-13.2°C 46% 15.0 mph NW24.1 kmh NW 27.0 mph43.5 kmh 30.45 in1031.2 mb 0.00 in0.0 mm 0.00 in0.0 mm 0.00 in0.0 mm
09:13 AM 26.3°F-3.2°C 8.2°F-13.2°C 46% 15.0 mph WNW24.1 kmh WNW 27.0 mph43.5 kmh 30.45 in1031.2 mb 0.00 in0.0 mm 0.00 in0.0 mm 0.00 in0.0 mm
09:14 AM 26.7°F-2.9°C 10.0°F-12.2°C 49% 18.0 mph WNW29.0 kmh WNW 27.0 mph43.5 kmh 30.45 in1031.2 mb 0.00 in0.0 mm 0.00 in0.0 mm 0.00 in0.0 mm
09:15 AM 26.7°F-2.9°C 10.5°F-11.9°C 50% 23.0 mph WNW37.0 kmh WNW 27.0 mph43.5 kmh 30.45 in1031.2 mb 0.00 in0.0 mm 0.00 in0.0 mm 0.00 in0.0 mm
09:16 AM 26.7°F-2.9°C 8.6°F-13.0°C 46% 25.0 mph WNW40.2 kmh WNW 28.0 mph45.1 kmh 30.46 in1031.5 mb 0.00 in0.0 mm 0.00 in0.0 mm 0.00 in0.0 mm
09:17 AM 26.6°F-3.0°C 8.5°F-13.1°C 46% 23.0 mph NNW37.0 kmh NNW 28.0 mph45.1 kmh 30.46 in1031.5 mb 0.00 in0.0 mm 0.00 in0.0 mm 0.00 in0.0 mm
09:18 AM 26.6°F-3.0°C 8.0°F-13.3°C 45% 15.0 mph WNW24.1 kmh WNW 28.0 mph45.1 kmh 30.46 in1031.5 mb 0.00 in0.0 mm 0.00 in0.0 mm 0.00 in0.0 mm
09:19 AM 26.6°F-3.0°C 8.0°F-13.3°C 45% 20.0 mph WNW32.2 kmh WNW 28.0 mph45.1 kmh 30.46 in1031.5 mb 0.00 in0.0 mm 0.00 in0.0 mm 0.00 in0.0 mm
09:20 AM 26.6°F-3.0°C 8.0°F-13.3°C 45% 21.0 mph NNW33.8 kmh NNW 28.0 mph45.1 kmh 30.46 in1031.5 mb 0.00 in0.0 mm 0.00 in0.0 mm 0.00 in0.0 mm
09:21 AM 26.6°F-3.0°C 8.0°F-13.3°C 45% 22.0 mph 35.4 kmh 28.0 mph45.1 kmh 30.46 in1031.5 mb 0.00 in0.0 mm 0.00 in0.0 mm 0.00 in0.0 mm
09:22 AM 26.6°F-3.0°C 8.0°F-13.3°C 45% 21.0 mph NW33.8 kmh NW 28.0 mph45.1 kmh 30.46 in1031.5 mb 0.00 in0.0 mm 0.00 in0.0 mm 0.00 in0.0 mm
09:23 AM 26.6°F-3.0°C 8.0°F-13.3°C 45% 17.0 mph WNW27.4 kmh WNW 28.0 mph45.1 kmh 30.46 in1031.5 mb 0.00 in0.0 mm 0.00 in0.0 mm 0.00 in0.0 mm
09:24 AM 26.6°F-3.0°C 8.5°F-13.1°C 46% 15.0 mph NW24.1 kmh NW 28.0 mph45.1 kmh 30.46 in1031.5 mb 0.00 in0.0 mm 0.00 in0.0 mm 0.00 in0.0 mm
09:25 AM 26.6°F-3.0°C 8.0°F-13.3°C 45% 23.0 mph WNW37.0 kmh WNW 28.0 mph45.1 kmh 30.46 in1031.5 mb 0.00 in0.0 mm 0.00 in0.0 mm 0.00 in0.0 mm
09:26 AM 26.6°F-3.0°C 8.0°F-13.3°C 45% 19.0 mph WNW30.6 kmh WNW 28.0 mph45.1 kmh 30.46 in1031.5 mb 0.00 in0.0 mm 0.00 in0.0 mm 0.00 in0.0 mm
09:27 AM 26.7°F-2.9°C 8.6°F-13.0°C 46% 16.0 mph WNW25.7 kmh WNW 26.0 mph41.8 kmh 30.46 in1031.5 mb 0.00 in0.0 mm 0.00 in0.0 mm 0.00 in0.0 mm
09:28 AM 26.7°F-2.9°C 8.6°F-13.0°C 46% 21.0 mph NW33.8 kmh NW 26.0 mph41.8 kmh 30.47 in1031.8 mb 0.00 in0.0 mm 0.00 in0.0 mm 0.00 in0.0 mm
09:29 AM 26.7°F-2.9°C 10.0°F-12.2°C 49% 18.0 mph W29.0 kmh W 26.0 mph41.8 kmh 30.47 in1031.8 mb 0.00 in0.0 mm 0.00 in0.0 mm 0.00 in0.0 mm
09:30 AM 26.7°F-2.9°C 9.5°F-12.5°C 48% 21.0 mph WNW33.8 kmh WNW 26.0 mph41.8 kmh 30.46 in1031.5 mb 0.00 in0.0 mm 0.00 in0.0 mm 0.00 in0.0 mm
09:31 AM 26.7°F-2.9°C 8.6°F-13.0°C 46% 16.0 mph WNW25.7 kmh WNW 26.0 mph41.8 kmh 30.46 in1031.5 mb 0.00 in0.0 mm 0.00 in0.0 mm 0.00 in0.0 mm
09:32 AM 27.1°F-2.7°C 10.4°F-12.0°C 49% 16.0 mph NNE25.7 kmh NNE 23.0 mph37.0 kmh 30.46 in1031.5 mb 0.00 in0.0 mm 0.00 in0.0 mm 0.00 in0.0 mm
09:33 AM 27.1°F-2.7°C 8.9°F-12.8°C 46% 20.0 mph NW32.2 kmh NW 23.0 mph37.0 kmh 30.46 in1031.5 mb 0.00 in0.0 mm 0.00 in0.0 mm 0.00 in0.0 mm
09:34 AM 27.0°F-2.8°C 8.3°F-13.2°C 45% 25.0 mph WNW40.2 kmh WNW 25.0 mph40.2 kmh 30.46 in1031.5 mb 0.00 in0.0 mm 0.00 in0.0 mm 0.00 in0.0 mm
09:35 AM 27.0°F-2.8°C 8.3°F-13.2°C 45% 20.0 mph NW32.2 kmh NW 25.0 mph40.2 kmh 30.46 in1031.5 mb 0.00 in0.0 mm 0.00 in0.0 mm 0.00 in0.0 mm
09:36 AM 27.0°F-2.8°C 8.3°F-13.2°C 45% 18.0 mph NW29.0 kmh NW 25.0 mph40.2 kmh 30.46 in1031.5 mb 0.00 in0.0 mm 0.00 in0.0 mm 0.00 in0.0 mm
09:37 AM 27.0°F-2.8°C 8.3°F-13.2°C 45% 12.0 mph NNE19.3 kmh NNE 25.0 mph40.2 kmh 30.45 in1031.2 mb 0.00 in0.0 mm 0.00 in0.0 mm 0.00 in0.0 mm
09:38 AM 27.1°F-2.7°C 8.9°F-12.8°C 46% 17.0 mph NW27.4 kmh NW 25.0 mph40.2 kmh 30.46 in1031.5 mb 0.00 in0.0 mm 0.00 in0.0 mm 0.00 in0.0 mm
09:39 AM 27.1°F-2.7°C 10.4°F-12.0°C 49% 13.0 mph WNW20.9 kmh WNW 25.0 mph40.2 kmh 30.46 in1031.5 mb 0.00 in0.0 mm 0.00 in0.0 mm 0.00 in0.0 mm
09:40 AM 27.3°F-2.6°C 10.6°F-11.9°C 49% 25.0 mph NW40.2 kmh NW 25.0 mph40.2 kmh 30.47 in1031.8 mb 0.00 in0.0 mm 0.00 in0.0 mm 0.00 in0.0 mm
09:41 AM 27.1°F-2.7°C 8.9°F-12.8°C 46% 22.0 mph W35.4 kmh W 27.0 mph43.5 kmh 30.47 in1031.8 mb 0.01 in0.3 mm 0.60 in15.2 mm 0.01 in0.3 mm
09:42 AM 27.0°F-2.8°C 9.8°F-12.3°C 48% 20.0 mph NNW32.2 kmh NNW 27.0 mph43.5 kmh 30.46 in1031.5 mb 0.01 in0.3 mm 0.00 in0.0 mm 0.01 in0.3 mm
09:43 AM 27.0°F-2.8°C 9.8°F-12.3°C 48% 18.0 mph WNW29.0 kmh WNW 27.0 mph43.5 kmh 30.46 in1031.5 mb 0.01 in0.3 mm 0.00 in0.0 mm 0.01 in0.3 mm
09:44 AM 27.0°F-2.8°C 8.3°F-13.2°C 45% 13.0 mph NNE20.9 kmh NNE 27.0 mph43.5 kmh 30.46 in1031.5 mb 0.01 in0.3 mm 0.00 in0.0 mm 0.01 in0.3 mm
09:45 AM 27.1°F-2.7°C 8.9°F-12.8°C 46% 13.0 mph WNW20.9 kmh WNW 27.0 mph43.5 kmh 30.46 in1031.5 mb 0.01 in0.3 mm 0.00 in0.0 mm 0.01 in0.3 mm
09:46 AM 27.1°F-2.7°C 8.9°F-12.8°C 46% 12.0 mph NNW19.3 kmh NNW 27.0 mph43.5 kmh 30.46 in1031.5 mb 0.01 in0.3 mm 0.00 in0.0 mm 0.01 in0.3 mm
09:47 AM 27.3°F-2.6°C 8.6°F-13.0°C 45% 15.0 mph NNW24.1 kmh NNW 27.0 mph43.5 kmh 30.46 in1031.5 mb 0.01 in0.3 mm 0.00 in0.0 mm 0.01 in0.3 mm
09:48 AM 27.3°F-2.6°C 8.6°F-13.0°C 45% 12.0 mph 19.3 kmh 27.0 mph43.5 kmh 30.46 in1031.5 mb 0.01 in0.3 mm 0.00 in0.0 mm 0.01 in0.3 mm
09:49 AM 27.3°F-2.6°C 9.1°F-12.7°C 46% 19.0 mph WNW30.6 kmh WNW 27.0 mph43.5 kmh 30.46 in1031.5 mb 0.01 in0.3 mm 0.00 in0.0 mm 0.01 in0.3 mm
09:50 AM 27.5°F-2.5°C 10.7°F-11.8°C 49% 16.0 mph NW25.7 kmh NW 27.0 mph43.5 kmh 30.46 in1031.5 mb 0.01 in0.3 mm 0.00 in0.0 mm 0.01 in0.3 mm
09:51 AM 27.5°F-2.5°C 10.7°F-11.8°C 49% 12.0 mph NNW19.3 kmh NNW 23.0 mph37.0 kmh 30.47 in1031.8 mb 0.01 in0.3 mm 0.00 in0.0 mm 0.01 in0.3 mm
09:52 AM 27.5°F-2.5°C 10.3°F-12.1°C 48% 19.0 mph NW30.6 kmh NW 23.0 mph37.0 kmh 30.46 in1031.5 mb 0.01 in0.3 mm 0.00 in0.0 mm 0.01 in0.3 mm
09:53 AM 27.5°F-2.5°C 8.8°F-12.9°C 45% 17.0 mph NNE27.4 kmh NNE 23.0 mph37.0 kmh 30.46 in1031.5 mb 0.01 in0.3 mm 0.00 in0.0 mm 0.01 in0.3 mm
09:54 AM 27.5°F-2.5°C 8.8°F-12.9°C 45% 14.0 mph NW22.5 kmh NW 23.0 mph37.0 kmh 30.47 in1031.8 mb 0.01 in0.3 mm 0.00 in0.0 mm 0.01 in0.3 mm
09:55 AM 27.6°F-2.4°C 10.4°F-12.0°C 48% 18.0 mph NW29.0 kmh NW 23.0 mph37.0 kmh 30.47 in1031.8 mb 0.01 in0.3 mm 0.00 in0.0 mm 0.01 in0.3 mm
09:56 AM 27.5°F-2.5°C 9.3°F-12.6°C 46% 22.0 mph WNW35.4 kmh WNW 23.0 mph37.0 kmh 30.46 in1031.5 mb 0.01 in0.3 mm 0.00 in0.0 mm 0.01 in0.3 mm
09:57 AM 27.3°F-2.6°C 8.6°F-13.0°C 45% 18.0 mph NNW29.0 kmh NNW 23.0 mph37.0 kmh 30.46 in1031.5 mb 0.01 in0.3 mm 0.00 in0.0 mm 0.01 in0.3 mm
09:58 AM 27.3°F-2.6°C 8.6°F-13.0°C 45% 13.0 mph NW20.9 kmh NW 23.0 mph37.0 kmh 30.46 in1031.5 mb 0.01 in0.3 mm 0.00 in0.0 mm 0.01 in0.3 mm
09:59 AM 27.5°F-2.5°C 9.3°F-12.6°C 46% 17.0 mph NNE27.4 kmh NNE 23.0 mph37.0 kmh 30.46 in1031.5 mb 0.01 in0.3 mm 0.00 in0.0 mm 0.01 in0.3 mm
10:00 AM 27.5°F-2.5°C 8.8°F-12.9°C 45% 15.0 mph NNW24.1 kmh NNW 23.0 mph37.0 kmh 30.47 in1031.8 mb 0.01 in0.3 mm 0.00 in0.0 mm 0.01 in0.3 mm
10:01 AM 27.5°F-2.5°C 8.8°F-12.9°C 45% 17.0 mph NNW27.4 kmh NNW 23.0 mph37.0 kmh 30.47 in1031.8 mb 0.01 in0.3 mm 0.00 in0.0 mm 0.01 in0.3 mm
10:02 AM 27.5°F-2.5°C 8.3°F-13.2°C 44% 16.0 mph WNW25.7 kmh WNW 23.0 mph37.0 kmh 30.47 in1031.8 mb 0.01 in0.3 mm 0.00 in0.0 mm 0.01 in0.3 mm
10:03 AM 27.5°F-2.5°C 8.3°F-13.2°C 44% 21.0 mph NW33.8 kmh NW 23.0 mph37.0 kmh 30.47 in1031.8 mb 0.01 in0.3 mm 0.00 in0.0 mm 0.01 in0.3 mm
10:04 AM 27.5°F-2.5°C 8.3°F-13.2°C 44% 16.0 mph NW25.7 kmh NW 24.0 mph38.6 kmh 30.48 in1032.2 mb 0.01 in0.3 mm 0.00 in0.0 mm 0.01 in0.3 mm
10:05 AM 27.5°F-2.5°C 8.3°F-13.2°C 44% 16.0 mph NW25.7 kmh NW 24.0 mph38.6 kmh 30.48 in1032.2 mb 0.01 in0.3 mm 0.00 in0.0 mm 0.01 in0.3 mm
10:06 AM 27.5°F-2.5°C 8.8°F-12.9°C 45% 19.0 mph NW30.6 kmh NW 24.0 mph38.6 kmh 30.47 in1031.8 mb 0.00 in0.0 mm 0.00 in0.0 mm 0.01 in0.3 mm
10:07 AM 27.5°F-2.5°C 10.3°F-12.1°C 48% 16.0 mph NNE25.7 kmh NNE 27.0 mph43.5 kmh 30.47 in1031.8 mb 0.01 in0.3 mm 0.60 in15.2 mm 0.02 in0.5 mm
10:08 AM 27.6°F-2.4°C 8.9°F-12.8°C 45% 18.0 mph WNW29.0 kmh WNW 27.0 mph43.5 kmh 30.47 in1031.8 mb 0.01 in0.3 mm 0.00 in0.0 mm 0.02 in0.5 mm
10:09 AM 27.6°F-2.4°C 9.4°F-12.6°C 46% 13.0 mph NNW20.9 kmh NNW 27.0 mph43.5 kmh 30.47 in1031.8 mb 0.01 in0.3 mm 0.00 in0.0 mm 0.02 in0.5 mm
10:10 AM 27.6°F-2.4°C 8.9°F-12.8°C 45% 20.0 mph NW32.2 kmh NW 27.0 mph43.5 kmh 30.47 in1031.8 mb 0.01 in0.3 mm 0.00 in0.0 mm 0.02 in0.5 mm
10:11 AM 27.6°F-2.4°C 8.9°F-12.8°C 45% 9.0 mph NW14.5 kmh NW 27.0 mph43.5 kmh 30.47 in1031.8 mb 0.01 in0.3 mm 0.00 in0.0 mm 0.02 in0.5 mm
10:12 AM 27.8°F-2.3°C 9.1°F-12.7°C 45% 19.0 mph NW30.6 kmh NW 27.0 mph43.5 kmh 30.47 in1031.8 mb 0.01 in0.3 mm 0.00 in0.0 mm 0.02 in0.5 mm
10:13 AM 27.8°F-2.3°C 8.0°F-13.3°C 43% 10.0 mph W16.1 kmh W 27.0 mph43.5 kmh 30.47 in1031.8 mb 0.01 in0.3 mm 0.00 in0.0 mm 0.02 in0.5 mm
10:14 AM 28.2°F-2.1°C 9.9°F-12.3°C 46% 18.0 mph NW29.0 kmh NW 27.0 mph43.5 kmh 30.47 in1031.8 mb 0.01 in0.3 mm 0.00 in0.0 mm 0.02 in0.5 mm
10:15 AM 28.2°F-2.1°C 9.4°F-12.6°C 45% 20.0 mph WNW32.2 kmh WNW 27.0 mph43.5 kmh 30.47 in1031.8 mb 0.01 in0.3 mm 0.00 in0.0 mm 0.02 in0.5 mm
10:16 AM 27.9°F-2.3°C 9.2°F-12.7°C 45% 21.0 mph W33.8 kmh W 27.0 mph43.5 kmh 30.47 in1031.8 mb 0.01 in0.3 mm 0.00 in0.0 mm 0.02 in0.5 mm
10:17 AM 27.9°F-2.3°C 9.2°F-12.7°C 45% 24.0 mph NW38.6 kmh NW 26.0 mph41.8 kmh 30.47 in1031.8 mb 0.01 in0.3 mm 0.00 in0.0 mm 0.02 in0.5 mm
10:18 AM 27.9°F-2.3°C 9.2°F-12.7°C 45% 18.0 mph WNW29.0 kmh WNW 26.0 mph41.8 kmh 30.47 in1031.8 mb 0.01 in0.3 mm 0.00 in0.0 mm 0.02 in0.5 mm
10:19 AM 27.9°F-2.3°C 9.2°F-12.7°C 45% 21.0 mph NW33.8 kmh NW 26.0 mph41.8 kmh 30.47 in1031.8 mb 0.01 in0.3 mm 0.00 in0.0 mm 0.02 in0.5 mm
10:20 AM 27.8°F-2.3°C 9.1°F-12.7°C 45% 19.0 mph NW30.6 kmh NW 28.0 mph45.1 kmh 30.47 in1031.8 mb 0.01 in0.3 mm 0.00 in0.0 mm 0.02 in0.5 mm
10:21 AM 27.8°F-2.3°C 9.1°F-12.7°C 45% 18.0 mph NNW29.0 kmh NNW 28.0 mph45.1 kmh 30.47 in1031.8 mb 0.01 in0.3 mm 0.00 in0.0 mm 0.02 in0.5 mm
10:22 AM 27.9°F-2.3°C 9.2°F-12.7°C 45% 16.0 mph 25.7 kmh 28.0 mph45.1 kmh 30.47 in1031.8 mb 0.01 in0.3 mm 0.00 in0.0 mm 0.02 in0.5 mm
10:23 AM 27.9°F-2.3°C 8.6°F-13.0°C 44% 19.0 mph NW30.6 kmh NW 28.0 mph45.1 kmh 30.47 in1031.8 mb 0.01 in0.3 mm 0.00 in0.0 mm 0.02 in0.5 mm
10:24 AM 27.9°F-2.3°C 8.6°F-13.0°C 44% 17.0 mph NW27.4 kmh NW 28.0 mph45.1 kmh 30.47 in1031.8 mb 0.01 in0.3 mm 0.00 in0.0 mm 0.02 in0.5 mm
10:25 AM 27.9°F-2.3°C 8.6°F-13.0°C 44% 19.0 mph WNW30.6 kmh WNW 28.0 mph45.1 kmh 30.47 in1031.8 mb 0.01 in0.3 mm 0.00 in0.0 mm 0.02 in0.5 mm
10:26 AM 27.8°F-2.3°C 9.6°F-12.4°C 46% 16.0 mph WNW25.7 kmh WNW 28.0 mph45.1 kmh 30.48 in1032.2 mb 0.01 in0.3 mm 0.00 in0.0 mm 0.02 in0.5 mm
10:27 AM 27.8°F-2.3°C 10.5°F-11.9°C 48% 16.0 mph WNW25.7 kmh WNW 28.0 mph45.1 kmh 30.48 in1032.2 mb 0.01 in0.3 mm 0.00 in0.0 mm 0.02 in0.5 mm
10:28 AM 27.8°F-2.3°C 9.6°F-12.4°C 46% 23.0 mph NW37.0 kmh NW 28.0 mph45.1 kmh 30.47 in1031.8 mb 0.01 in0.3 mm 0.00 in0.0 mm 0.02 in0.5 mm
10:29 AM 27.9°F-2.3°C 9.2°F-12.7°C 45% 22.0 mph WNW35.4 kmh WNW 28.0 mph45.1 kmh 30.47 in1031.8 mb 0.01 in0.3 mm 0.00 in0.0 mm 0.02 in0.5 mm
10:30 AM 28.2°F-2.1°C 9.4°F-12.6°C 45% 11.0 mph NW17.7 kmh NW 23.0 mph37.0 kmh 30.47 in1031.8 mb 0.01 in0.3 mm 0.00 in0.0 mm 0.02 in0.5 mm
10:31 AM 28.6°F-1.9°C 10.3°F-12.1°C 46% 12.0 mph NW19.3 kmh NW 23.0 mph37.0 kmh 30.47 in1031.8 mb 0.01 in0.3 mm 0.00 in0.0 mm 0.02 in0.5 mm
10:32 AM 28.6°F-1.9°C 9.8°F-12.3°C 45% 10.0 mph NW16.1 kmh NW 23.0 mph37.0 kmh 30.48 in1032.2 mb 0.01 in0.3 mm 0.00 in0.0 mm 0.02 in0.5 mm
10:33 AM 28.6°F-1.9°C 9.8°F-12.3°C 45% 9.0 mph WNW14.5 kmh WNW 23.0 mph37.0 kmh 30.48 in1032.2 mb 0.01 in0.3 mm 0.00 in0.0 mm 0.02 in0.5 mm
10:34 AM 28.6°F-1.9°C 10.3°F-12.1°C 46% 15.0 mph NE24.1 kmh NE 23.0 mph37.0 kmh 30.48 in1032.2 mb 0.01 in0.3 mm 0.00 in0.0 mm 0.02 in0.5 mm
10:35 AM 28.7°F-1.8°C 9.9°F-12.3°C 45% 11.0 mph NW17.7 kmh NW 23.0 mph37.0 kmh 30.48 in1032.2 mb 0.01 in0.3 mm 0.00 in0.0 mm 0.02 in0.5 mm
10:36 AM 28.8°F-1.8°C 11.5°F-11.4°C 48% 18.0 mph NNW29.0 kmh NNW 23.0 mph37.0 kmh 30.48 in1032.2 mb 0.01 in0.3 mm 0.00 in0.0 mm 0.02 in0.5 mm
10:37 AM 29.1°F-1.6°C 10.3°F-12.1°C 45% 8.0 mph NW12.9 kmh NW 23.0 mph37.0 kmh 30.48 in1032.2 mb 0.01 in0.3 mm 0.00 in0.0 mm 0.02 in0.5 mm
10:38 AM 29.1°F-1.6°C 10.3°F-12.1°C 45% 13.0 mph NNW20.9 kmh NNW 23.0 mph37.0 kmh 30.48 in1032.2 mb 0.01 in0.3 mm 0.00 in0.0 mm 0.02 in0.5 mm
10:39 AM 29.1°F-1.6°C 10.3°F-12.1°C 45% 9.0 mph NW14.5 kmh NW 22.0 mph35.4 kmh 30.48 in1032.2 mb 0.01 in0.3 mm 0.00 in0.0 mm 0.02 in0.5 mm
10:40 AM 29.2°F-1.6°C 10.3°F-12.1°C 45% 19.0 mph WNW30.6 kmh WNW 19.0 mph30.6 kmh 30.48 in1032.2 mb 0.01 in0.3 mm 0.00 in0.0 mm 0.02 in0.5 mm
10:41 AM 29.1°F-1.6°C 9.7°F-12.4°C 44% 20.0 mph WNW32.2 kmh WNW 22.0 mph35.4 kmh 30.48 in1032.2 mb 0.01 in0.3 mm 0.00 in0.0 mm 0.02 in0.5 mm
10:42 AM 28.8°F-1.8°C 9.5°F-12.5°C 44% 20.0 mph WNW32.2 kmh WNW 22.0 mph35.4 kmh 30.48 in1032.2 mb 0.01 in0.3 mm 0.00 in0.0 mm 0.02 in0.5 mm
10:43 AM 28.7°F-1.8°C 9.9°F-12.3°C 45% 16.0 mph NNW25.7 kmh NNW 22.0 mph35.4 kmh 30.49 in1032.5 mb 0.01 in0.3 mm 0.00 in0.0 mm 0.02 in0.5 mm
10:44 AM 28.7°F-1.8°C 9.9°F-12.3°C 45% 13.0 mph NNW20.9 kmh NNW 22.0 mph35.4 kmh 30.48 in1032.2 mb 0.01 in0.3 mm 0.00 in0.0 mm 0.02 in0.5 mm
10:45 AM 28.7°F-1.8°C 9.9°F-12.3°C 45% 18.0 mph NNW29.0 kmh NNW 22.0 mph35.4 kmh 30.48 in1032.2 mb 0.01 in0.3 mm 0.00 in0.0 mm 0.02 in0.5 mm
10:46 AM 28.7°F-1.8°C 9.9°F-12.3°C 45% 16.0 mph NW25.7 kmh NW 22.0 mph35.4 kmh 30.48 in1032.2 mb 0.01 in0.3 mm 0.00 in0.0 mm 0.02 in0.5 mm
10:47 AM 28.8°F-1.8°C 10.0°F-12.2°C 45% 15.0 mph NNW24.1 kmh NNW 22.0 mph35.4 kmh 30.48 in1032.2 mb 0.01 in0.3 mm 0.00 in0.0 mm 0.02 in0.5 mm
10:48 AM 28.8°F-1.8°C 9.5°F-12.5°C 44% 20.0 mph ENE32.2 kmh ENE 22.0 mph35.4 kmh 30.48 in1032.2 mb 0.01 in0.3 mm 0.00 in0.0 mm 0.02 in0.5 mm
10:49 AM 29.1°F-1.6°C 9.7°F-12.4°C 44% 21.0 mph 33.8 kmh 22.0 mph35.4 kmh 30.48 in1032.2 mb 0.01 in0.3 mm 0.00 in0.0 mm 0.02 in0.5 mm
10:50 AM 29.1°F-1.6°C 9.7°F-12.4°C 44% 10.0 mph NW16.1 kmh NW 22.0 mph35.4 kmh 30.48 in1032.2 mb 0.01 in0.3 mm 0.00 in0.0 mm 0.02 in0.5 mm
10:51 AM 29.1°F-1.6°C 10.3°F-12.1°C 45% 19.0 mph NNW30.6 kmh NNW 22.0 mph35.4 kmh 30.48 in1032.2 mb 0.01 in0.3 mm 0.00 in0.0 mm 0.02 in0.5 mm
10:52 AM 29.1°F-1.6°C 10.3°F-12.1°C 45% 16.0 mph WNW25.7 kmh WNW 22.0 mph35.4 kmh 30.48 in1032.2 mb 0.01 in0.3 mm 0.00 in0.0 mm 0.02 in0.5 mm
10:53 AM 29.1°F-1.6°C 10.3°F-12.1°C 45% 18.0 mph WNW29.0 kmh WNW 22.0 mph35.4 kmh 30.48 in1032.2 mb 0.01 in0.3 mm 0.00 in0.0 mm 0.02 in0.5 mm
10:54 AM 29.1°F-1.6°C 10.3°F-12.1°C 45% 21.0 mph NW33.8 kmh NW 21.0 mph33.8 kmh 30.49 in1032.5 mb 0.01 in0.3 mm 0.00 in0.0 mm 0.02 in0.5 mm
10:55 AM 28.8°F-1.8°C 10.0°F-12.2°C 45% 23.0 mph NW37.0 kmh NW 23.0 mph37.0 kmh 30.49 in1032.5 mb 0.01 in0.3 mm 0.00 in0.0 mm 0.02 in0.5 mm
10:56 AM 28.8°F-1.8°C 10.0°F-12.2°C 45% 23.0 mph NW37.0 kmh NW 25.0 mph40.2 kmh 30.48 in1032.2 mb 0.01 in0.3 mm 0.00 in0.0 mm 0.02 in0.5 mm
10:57 AM 28.8°F-1.8°C 10.0°F-12.2°C 45% 16.0 mph W25.7 kmh W 25.0 mph40.2 kmh 30.49 in1032.5 mb 0.01 in0.3 mm 0.00 in0.0 mm 0.02 in0.5 mm
10:58 AM 28.8°F-1.8°C 10.0°F-12.2°C 45% 16.0 mph NW25.7 kmh NW 25.0 mph40.2 kmh 30.48 in1032.2 mb 0.01 in0.3 mm 0.00 in0.0 mm 0.02 in0.5 mm
10:59 AM 29.1°F-1.6°C 10.3°F-12.1°C 45% 13.0 mph NNE20.9 kmh NNE 25.0 mph40.2 kmh 30.48 in1032.2 mb 0.01 in0.3 mm 0.00 in0.0 mm 0.02 in0.5 mm
11:00 AM 29.1°F-1.6°C 7.6°F-13.6°C 40% 20.0 mph NW32.2 kmh NW 25.0 mph40.2 kmh 30.48 in1032.2 mb 0.01 in0.3 mm 0.00 in0.0 mm 0.02 in0.5 mm
11:01 AM 29.1°F-1.6°C 10.3°F-12.1°C 45% 16.0 mph WNW25.7 kmh WNW 25.0 mph40.2 kmh 30.48 in1032.2 mb 0.01 in0.3 mm 0.00 in0.0 mm 0.02 in0.5 mm
11:02 AM 29.2°F-1.6°C 10.9°F-11.7°C 46% 16.0 mph NW25.7 kmh NW 25.0 mph40.2 kmh 30.49 in1032.5 mb 0.01 in0.3 mm 0.00 in0.0 mm 0.02 in0.5 mm
11:03 AM 29.1°F-1.6°C 9.7°F-12.4°C 44% 17.0 mph NW27.4 kmh NW 25.0 mph40.2 kmh 30.49 in1032.5 mb 0.01 in0.3 mm 0.00 in0.0 mm 0.02 in0.5 mm
11:04 AM 29.1°F-1.6°C 9.2°F-12.7°C 43% 21.0 mph 33.8 kmh 25.0 mph40.2 kmh 30.48 in1032.2 mb 0.01 in0.3 mm 0.00 in0.0 mm 0.02 in0.5 mm
11:05 AM 29.1°F-1.6°C 9.2°F-12.7°C 43% 16.0 mph NW25.7 kmh NW 25.0 mph40.2 kmh 30.48 in1032.2 mb 0.01 in0.3 mm 0.00 in0.0 mm 0.02 in0.5 mm
11:06 AM 29.2°F-1.6°C 10.3°F-12.1°C 45% 23.0 mph NW37.0 kmh NW 24.0 mph38.6 kmh 30.48 in1032.2 mb 0.00 in0.0 mm 0.00 in0.0 mm 0.02 in0.5 mm
11:07 AM 29.2°F-1.6°C 9.8°F-12.3°C 44% 26.0 mph WNW41.8 kmh WNW 26.0 mph41.8 kmh 30.48 in1032.2 mb 0.00 in0.0 mm 0.00 in0.0 mm 0.02 in0.5 mm
11:08 AM 28.8°F-1.8°C 9.5°F-12.5°C 44% 20.0 mph NNW32.2 kmh NNW 26.0 mph41.8 kmh 30.49 in1032.5 mb 0.00 in0.0 mm 0.00 in0.0 mm 0.02 in0.5 mm
11:09 AM 28.8°F-1.8°C 10.0°F-12.2°C 45% 19.0 mph 30.6 kmh 26.0 mph41.8 kmh 30.49 in1032.5 mb 0.00 in0.0 mm 0.00 in0.0 mm 0.02 in0.5 mm
11:10 AM 29.1°F-1.6°C 10.3°F-12.1°C 45% 21.0 mph WNW33.8 kmh WNW 26.0 mph41.8 kmh 30.49 in1032.5 mb 0.00 in0.0 mm 0.00 in0.0 mm 0.02 in0.5 mm
11:11 AM 29.1°F-1.6°C 9.7°F-12.4°C 44% 15.0 mph WNW24.1 kmh WNW 26.0 mph41.8 kmh 30.49 in1032.5 mb 0.00 in0.0 mm 0.00 in0.0 mm 0.02 in0.5 mm
11:12 AM 29.1°F-1.6°C 9.7°F-12.4°C 44% 22.0 mph NW35.4 kmh NW 26.0 mph41.8 kmh 30.48 in1032.2 mb 0.00 in0.0 mm 0.00 in0.0 mm 0.02 in0.5 mm
11:13 AM 29.1°F-1.6°C 10.3°F-12.1°C 45% 16.0 mph WNW25.7 kmh WNW 26.0 mph41.8 kmh 30.48 in1032.2 mb 0.00 in0.0 mm 0.00 in0.0 mm 0.02 in0.5 mm
11:14 AM 29.2°F-1.6°C 10.3°F-12.1°C 45% 13.0 mph NNW20.9 kmh NNW 26.0 mph41.8 kmh 30.48 in1032.2 mb 0.00 in0.0 mm 0.00 in0.0 mm 0.02 in0.5 mm
11:15 AM 29.6°F-1.3°C 11.2°F-11.6°C 46% 15.0 mph NW24.1 kmh NW 26.0 mph41.8 kmh 30.49 in1032.5 mb 0.00 in0.0 mm 0.00 in0.0 mm 0.02 in0.5 mm
11:16 AM 29.6°F-1.3°C 10.7°F-11.8°C 45% 14.0 mph NNE22.5 kmh NNE 26.0 mph41.8 kmh 30.48 in1032.2 mb 0.00 in0.0 mm 0.00 in0.0 mm 0.02 in0.5 mm
11:17 AM 29.6°F-1.3°C 10.2°F-12.1°C 44% 11.0 mph WNW17.7 kmh WNW 24.0 mph38.6 kmh 30.48 in1032.2 mb 0.00 in0.0 mm 0.00 in0.0 mm 0.02 in0.5 mm
11:18 AM 29.6°F-1.3°C 10.7°F-11.8°C 45% 16.0 mph NNW25.7 kmh NNW 24.0 mph38.6 kmh 30.49 in1032.5 mb 0.00 in0.0 mm 0.00 in0.0 mm 0.02 in0.5 mm
11:19 AM 29.6°F-1.3°C 10.7°F-11.8°C 45% 11.0 mph NW17.7 kmh NW 22.0 mph35.4 kmh 30.49 in1032.5 mb 0.00 in0.0 mm 0.00 in0.0 mm 0.02 in0.5 mm
11:20 AM 29.8°F-1.2°C 12.4°F-10.9°C 48% 10.0 mph NNW16.1 kmh NNW 22.0 mph35.4 kmh 30.48 in1032.2 mb 0.00 in0.0 mm 0.00 in0.0 mm 0.02 in0.5 mm
11:21 AM 30.0°F-1.1°C 11.6°F-11.3°C 46% 15.0 mph W24.1 kmh W 22.0 mph35.4 kmh 30.49 in1032.5 mb 0.00 in0.0 mm 0.00 in0.0 mm 0.02 in0.5 mm
11:22 AM 30.0°F-1.1°C 11.1°F-11.6°C 45% 13.0 mph W20.9 kmh W 22.0 mph35.4 kmh 30.49 in1032.5 mb 0.00 in0.0 mm 0.00 in0.0 mm 0.02 in0.5 mm
11:23 AM 30.0°F-1.1°C 11.1°F-11.6°C 45% 13.0 mph WNW20.9 kmh WNW 17.0 mph27.4 kmh 30.49 in1032.5 mb 0.00 in0.0 mm 0.00 in0.0 mm 0.02 in0.5 mm
11:24 AM 30.0°F-1.1°C 10.6°F-11.9°C 44% 7.0 mph NW11.3 kmh NW 17.0 mph27.4 kmh 30.49 in1032.5 mb 0.00 in0.0 mm 0.00 in0.0 mm 0.02 in0.5 mm
11:25 AM 30.1°F-1.1°C 11.7°F-11.3°C 46% 13.0 mph NW20.9 kmh NW 17.0 mph27.4 kmh 30.49 in1032.5 mb 0.00 in0.0 mm 0.00 in0.0 mm 0.02 in0.5 mm
11:26 AM 30.1°F-1.1°C 11.2°F-11.6°C 45% 12.0 mph WNW19.3 kmh WNW 17.0 mph27.4 kmh 30.49 in1032.5 mb 0.00 in0.0 mm 0.00 in0.0 mm 0.02 in0.5 mm
11:27 AM 30.1°F-1.1°C 11.2°F-11.6°C 45% 12.0 mph NW19.3 kmh NW 17.0 mph27.4 kmh 30.49 in1032.5 mb 0.00 in0.0 mm 0.00 in0.0 mm 0.02 in0.5 mm
11:28 AM 30.1°F-1.1°C 10.7°F-11.8°C 44% 11.0 mph W17.7 kmh W 15.0 mph24.1 kmh 30.49 in1032.5 mb 0.00 in0.0 mm 0.00 in0.0 mm 0.02 in0.5 mm
11:29 AM 30.1°F-1.1°C 9.0°F-12.8°C 41% 13.0 mph W20.9 kmh W 17.0 mph27.4 kmh 30.49 in1032.5 mb 0.00 in0.0 mm 0.00 in0.0 mm 0.02 in0.5 mm
11:30 AM 30.1°F-1.1°C 10.7°F-11.8°C 44% 17.0 mph NW27.4 kmh NW 17.0 mph27.4 kmh 30.49 in1032.5 mb 0.00 in0.0 mm 0.00 in0.0 mm 0.02 in0.5 mm
11:31 AM 30.0°F-1.1°C 10.6°F-11.9°C 44% 19.0 mph WNW30.6 kmh WNW 19.0 mph30.6 kmh 30.49 in1032.5 mb 0.00 in0.0 mm 0.00 in0.0 mm 0.02 in0.5 mm
11:32 AM 29.6°F-1.3°C 9.7°F-12.4°C 43% 18.0 mph WNW29.0 kmh WNW 19.0 mph30.6 kmh 30.49 in1032.5 mb 0.00 in0.0 mm 0.00 in0.0 mm 0.02 in0.5 mm
11:33 AM 29.6°F-1.3°C 10.7°F-11.8°C 45% 16.0 mph W25.7 kmh W 19.0 mph30.6 kmh 30.49 in1032.5 mb 0.00 in0.0 mm 0.00 in0.0 mm 0.02 in0.5 mm
11:34 AM 29.6°F-1.3°C 10.7°F-11.8°C 45% 20.0 mph WNW32.2 kmh WNW 20.0 mph32.2 kmh 30.49 in1032.5 mb 0.00 in0.0 mm 0.00 in0.0 mm 0.02 in0.5 mm
11:35 AM 29.8°F-1.2°C 10.9°F-11.7°C 45% 16.0 mph WNW25.7 kmh WNW 21.0 mph33.8 kmh 30.49 in1032.5 mb 0.00 in0.0 mm 0.00 in0.0 mm 0.02 in0.5 mm
11:36 AM 29.8°F-1.2°C 10.4°F-12.0°C 44% 19.0 mph NW30.6 kmh NW 22.0 mph35.4 kmh 30.49 in1032.5 mb 0.00 in0.0 mm 0.00 in0.0 mm 0.02 in0.5 mm
11:37 AM 29.8°F-1.2°C 9.8°F-12.3°C 43% 17.0 mph NW27.4 kmh NW 22.0 mph35.4 kmh 30.49 in1032.5 mb 0.00 in0.0 mm 0.00 in0.0 mm 0.02 in0.5 mm
11:38 AM 29.8°F-1.2°C 9.8°F-12.3°C 43% 20.0 mph W32.2 kmh W 22.0 mph35.4 kmh 30.49 in1032.5 mb 0.00 in0.0 mm 0.00 in0.0 mm 0.02 in0.5 mm
11:39 AM 30.0°F-1.1°C 10.6°F-11.9°C 44% 16.0 mph WNW25.7 kmh WNW 22.0 mph35.4 kmh 30.49 in1032.5 mb 0.00 in0.0 mm 0.00 in0.0 mm 0.02 in0.5 mm
11:40 AM 30.0°F-1.1°C 10.0°F-12.2°C 43% 17.0 mph W27.4 kmh W 22.0 mph35.4 kmh 30.49 in1032.5 mb 0.00 in0.0 mm 0.00 in0.0 mm 0.02 in0.5 mm
11:41 AM 30.0°F-1.1°C 11.1°F-11.6°C 45% 17.0 mph WNW27.4 kmh WNW 22.0 mph35.4 kmh 30.49 in1032.5 mb 0.00 in0.0 mm 0.00 in0.0 mm 0.02 in0.5 mm
11:42 AM 30.1°F-1.1°C 11.2°F-11.6°C 45% 15.0 mph NNW24.1 kmh NNW 22.0 mph35.4 kmh 30.49 in1032.5 mb 0.00 in0.0 mm 0.00 in0.0 mm 0.02 in0.5 mm
11:43 AM 30.3°F-0.9°C 10.3°F-12.1°C 43% 18.0 mph WNW29.0 kmh WNW 22.0 mph35.4 kmh 30.49 in1032.5 mb 0.00 in0.0 mm 0.00 in0.0 mm 0.02 in0.5 mm
11:44 AM 30.3°F-0.9°C 10.8°F-11.8°C 44% 20.0 mph NW32.2 kmh NW 22.0 mph35.4 kmh 30.49 in1032.5 mb 0.00 in0.0 mm 0.00 in0.0 mm 0.02 in0.5 mm
11:45 AM 30.3°F-0.9°C 10.8°F-11.8°C 44% 12.0 mph NW19.3 kmh NW 22.0 mph35.4 kmh 30.49 in1032.5 mb 0.00 in0.0 mm 0.00 in0.0 mm 0.02 in0.5 mm
11:46 AM 30.5°F-0.8°C 10.5°F-11.9°C 43% 20.0 mph NE32.2 kmh NE 22.0 mph35.4 kmh 30.49 in1032.5 mb 0.00 in0.0 mm 0.00 in0.0 mm 0.02 in0.5 mm
11:47 AM 30.3°F-0.9°C 9.2°F-12.7°C 41% 20.0 mph WNW32.2 kmh WNW 22.0 mph35.4 kmh 30.49 in1032.5 mb 0.00 in0.0 mm 0.00 in0.0 mm 0.02 in0.5 mm
11:48 AM 30.3°F-0.9°C 10.8°F-11.8°C 44% 17.0 mph NW27.4 kmh NW 22.0 mph35.4 kmh 30.49 in1032.5 mb 0.00 in0.0 mm 0.00 in0.0 mm 0.02 in0.5 mm
11:49 AM 30.3°F-0.9°C 11.4°F-11.4°C 45% 11.0 mph NW17.7 kmh NW 22.0 mph35.4 kmh 30.49 in1032.5 mb 0.00 in0.0 mm 0.00 in0.0 mm 0.02 in0.5 mm
11:50 AM 30.5°F-0.8°C 11.5°F-11.4°C 45% 9.0 mph NNW14.5 kmh NNW 22.0 mph35.4 kmh 30.48 in1032.2 mb 0.00 in0.0 mm 0.00 in0.0 mm 0.02 in0.5 mm
11:51 AM 30.7°F-0.7°C 11.7°F-11.3°C 45% 12.0 mph 19.3 kmh 22.0 mph35.4 kmh 30.48 in1032.2 mb 0.00 in0.0 mm 0.00 in0.0 mm 0.02 in0.5 mm
11:52 AM 30.7°F-0.7°C 10.7°F-11.8°C 43% 11.0 mph 17.7 kmh 22.0 mph35.4 kmh 30.48 in1032.2 mb 0.00 in0.0 mm 0.00 in0.0 mm 0.02 in0.5 mm
11:53 AM 30.7°F-0.7°C 9.6°F-12.4°C 41% 20.0 mph NNW32.2 kmh NNW 22.0 mph35.4 kmh 30.48 in1032.2 mb 0.00 in0.0 mm 0.00 in0.0 mm 0.02 in0.5 mm
11:54 AM 30.5°F-0.8°C 9.4°F-12.6°C 41% 18.0 mph NW29.0 kmh NW 22.0 mph35.4 kmh 30.48 in1032.2 mb 0.00 in0.0 mm 0.00 in0.0 mm 0.02 in0.5 mm
11:55 AM 30.3°F-0.9°C 10.8°F-11.8°C 44% 19.0 mph NW30.6 kmh NW 22.0 mph35.4 kmh 30.48 in1032.2 mb 0.00 in0.0 mm 0.00 in0.0 mm 0.02 in0.5 mm
11:56 AM 30.3°F-0.9°C 10.3°F-12.1°C 43% 20.0 mph WNW32.2 kmh WNW 24.0 mph38.6 kmh 30.49 in1032.5 mb 0.00 in0.0 mm 0.00 in0.0 mm 0.02 in0.5 mm
11:57 AM 30.3°F-0.9°C 10.3°F-12.1°C 43% 19.0 mph NW30.6 kmh NW 24.0 mph38.6 kmh 30.49 in1032.5 mb 0.00 in0.0 mm 0.00 in0.0 mm 0.02 in0.5 mm
11:58 AM 30.3°F-0.9°C 10.3°F-12.1°C 43% 21.0 mph WNW33.8 kmh WNW 24.0 mph38.6 kmh 30.49 in1032.5 mb 0.00 in0.0 mm 0.00 in0.0 mm 0.02 in0.5 mm
11:59 AM 30.3°F-0.9°C 10.8°F-11.8°C 44% 20.0 mph NW32.2 kmh NW 24.0 mph38.6 kmh 30.49 in1032.5 mb 0.00 in0.0 mm 0.00 in0.0 mm 0.02 in0.5 mm
12:00 PM 30.3°F-0.9°C 10.3°F-12.1°C 43% 19.0 mph WNW30.6 kmh WNW 24.0 mph38.6 kmh 30.49 in1032.5 mb 0.00 in0.0 mm 0.00 in0.0 mm 0.02 in0.5 mm
12:01 PM 30.3°F-0.9°C 8.7°F-12.9°C 40% 19.0 mph WNW30.6 kmh WNW 24.0 mph38.6 kmh 30.49 in1032.5 mb 0.00 in0.0 mm 0.00 in0.0 mm 0.02 in0.5 mm
12:02 PM 30.3°F-0.9°C 8.7°F-12.9°C 40% 17.0 mph W27.4 kmh W 24.0 mph38.6 kmh 30.49 in1032.5 mb 0.00 in0.0 mm 0.00 in0.0 mm 0.02 in0.5 mm
12:03 PM 30.7°F-0.7°C 9.0°F-12.8°C 40% 15.0 mph NNW24.1 kmh NNW 24.0 mph38.6 kmh 30.49 in1032.5 mb 0.00 in0.0 mm 0.00 in0.0 mm 0.02 in0.5 mm
12:04 PM 30.7°F-0.7°C 9.0°F-12.8°C 40% 21.0 mph NNW33.8 kmh NNW 24.0 mph38.6 kmh 30.49 in1032.5 mb 0.00 in0.0 mm 0.00 in0.0 mm 0.02 in0.5 mm
12:05 PM 30.7°F-0.7°C 9.0°F-12.8°C 40% 17.0 mph NNW27.4 kmh NNW 24.0 mph38.6 kmh 30.49 in1032.5 mb 0.00 in0.0 mm 0.00 in0.0 mm 0.02 in0.5 mm
12:06 PM 30.8°F-0.7°C 9.7°F-12.4°C 41% 8.0 mph NNW12.9 kmh NNW 22.0 mph35.4 kmh 30.49 in1032.5 mb 0.00 in0.0 mm 0.00 in0.0 mm 0.02 in0.5 mm
12:07 PM 30.8°F-0.7°C 10.8°F-11.8°C 43% 14.0 mph NNW22.5 kmh NNW 22.0 mph35.4 kmh 30.49 in1032.5 mb 0.00 in0.0 mm 0.00 in0.0 mm 0.02 in0.5 mm
12:08 PM 31.1°F-0.5°C 12.1°F-11.1°C 45% 17.0 mph NNW27.4 kmh NNW 22.0 mph35.4 kmh 30.48 in1032.2 mb 0.00 in0.0 mm 0.00 in0.0 mm 0.02 in0.5 mm
12:09 PM 31.1°F-0.5°C 12.1°F-11.1°C 45% 16.0 mph NNW25.7 kmh NNW 22.0 mph35.4 kmh 30.48 in1032.2 mb 0.00 in0.0 mm 0.00 in0.0 mm 0.02 in0.5 mm
12:10 PM 31.1°F-0.5°C 11.6°F-11.3°C 44% 12.0 mph NNW19.3 kmh NNW 21.0 mph33.8 kmh 30.48 in1032.2 mb 0.00 in0.0 mm 0.00 in0.0 mm 0.02 in0.5 mm
12:11 PM 31.1°F-0.5°C 11.0°F-11.7°C 43% 12.0 mph 19.3 kmh 21.0 mph33.8 kmh 30.48 in1032.2 mb 0.00 in0.0 mm 0.00 in0.0 mm 0.02 in0.5 mm
12:12 PM 31.1°F-0.5°C 9.9°F-12.3°C 41% 17.0 mph WNW27.4 kmh WNW 21.0 mph33.8 kmh 30.49 in1032.5 mb 0.00 in0.0 mm 0.00 in0.0 mm 0.02 in0.5 mm
12:13 PM 31.1°F-0.5°C 9.9°F-12.3°C 41% 20.0 mph W32.2 kmh W 21.0 mph33.8 kmh 30.49 in1032.5 mb 0.00 in0.0 mm 0.00 in0.0 mm 0.02 in0.5 mm
12:14 PM 31.1°F-0.5°C 11.0°F-11.7°C 43% 15.0 mph WNW24.1 kmh WNW 21.0 mph33.8 kmh 30.49 in1032.5 mb 0.00 in0.0 mm 0.00 in0.0 mm 0.02 in0.5 mm
12:15 PM 31.1°F-0.5°C 11.6°F-11.3°C 44% 21.0 mph W33.8 kmh W 21.0 mph33.8 kmh 30.49 in1032.5 mb 0.00 in0.0 mm 0.00 in0.0 mm 0.02 in0.5 mm
12:16 PM 30.8°F-0.7°C 10.8°F-11.8°C 43% 22.0 mph WNW35.4 kmh WNW 22.0 mph35.4 kmh 30.48 in1032.2 mb 0.00 in0.0 mm 0.00 in0.0 mm 0.02 in0.5 mm
12:17 PM 30.5°F-0.8°C 9.4°F-12.6°C 41% 16.0 mph WNW25.7 kmh WNW 23.0 mph37.0 kmh 30.48 in1032.2 mb 0.00 in0.0 mm 0.00 in0.0 mm 0.02 in0.5 mm
12:18 PM 30.7°F-0.7°C 11.7°F-11.3°C 45% 19.0 mph WNW30.6 kmh WNW 23.0 mph37.0 kmh 30.48 in1032.2 mb 0.00 in0.0 mm 0.00 in0.0 mm 0.02 in0.5 mm
12:19 PM 30.8°F-0.7°C 11.8°F-11.2°C 45% 17.0 mph WNW27.4 kmh WNW 23.0 mph37.0 kmh 30.49 in1032.5 mb 0.00 in0.0 mm 0.00 in0.0 mm 0.02 in0.5 mm
12:20 PM 30.8°F-0.7°C 10.8°F-11.8°C 43% 15.0 mph WNW24.1 kmh WNW 23.0 mph37.0 kmh 30.48 in1032.2 mb 0.00 in0.0 mm 0.00 in0.0 mm 0.02 in0.5 mm
12:21 PM 30.8°F-0.7°C 10.8°F-11.8°C 43% 17.0 mph WNW27.4 kmh WNW 23.0 mph37.0 kmh 30.48 in1032.2 mb 0.00 in0.0 mm 0.00 in0.0 mm 0.02 in0.5 mm
12:22 PM 31.1°F-0.5°C 11.6°F-11.3°C 44% 12.0 mph NW19.3 kmh NW 23.0 mph37.0 kmh 30.48 in1032.2 mb 0.00 in0.0 mm 0.00 in0.0 mm 0.02 in0.5 mm
12:23 PM 31.2°F-0.4°C 11.1°F-11.6°C 43% 13.0 mph NW20.9 kmh NW 23.0 mph37.0 kmh 30.48 in1032.2 mb 0.00 in0.0 mm 0.00 in0.0 mm 0.02 in0.5 mm
12:24 PM 31.5°F-0.3°C 11.4°F-11.4°C 43% 16.0 mph NW25.7 kmh NW 23.0 mph37.0 kmh 30.48 in1032.2 mb 0.00 in0.0 mm 0.00 in0.0 mm 0.02 in0.5 mm
12:25 PM 31.5°F-0.3°C 10.3°F-12.1°C 41% 14.0 mph NW22.5 kmh NW 23.0 mph37.0 kmh 30.48 in1032.2 mb 0.00 in0.0 mm 0.00 in0.0 mm 0.02 in0.5 mm
12:26 PM 31.5°F-0.3°C 11.9°F-11.2°C 44% 12.0 mph WNW19.3 kmh WNW 23.0 mph37.0 kmh 30.48 in1032.2 mb 0.00 in0.0 mm 0.00 in0.0 mm 0.02 in0.5 mm
12:27 PM 31.6°F-0.2°C 12.0°F-11.1°C 44% 20.0 mph NNW32.2 kmh NNW 22.0 mph35.4 kmh 30.48 in1032.2 mb 0.00 in0.0 mm 0.00 in0.0 mm 0.02 in0.5 mm
12:28 PM 31.6°F-0.2°C 11.5°F-11.4°C 43% 11.0 mph NNW17.7 kmh NNW 22.0 mph35.4 kmh 30.48 in1032.2 mb 0.00 in0.0 mm 0.00 in0.0 mm 0.02 in0.5 mm
12:29 PM 31.7°F-0.2°C 9.9°F-12.3°C 40% 9.0 mph 14.5 kmh 22.0 mph35.4 kmh 30.48 in1032.2 mb 0.00 in0.0 mm 0.00 in0.0 mm 0.02 in0.5 mm
12:30 PM 31.7°F-0.2°C 9.3°F-12.6°C 39% 21.0 mph WNW33.8 kmh WNW 21.0 mph33.8 kmh 30.48 in1032.2 mb 0.00 in0.0 mm 0.00 in0.0 mm 0.02 in0.5 mm
12:31 PM 31.7°F-0.2°C 9.9°F-12.3°C 40% 8.0 mph NW12.9 kmh NW 21.0 mph33.8 kmh 30.48 in1032.2 mb 0.00 in0.0 mm 0.00 in0.0 mm 0.02 in0.5 mm
12:32 PM 31.7°F-0.2°C 9.9°F-12.3°C 40% 23.0 mph NE37.0 kmh NE 23.0 mph37.0 kmh 30.48 in1032.2 mb 0.00 in0.0 mm 0.00 in0.0 mm 0.02 in0.5 mm
12:33 PM 31.7°F-0.2°C 10.5°F-11.9°C 41% 18.0 mph NW29.0 kmh NW 23.0 mph37.0 kmh 30.48 in1032.2 mb 0.00 in0.0 mm 0.00 in0.0 mm 0.02 in0.5 mm
12:34 PM 31.6°F-0.2°C 9.8°F-12.3°C 40% 17.0 mph NW27.4 kmh NW 23.0 mph37.0 kmh 30.48 in1032.2 mb 0.00 in0.0 mm 0.00 in0.0 mm 0.02 in0.5 mm
12:35 PM 31.6°F-0.2°C 10.4°F-12.0°C 41% 22.0 mph NW35.4 kmh NW 23.0 mph37.0 kmh 30.48 in1032.2 mb 0.00 in0.0 mm 0.00 in0.0 mm 0.02 in0.5 mm
12:36 PM 31.5°F-0.3°C 10.3°F-12.1°C 41% 20.0 mph WNW32.2 kmh WNW 23.0 mph37.0 kmh 30.48 in1032.2 mb 0.00 in0.0 mm 0.00 in0.0 mm 0.02 in0.5 mm
12:37 PM 31.1°F-0.5°C 9.4°F-12.6°C 40% 21.0 mph NW33.8 kmh NW 23.0 mph37.0 kmh 30.48 in1032.2 mb 0.00 in0.0 mm 0.00 in0.0 mm 0.02 in0.5 mm
12:38 PM 31.1°F-0.5°C 9.9°F-12.3°C 41% 19.0 mph WNW30.6 kmh WNW 23.0 mph37.0 kmh 30.48 in1032.2 mb 0.00 in0.0 mm 0.00 in0.0 mm 0.02 in0.5 mm
12:39 PM 31.1°F-0.5°C 11.0°F-11.7°C 43% 21.0 mph WNW33.8 kmh WNW 23.0 mph37.0 kmh 30.48 in1032.2 mb 0.00 in0.0 mm 0.00 in0.0 mm 0.02 in0.5 mm
12:40 PM 31.1°F-0.5°C 9.9°F-12.3°C 41% 22.0 mph NW35.4 kmh NW 23.0 mph37.0 kmh 30.48 in1032.2 mb 0.00 in0.0 mm 0.00 in0.0 mm 0.02 in0.5 mm
12:41 PM 31.1°F-0.5°C 11.0°F-11.7°C 43% 24.0 mph NW38.6 kmh NW 24.0 mph38.6 kmh 30.48 in1032.2 mb 0.00 in0.0 mm 0.00 in0.0 mm 0.02 in0.5 mm
12:42 PM 31.1°F-0.5°C 11.0°F-11.7°C 43% 17.0 mph WNW27.4 kmh WNW 24.0 mph38.6 kmh 30.48 in1032.2 mb 0.00 in0.0 mm 0.00 in0.0 mm 0.02 in0.5 mm
12:43 PM 31.1°F-0.5°C 11.0°F-11.7°C 43% 24.0 mph NNW38.6 kmh NNW 24.0 mph38.6 kmh 30.49 in1032.5 mb 0.00 in0.0 mm 0.00 in0.0 mm 0.02 in0.5 mm
12:44 PM 31.2°F-0.4°C 10.0°F-12.2°C 41% 22.0 mph NW35.4 kmh NW 24.0 mph38.6 kmh 30.48 in1032.2 mb 0.00 in0.0 mm 0.00 in0.0 mm 0.02 in0.5 mm
12:45 PM 31.2°F-0.4°C 10.0°F-12.2°C 41% 18.0 mph NW29.0 kmh NW 24.0 mph38.6 kmh 30.48 in1032.2 mb 0.00 in0.0 mm 0.00 in0.0 mm 0.02 in0.5 mm
12:46 PM 31.2°F-0.4°C 9.5°F-12.5°C 40% 20.0 mph NW32.2 kmh NW 24.0 mph38.6 kmh 30.48 in1032.2 mb 0.00 in0.0 mm 0.00 in0.0 mm 0.02 in0.5 mm
12:47 PM 31.2°F-0.4°C 9.5°F-12.5°C 40% 23.0 mph NW37.0 kmh NW 24.0 mph38.6 kmh 30.48 in1032.2 mb 0.00 in0.0 mm 0.00 in0.0 mm 0.02 in0.5 mm
12:48 PM 31.2°F-0.4°C 9.5°F-12.5°C 40% 16.0 mph NNW25.7 kmh NNW 29.0 mph46.7 kmh 30.48 in1032.2 mb 0.00 in0.0 mm 0.00 in0.0 mm 0.02 in0.5 mm
12:49 PM 31.5°F-0.3°C 9.7°F-12.4°C 40% 16.0 mph NNW25.7 kmh NNW 29.0 mph46.7 kmh 30.48 in1032.2 mb 0.00 in0.0 mm 0.00 in0.0 mm 0.02 in0.5 mm
12:50 PM 31.6°F-0.2°C 9.8°F-12.3°C 40% 18.0 mph WNW29.0 kmh WNW 29.0 mph46.7 kmh 30.48 in1032.2 mb 0.00 in0.0 mm 0.00 in0.0 mm 0.02 in0.5 mm
12:51 PM 31.6°F-0.2°C 9.8°F-12.3°C 40% 22.0 mph WNW35.4 kmh WNW 29.0 mph46.7 kmh 30.48 in1032.2 mb 0.00 in0.0 mm 0.00 in0.0 mm 0.02 in0.5 mm
12:52 PM 31.6°F-0.2°C 9.8°F-12.3°C 40% 22.0 mph WNW35.4 kmh WNW 29.0 mph46.7 kmh 30.48 in1032.2 mb 0.00 in0.0 mm 0.00 in0.0 mm 0.02 in0.5 mm
12:53 PM 31.5°F-0.3°C 9.2°F-12.7°C 39% 19.0 mph NNW30.6 kmh NNW 29.0 mph46.7 kmh 30.48 in1032.2 mb 0.00 in0.0 mm 0.00 in0.0 mm 0.02 in0.5 mm
12:54 PM 31.5°F-0.3°C 9.2°F-12.7°C 39% 21.0 mph NW33.8 kmh NW 29.0 mph46.7 kmh 30.48 in1032.2 mb 0.00 in0.0 mm 0.00 in0.0 mm 0.02 in0.5 mm
12:55 PM 31.5°F-0.3°C 9.2°F-12.7°C 39% 21.0 mph W33.8 kmh W 29.0 mph46.7 kmh 30.48 in1032.2 mb 0.00 in0.0 mm 0.00 in0.0 mm 0.02 in0.5 mm
12:56 PM 31.6°F-0.2°C 9.8°F-12.3°C 40% 20.0 mph WNW32.2 kmh WNW 29.0 mph46.7 kmh 30.48 in1032.2 mb 0.00 in0.0 mm 0.00 in0.0 mm 0.02 in0.5 mm
12:57 PM 31.7°F-0.2°C 11.6°F-11.3°C 43% 16.0 mph NW25.7 kmh NW 29.0 mph46.7 kmh 30.48 in1032.2 mb 0.00 in0.0 mm 0.00 in0.0 mm 0.02 in0.5 mm
12:58 PM 31.7°F-0.2°C 12.1°F-11.1°C 44% 11.0 mph WNW17.7 kmh WNW 25.0 mph40.2 kmh 30.48 in1032.2 mb 0.00 in0.0 mm 0.00 in0.0 mm 0.02 in0.5 mm
12:59 PM 31.9°F-0.1°C 11.8°F-11.2°C 43% 13.0 mph 20.9 kmh 25.0 mph40.2 kmh 30.48 in1032.2 mb 0.00 in0.0 mm 0.00 in0.0 mm 0.02 in0.5 mm
01:00 PM 31.9°F-0.1°C 10.1°F-12.2°C 40% 16.0 mph NW25.7 kmh NW 25.0 mph40.2 kmh 30.48 in1032.2 mb 0.00 in0.0 mm 0.00 in0.0 mm 0.02 in0.5 mm
01:01 PM 31.9°F-0.1°C 10.1°F-12.2°C 40% 16.0 mph NNW25.7 kmh NNW 25.0 mph40.2 kmh 30.48 in1032.2 mb 0.00 in0.0 mm 0.00 in0.0 mm 0.02 in0.5 mm
01:02 PM 31.7°F-0.2°C 8.2°F-13.2°C 37% 19.0 mph NW30.6 kmh NW 25.0 mph40.2 kmh 30.48 in1032.2 mb 0.00 in0.0 mm 0.00 in0.0 mm 0.02 in0.5 mm
01:03 PM 31.7°F-0.2°C 8.2°F-13.2°C 37% 11.0 mph NW17.7 kmh NW 25.0 mph40.2 kmh 30.48 in1032.2 mb 0.00 in0.0 mm 0.00 in0.0 mm 0.02 in0.5 mm
01:04 PM 31.9°F-0.1°C 9.5°F-12.5°C 39% 11.0 mph NNW17.7 kmh NNW 22.0 mph35.4 kmh 30.48 in1032.2 mb 0.00 in0.0 mm 0.00 in0.0 mm 0.02 in0.5 mm
01:05 PM 31.9°F-0.1°C 9.5°F-12.5°C 39% 18.0 mph NW29.0 kmh NW 22.0 mph35.4 kmh 30.48 in1032.2 mb 0.00 in0.0 mm 0.00 in0.0 mm 0.02 in0.5 mm
01:06 PM 31.9°F-0.1°C 10.1°F-12.2°C 40% 19.0 mph NNW30.6 kmh NNW 22.0 mph35.4 kmh 30.48 in1032.2 mb 0.00 in0.0 mm 0.00 in0.0 mm 0.02 in0.5 mm
01:07 PM 31.9°F-0.1°C 9.5°F-12.5°C 39% 13.0 mph WNW20.9 kmh WNW 22.0 mph35.4 kmh 30.48 in1032.2 mb 0.00 in0.0 mm 0.00 in0.0 mm 0.02 in0.5 mm
01:08 PM 31.9°F-0.1°C 10.1°F-12.2°C 40% 11.0 mph NW17.7 kmh NW 22.0 mph35.4 kmh 30.47 in1031.8 mb 0.00 in0.0 mm 0.00 in0.0 mm 0.02 in0.5 mm
01:09 PM 32.2°F0.1°C 10.4°F-12.0°C 40% 23.0 mph NNW37.0 kmh NNW 23.0 mph37.0 kmh 30.48 in1032.2 mb 0.00 in0.0 mm 0.00 in0.0 mm 0.02 in0.5 mm
01:10 PM 31.9°F-0.1°C 10.1°F-12.2°C 40% 21.0 mph 33.8 kmh 23.0 mph37.0 kmh 30.49 in1032.5 mb 0.00 in0.0 mm 0.00 in0.0 mm 0.02 in0.5 mm
01:11 PM 31.9°F-0.1°C 10.7°F-11.8°C 41% 16.0 mph WNW25.7 kmh WNW 23.0 mph37.0 kmh 30.49 in1032.5 mb 0.00 in0.0 mm 0.00 in0.0 mm 0.02 in0.5 mm
01:12 PM 31.9°F-0.1°C 12.3°F-10.9°C 44% 7.0 mph NNW11.3 kmh NNW 23.0 mph37.0 kmh 30.48 in1032.2 mb 0.00 in0.0 mm 0.00 in0.0 mm 0.02 in0.5 mm
01:13 PM 32.2°F0.1°C 10.9°F-11.7°C 41% 10.0 mph WNW16.1 kmh WNW 23.0 mph37.0 kmh 30.49 in1032.5 mb 0.00 in0.0 mm 0.00 in0.0 mm 0.02 in0.5 mm
01:14 PM 32.4°F0.2°C 12.2°F-11.0°C 43% 11.0 mph NW17.7 kmh NW 23.0 mph37.0 kmh 30.49 in1032.5 mb 0.00 in0.0 mm 0.00 in0.0 mm 0.02 in0.5 mm
01:15 PM 32.4°F0.2°C 11.1°F-11.6°C 41% 6.0 mph NNW9.7 kmh NNW 23.0 mph37.0 kmh 30.49 in1032.5 mb 0.00 in0.0 mm 0.00 in0.0 mm 0.02 in0.5 mm
01:16 PM 32.6°F0.3°C 10.7°F-11.8°C 40% 8.0 mph NW12.9 kmh NW 23.0 mph37.0 kmh 30.48 in1032.2 mb 0.00 in0.0 mm 0.00 in0.0 mm 0.02 in0.5 mm
01:17 PM 32.9°F0.5°C 11.0°F-11.7°C 40% 12.0 mph NW19.3 kmh NW 23.0 mph37.0 kmh 30.49 in1032.5 mb 0.00 in0.0 mm 0.00 in0.0 mm 0.02 in0.5 mm
01:18 PM 32.9°F0.5°C 11.0°F-11.7°C 40% 19.0 mph NW30.6 kmh NW 23.0 mph37.0 kmh 30.48 in1032.2 mb 0.00 in0.0 mm 0.00 in0.0 mm 0.02 in0.5 mm
01:19 PM 32.5°F0.3°C 10.1°F-12.2°C 39% 16.0 mph W25.7 kmh W 22.0 mph35.4 kmh 30.49 in1032.5 mb 0.00 in0.0 mm 0.00 in0.0 mm 0.02 in0.5 mm
01:20 PM 32.5°F0.3°C 10.1°F-12.2°C 39% 13.0 mph NW20.9 kmh NW 22.0 mph35.4 kmh 30.49 in1032.5 mb 0.00 in0.0 mm 0.00 in0.0 mm 0.02 in0.5 mm
01:21 PM 32.4°F0.2°C 10.5°F-11.9°C 40% 21.0 mph NW33.8 kmh NW 22.0 mph35.4 kmh 30.49 in1032.5 mb 0.00 in0.0 mm 0.00 in0.0 mm 0.02 in0.5 mm
01:22 PM 32.2°F0.1°C 10.4°F-12.0°C 40% 15.0 mph NW24.1 kmh NW 22.0 mph35.4 kmh 30.48 in1032.2 mb 0.00 in0.0 mm 0.00 in0.0 mm 0.02 in0.5 mm
01:23 PM 32.2°F0.1°C 10.4°F-12.0°C 40% 11.0 mph NW17.7 kmh NW 22.0 mph35.4 kmh 30.48 in1032.2 mb 0.00 in0.0 mm 0.00 in0.0 mm 0.02 in0.5 mm
01:24 PM 32.4°F0.2°C 8.8°F-12.9°C 37% 14.0 mph NNW22.5 kmh NNW 22.0 mph35.4 kmh 30.48 in1032.2 mb 0.00 in0.0 mm 0.00 in0.0 mm 0.02 in0.5 mm
01:25 PM 32.4°F0.2°C 8.8°F-12.9°C 37% 19.0 mph WNW30.6 kmh WNW 22.0 mph35.4 kmh 30.48 in1032.2 mb 0.00 in0.0 mm 0.00 in0.0 mm 0.02 in0.5 mm
01:26 PM 31.9°F-0.1°C 9.5°F-12.5°C 39% 24.0 mph WNW38.6 kmh WNW 25.0 mph40.2 kmh 30.48 in1032.2 mb 0.00 in0.0 mm 0.00 in0.0 mm 0.02 in0.5 mm
01:27 PM 31.9°F-0.1°C 10.1°F-12.2°C 40% 22.0 mph NW35.4 kmh NW 25.0 mph40.2 kmh 30.48 in1032.2 mb 0.00 in0.0 mm 0.00 in0.0 mm 0.02 in0.5 mm
01:28 PM 31.9°F-0.1°C 10.7°F-11.8°C 41% 11.0 mph NNW17.7 kmh NNW 25.0 mph40.2 kmh 30.49 in1032.5 mb 0.00 in0.0 mm 0.00 in0.0 mm 0.02 in0.5 mm
01:29 PM 31.9°F-0.1°C 10.7°F-11.8°C 41% 23.0 mph NW37.0 kmh NW 25.0 mph40.2 kmh 30.49 in1032.5 mb 0.00 in0.0 mm 0.00 in0.0 mm 0.02 in0.5 mm
01:30 PM 31.9°F-0.1°C 10.1°F-12.2°C 40% 20.0 mph W32.2 kmh W 25.0 mph40.2 kmh 30.48 in1032.2 mb 0.00 in0.0 mm 0.00 in0.0 mm 0.02 in0.5 mm
01:31 PM 32.2°F0.1°C 10.4°F-12.0°C 40% 11.0 mph NNW17.7 kmh NNW 25.0 mph40.2 kmh 30.48 in1032.2 mb 0.00 in0.0 mm 0.00 in0.0 mm 0.02 in0.5 mm
01:32 PM 32.4°F0.2°C 10.0°F-12.2°C 39% 12.0 mph NNW19.3 kmh NNW 25.0 mph40.2 kmh 30.48 in1032.2 mb 0.00 in0.0 mm 0.00 in0.0 mm 0.02 in0.5 mm
01:33 PM 32.5°F0.3°C 10.1°F-12.2°C 39% 13.0 mph NNW20.9 kmh NNW 25.0 mph40.2 kmh 30.48 in1032.2 mb 0.00 in0.0 mm 0.00 in0.0 mm 0.02 in0.5 mm
01:34 PM 32.6°F0.3°C 9.0°F-12.8°C 37% 9.0 mph NNE14.5 kmh NNE 25.0 mph40.2 kmh 30.48 in1032.2 mb 0.00 in0.0 mm 0.00 in0.0 mm 0.02 in0.5 mm
01:35 PM 32.9°F0.5°C 9.2°F-12.7°C 37% 19.0 mph NNW30.6 kmh NNW 25.0 mph40.2 kmh 30.49 in1032.5 mb 0.00 in0.0 mm 0.00 in0.0 mm 0.02 in0.5 mm
01:36 PM 32.9°F0.5°C 9.2°F-12.7°C 37% 16.0 mph 25.7 kmh 23.0 mph37.0 kmh 30.49 in1032.5 mb 0.00 in0.0 mm 0.00 in0.0 mm 0.02 in0.5 mm
01:37 PM 32.6°F0.3°C 9.0°F-12.8°C 37% 16.0 mph WNW25.7 kmh WNW 23.0 mph37.0 kmh 30.49 in1032.5 mb 0.00 in0.0 mm 0.00 in0.0 mm 0.02 in0.5 mm
01:38 PM 32.6°F0.3°C 9.0°F-12.8°C 37% 14.0 mph WNW22.5 kmh WNW 23.0 mph37.0 kmh 30.48 in1032.2 mb 0.00 in0.0 mm 0.00 in0.0 mm 0.02 in0.5 mm
01:39 PM 32.6°F0.3°C 10.2°F-12.1°C 39% 17.0 mph NNW27.4 kmh NNW 22.0 mph35.4 kmh 30.48 in1032.2 mb 0.00 in0.0 mm 0.00 in0.0 mm 0.02 in0.5 mm
01:40 PM 32.6°F0.3°C 9.0°F-12.8°C 37% 11.0 mph NNW17.7 kmh NNW 20.0 mph32.2 kmh 30.48 in1032.2 mb 0.00 in0.0 mm 0.00 in0.0 mm 0.02 in0.5 mm
01:41 PM 32.9°F0.5°C 9.2°F-12.7°C 37% 15.0 mph NNW24.1 kmh NNW 19.0 mph30.6 kmh 30.49 in1032.5 mb 0.00 in0.0 mm 0.00 in0.0 mm 0.02 in0.5 mm
01:42 PM 32.9°F0.5°C 10.4°F-12.0°C 39% 18.0 mph NNW29.0 kmh NNW 20.0 mph32.2 kmh 30.48 in1032.2 mb 0.00 in0.0 mm 0.00 in0.0 mm 0.02 in0.5 mm
01:43 PM 32.9°F0.5°C 10.4°F-12.0°C 39% 9.0 mph WNW14.5 kmh WNW 20.0 mph32.2 kmh 30.49 in1032.5 mb 0.00 in0.0 mm 0.00 in0.0 mm 0.02 in0.5 mm
01:44 PM 32.9°F0.5°C 9.2°F-12.7°C 37% 13.0 mph NW20.9 kmh NW 20.0 mph32.2 kmh 30.48 in1032.2 mb 0.00 in0.0 mm 0.00 in0.0 mm 0.02 in0.5 mm
01:45 PM 33.0°F0.6°C 11.1°F-11.6°C 40% 13.0 mph NW20.9 kmh NW 20.0 mph32.2 kmh 30.48 in1032.2 mb 0.00 in0.0 mm 0.00 in0.0 mm 0.02 in0.5 mm
01:46 PM 33.0°F0.6°C 11.1°F-11.6°C 40% 14.0 mph WNW22.5 kmh WNW 20.0 mph32.2 kmh 30.48 in1032.2 mb 0.00 in0.0 mm 0.00 in0.0 mm 0.02 in0.5 mm
01:47 PM 33.0°F0.6°C 11.1°F-11.6°C 40% 19.0 mph NW30.6 kmh NW 20.0 mph32.2 kmh 30.49 in1032.5 mb 0.00 in0.0 mm 0.00 in0.0 mm 0.02 in0.5 mm
01:48 PM 33.0°F0.6°C 11.1°F-11.6°C 40% 12.0 mph WNW19.3 kmh WNW 20.0 mph32.2 kmh 30.48 in1032.2 mb 0.00 in0.0 mm 0.00 in0.0 mm 0.02 in0.5 mm
01:49 PM 32.9°F0.5°C 10.4°F-12.0°C 39% 9.0 mph WNW14.5 kmh WNW 20.0 mph32.2 kmh 30.49 in1032.5 mb 0.00 in0.0 mm 0.00 in0.0 mm 0.02 in0.5 mm
01:50 PM 32.9°F0.5°C 9.2°F-12.7°C 37% 11.0 mph WNW17.7 kmh WNW 20.0 mph32.2 kmh 30.49 in1032.5 mb 0.00 in0.0 mm 0.00 in0.0 mm 0.02 in0.5 mm
01:51 PM 32.9°F0.5°C 10.4°F-12.0°C 39% 24.0 mph WNW38.6 kmh WNW 24.0 mph38.6 kmh 30.49 in1032.5 mb 0.00 in0.0 mm 0.00 in0.0 mm 0.02 in0.5 mm
01:52 PM 33.0°F0.6°C 10.5°F-11.9°C 39% 6.0 mph NNE9.7 kmh NNE 24.0 mph38.6 kmh 30.48 in1032.2 mb 0.00 in0.0 mm 0.00 in0.0 mm 0.02 in0.5 mm
01:53 PM 33.2°F0.7°C 11.3°F-11.5°C 40% 12.0 mph 19.3 kmh 24.0 mph38.6 kmh 30.49 in1032.5 mb 0.00 in0.0 mm 0.00 in0.0 mm 0.02 in0.5 mm
01:54 PM 33.4°F0.8°C 9.7°F-12.4°C 37% 14.0 mph NNW22.5 kmh NNW 24.0 mph38.6 kmh 30.49 in1032.5 mb 0.00 in0.0 mm 0.00 in0.0 mm 0.02 in0.5 mm
01:55 PM 33.4°F0.8°C 9.7°F-12.4°C 37% 11.0 mph WNW17.7 kmh WNW 24.0 mph38.6 kmh 30.49 in1032.5 mb 0.00 in0.0 mm 0.00 in0.0 mm 0.02 in0.5 mm
01:56 PM 33.2°F0.7°C 9.5°F-12.5°C 37% 14.0 mph W22.5 kmh W 24.0 mph38.6 kmh 30.49 in1032.5 mb 0.00 in0.0 mm 0.00 in0.0 mm 0.02 in0.5 mm
01:57 PM 33.2°F0.7°C 9.5°F-12.5°C 37% 9.0 mph NW14.5 kmh NW 24.0 mph38.6 kmh 30.49 in1032.5 mb 0.00 in0.0 mm 0.00 in0.0 mm 0.02 in0.5 mm
01:58 PM 33.2°F0.7°C 11.3°F-11.5°C 40% 12.0 mph NW19.3 kmh NW 24.0 mph38.6 kmh 30.48 in1032.2 mb 0.00 in0.0 mm 0.00 in0.0 mm 0.02 in0.5 mm
01:59 PM 33.4°F0.8°C 11.5°F-11.4°C 40% 8.0 mph WNW12.9 kmh WNW 24.0 mph38.6 kmh 30.49 in1032.5 mb 0.00 in0.0 mm 0.00 in0.0 mm 0.02 in0.5 mm
02:00 PM 33.4°F0.8°C 11.5°F-11.4°C 40% 12.0 mph NW19.3 kmh NW 24.0 mph38.6 kmh 30.48 in1032.2 mb 0.00 in0.0 mm 0.00 in0.0 mm 0.02 in0.5 mm
02:01 PM 33.4°F0.8°C 11.5°F-11.4°C 40% 20.0 mph WNW32.2 kmh WNW 20.0 mph32.2 kmh 30.49 in1032.5 mb 0.00 in0.0 mm 0.00 in0.0 mm 0.02 in0.5 mm
02:02 PM 33.4°F0.8°C 10.9°F-11.7°C 39% 11.0 mph NNW17.7 kmh NNW 20.0 mph32.2 kmh 30.49 in1032.5 mb 0.00 in0.0 mm 0.00 in0.0 mm 0.02 in0.5 mm
02:03 PM 33.4°F0.8°C 9.7°F-12.4°C 37% 13.0 mph NW20.9 kmh NW 20.0 mph32.2 kmh 30.49 in1032.5 mb 0.00 in0.0 mm 0.00 in0.0 mm 0.02 in0.5 mm
02:04 PM 33.5°F0.8°C 13.2°F-10.4°C 43% 14.0 mph NW22.5 kmh NW 20.0 mph32.2 kmh 30.49 in1032.5 mb 0.00 in0.0 mm 0.00 in0.0 mm 0.02 in0.5 mm
02:05 PM 33.5°F0.8°C 12.1°F-11.1°C 41% 15.0 mph WNW24.1 kmh WNW 20.0 mph32.2 kmh 30.50 in1032.8 mb 0.00 in0.0 mm 0.00 in0.0 mm 0.02 in0.5 mm
02:06 PM 33.4°F0.8°C 12.0°F-11.1°C 41% 15.0 mph WNW24.1 kmh WNW 20.0 mph32.2 kmh 30.49 in1032.5 mb 0.00 in0.0 mm 0.00 in0.0 mm 0.02 in0.5 mm
02:07 PM 33.4°F0.8°C 11.5°F-11.4°C 40% 17.0 mph NNW27.4 kmh NNW 23.0 mph37.0 kmh 30.49 in1032.5 mb 0.00 in0.0 mm 0.00 in0.0 mm 0.02 in0.5 mm
02:08 PM 33.0°F0.6°C 9.3°F-12.6°C 37% 15.0 mph WNW24.1 kmh WNW 23.0 mph37.0 kmh 30.49 in1032.5 mb 0.00 in0.0 mm 0.00 in0.0 mm 0.02 in0.5 mm
02:09 PM 32.9°F0.5°C 11.0°F-11.7°C 40% 15.0 mph NNW24.1 kmh NNW 23.0 mph37.0 kmh 30.49 in1032.5 mb 0.00 in0.0 mm 0.00 in0.0 mm 0.02 in0.5 mm
02:10 PM 32.9°F0.5°C 11.6°F-11.3°C 41% 16.0 mph W25.7 kmh W 23.0 mph37.0 kmh 30.49 in1032.5 mb 0.00 in0.0 mm 0.00 in0.0 mm 0.02 in0.5 mm
02:11 PM 33.0°F0.6°C 11.7°F-11.3°C 41% 13.0 mph WNW20.9 kmh WNW 23.0 mph37.0 kmh 30.50 in1032.8 mb 0.00 in0.0 mm 0.00 in0.0 mm 0.02 in0.5 mm
02:12 PM 33.0°F0.6°C 10.5°F-11.9°C 39% 14.0 mph W22.5 kmh W 23.0 mph37.0 kmh 30.49 in1032.5 mb 0.00 in0.0 mm 0.00 in0.0 mm 0.02 in0.5 mm
02:13 PM 32.9°F0.5°C 11.0°F-11.7°C 40% 19.0 mph W30.6 kmh W 23.0 mph37.0 kmh 30.49 in1032.5 mb 0.00 in0.0 mm 0.00 in0.0 mm 0.02 in0.5 mm
02:14 PM 32.9°F0.5°C 11.0°F-11.7°C 40% 20.0 mph WNW32.2 kmh WNW 23.0 mph37.0 kmh 30.49 in1032.5 mb 0.00 in0.0 mm 0.00 in0.0 mm 0.02 in0.5 mm
02:15 PM 32.6°F0.3°C 10.7°F-11.8°C 40% 19.0 mph NNW30.6 kmh NNW 23.0 mph37.0 kmh 30.50 in1032.8 mb 0.00 in0.0 mm 0.00 in0.0 mm 0.02 in0.5 mm
02:16 PM 32.9°F0.5°C 10.4°F-12.0°C 39% 17.0 mph NW27.4 kmh NW 23.0 mph37.0 kmh 30.49 in1032.5 mb 0.00 in0.0 mm 0.00 in0.0 mm 0.02 in0.5 mm
02:17 PM 33.0°F0.6°C 11.1°F-11.6°C 40% 6.0 mph NW9.7 kmh NW 20.0 mph32.2 kmh 30.50 in1032.8 mb 0.00 in0.0 mm 0.00 in0.0 mm 0.02 in0.5 mm
02:18 PM 33.2°F0.7°C 11.3°F-11.5°C 40% 13.0 mph 20.9 kmh 20.0 mph32.2 kmh 30.49 in1032.5 mb 0.00 in0.0 mm 0.00 in0.0 mm 0.02 in0.5 mm
02:19 PM 33.4°F0.8°C 9.7°F-12.4°C 37% 11.0 mph NNW17.7 kmh NNW 20.0 mph32.2 kmh 30.50 in1032.8 mb 0.00 in0.0 mm 0.00 in0.0 mm 0.02 in0.5 mm
02:20 PM 33.2°F0.7°C 9.5°F-12.5°C 37% 13.0 mph NW20.9 kmh NW 20.0 mph32.2 kmh 30.50 in1032.8 mb 0.00 in0.0 mm 0.00 in0.0 mm 0.02 in0.5 mm
02:21 PM 33.2°F0.7°C 9.5°F-12.5°C 37% 11.0 mph NW17.7 kmh NW 20.0 mph32.2 kmh 30.50 in1032.8 mb 0.00 in0.0 mm 0.00 in0.0 mm 0.02 in0.5 mm
02:22 PM 33.2°F0.7°C 9.5°F-12.5°C 37% 15.0 mph NNW24.1 kmh NNW 20.0 mph32.2 kmh 30.49 in1032.5 mb 0.00 in0.0 mm 0.00 in0.0 mm 0.02 in0.5 mm
02:23 PM 33.0°F0.6°C 9.3°F-12.6°C 37% 17.0 mph WNW27.4 kmh WNW 20.0 mph32.2 kmh 30.50 in1032.8 mb 0.00 in0.0 mm 0.00 in0.0 mm 0.02 in0.5 mm
02:24 PM 33.0°F0.6°C 10.5°F-11.9°C 39% 17.0 mph W27.4 kmh W 20.0 mph32.2 kmh 30.49 in1032.5 mb 0.00 in0.0 mm 0.00 in0.0 mm 0.02 in0.5 mm
02:25 PM 32.9°F0.5°C 9.2°F-12.7°C 37% 15.0 mph W24.1 kmh W 20.0 mph32.2 kmh 30.49 in1032.5 mb 0.00 in0.0 mm 0.00 in0.0 mm 0.02 in0.5 mm
02:26 PM 32.9°F0.5°C 9.2°F-12.7°C 37% 25.0 mph WNW40.2 kmh WNW 25.0 mph40.2 kmh 30.49 in1032.5 mb 0.00 in0.0 mm 0.00 in0.0 mm 0.02 in0.5 mm
02:27 PM 32.5°F0.3°C 8.9°F-12.8°C 37% 19.0 mph NW30.6 kmh NW 25.0 mph40.2 kmh 30.50 in1032.8 mb 0.00 in0.0 mm 0.00 in0.0 mm 0.02 in0.5 mm
02:28 PM 32.5°F0.3°C 8.9°F-12.8°C 37% 19.0 mph NW30.6 kmh NW 25.0 mph40.2 kmh 30.49 in1032.5 mb 0.00 in0.0 mm 0.00 in0.0 mm 0.02 in0.5 mm
02:29 PM 32.6°F0.3°C 9.0°F-12.8°C 37% 12.0 mph W19.3 kmh W 25.0 mph40.2 kmh 30.49 in1032.5 mb 0.00 in0.0 mm 0.00 in0.0 mm 0.02 in0.5 mm
02:30 PM 32.6°F0.3°C 9.0°F-12.8°C 37% 19.0 mph WNW30.6 kmh WNW 25.0 mph40.2 kmh 30.49 in1032.5 mb 0.00 in0.0 mm 0.00 in0.0 mm 0.02 in0.5 mm
02:31 PM 32.6°F0.3°C 9.0°F-12.8°C 37% 16.0 mph NNW25.7 kmh NNW 25.0 mph40.2 kmh 30.50 in1032.8 mb 0.00 in0.0 mm 0.00 in0.0 mm 0.02 in0.5 mm
02:32 PM 32.6°F0.3°C 9.0°F-12.8°C 37% 13.0 mph NNW20.9 kmh NNW 25.0 mph40.2 kmh 30.49 in1032.5 mb 0.00 in0.0 mm 0.00 in0.0 mm 0.02 in0.5 mm
02:33 PM 32.9°F0.5°C 8.0°F-13.3°C 35% 11.0 mph NW17.7 kmh NW 25.0 mph40.2 kmh 30.50 in1032.8 mb 0.00 in0.0 mm 0.00 in0.0 mm 0.02 in0.5 mm
02:34 PM 33.0°F0.6°C 8.1°F-13.3°C 35% 17.0 mph NW27.4 kmh NW 25.0 mph40.2 kmh 30.49 in1032.5 mb 0.00 in0.0 mm 0.00 in0.0 mm 0.02 in0.5 mm
02:35 PM 33.0°F0.6°C 9.3°F-12.6°C 37% 19.0 mph NW30.6 kmh NW 25.0 mph40.2 kmh 30.50 in1032.8 mb 0.00 in0.0 mm 0.00 in0.0 mm 0.02 in0.5 mm
02:36 PM 33.2°F0.7°C 9.5°F-12.5°C 37% 19.0 mph WNW30.6 kmh WNW 22.0 mph35.4 kmh 30.49 in1032.5 mb 0.00 in0.0 mm 0.00 in0.0 mm 0.02 in0.5 mm
02:37 PM 33.0°F0.6°C 9.3°F-12.6°C 37% 16.0 mph NNW25.7 kmh NNW 22.0 mph35.4 kmh 30.50 in1032.8 mb 0.00 in0.0 mm 0.00 in0.0 mm 0.02 in0.5 mm
02:38 PM 33.0°F0.6°C 9.3°F-12.6°C 37% 19.0 mph NNW30.6 kmh NNW 22.0 mph35.4 kmh 30.49 in1032.5 mb 0.00 in0.0 mm 0.00 in0.0 mm 0.02 in0.5 mm
02:39 PM 33.0°F0.6°C 11.1°F-11.6°C 40% 21.0 mph NW33.8 kmh NW 22.0 mph35.4 kmh 30.49 in1032.5 mb 0.00 in0.0 mm 0.00 in0.0 mm 0.02 in0.5 mm
02:40 PM 32.9°F0.5°C 10.4°F-12.0°C 39% 20.0 mph WNW32.2 kmh WNW 22.0 mph35.4 kmh 30.49 in1032.5 mb 0.00 in0.0 mm 0.00 in0.0 mm 0.02 in0.5 mm
02:41 PM 32.9°F0.5°C 10.4°F-12.0°C 39% 20.0 mph NW32.2 kmh NW 22.0 mph35.4 kmh 30.50 in1032.8 mb 0.00 in0.0 mm 0.00 in0.0 mm 0.02 in0.5 mm
02:42 PM 32.6°F0.3°C 10.2°F-12.1°C 39% 17.0 mph NNW27.4 kmh NNW 22.0 mph35.4 kmh 30.50 in1032.8 mb 0.00 in0.0 mm 0.00 in0.0 mm 0.02 in0.5 mm
02:43 PM 32.6°F0.3°C 10.2°F-12.1°C 39% 15.0 mph WNW24.1 kmh WNW 22.0 mph35.4 kmh 30.50 in1032.8 mb 0.00 in0.0 mm 0.00 in0.0 mm 0.02 in0.5 mm
02:44 PM 32.9°F0.5°C 9.2°F-12.7°C 37% 9.0 mph NNW14.5 kmh NNW 22.0 mph35.4 kmh 30.50 in1032.8 mb 0.00 in0.0 mm 0.00 in0.0 mm 0.02 in0.5 mm
02:45 PM 33.0°F0.6°C 9.3°F-12.6°C 37% 12.0 mph WNW19.3 kmh WNW 22.0 mph35.4 kmh 30.50 in1032.8 mb 0.00 in0.0 mm 0.00 in0.0 mm 0.02 in0.5 mm
02:46 PM 33.2°F0.7°C 9.5°F-12.5°C 37% 14.0 mph NW22.5 kmh NW 22.0 mph35.4 kmh 30.50 in1032.8 mb 0.00 in0.0 mm 0.00 in0.0 mm 0.02 in0.5 mm
02:47 PM 33.2°F0.7°C 9.5°F-12.5°C 37% 11.0 mph NW17.7 kmh NW 22.0 mph35.4 kmh 30.50 in1032.8 mb 0.00 in0.0 mm 0.00 in0.0 mm 0.02 in0.5 mm
02:48 PM 33.2°F0.7°C 9.5°F-12.5°C 37% 12.0 mph W19.3 kmh W 22.0 mph35.4 kmh 30.50 in1032.8 mb 0.00 in0.0 mm 0.00 in0.0 mm 0.02 in0.5 mm
02:49 PM 33.5°F0.8°C 8.5°F-13.1°C 35% 11.0 mph NNW17.7 kmh NNW 22.0 mph35.4 kmh 30.51 in1033.2 mb 0.00 in0.0 mm 0.00 in0.0 mm 0.02 in0.5 mm
02:50 PM 33.8°F1.0°C 10.0°F-12.2°C 37% 11.0 mph 17.7 kmh 20.0 mph32.2 kmh 30.50 in1032.8 mb 0.00 in0.0 mm 0.00 in0.0 mm 0.02 in0.5 mm
02:51 PM 33.8°F1.0°C 8.8°F-12.9°C 35% 12.0 mph WNW19.3 kmh WNW 20.0 mph32.2 kmh 30.50 in1032.8 mb 0.00 in0.0 mm 0.00 in0.0 mm 0.02 in0.5 mm
02:52 PM 34.0°F1.1°C 10.2°F-12.1°C 37% 11.0 mph NNW17.7 kmh NNW 18.0 mph29.0 kmh 30.50 in1032.8 mb 0.00 in0.0 mm 0.00 in0.0 mm 0.02 in0.5 mm
02:53 PM 34.0°F1.1°C 9.0°F-12.8°C 35% 18.0 mph NNW29.0 kmh NNW 18.0 mph29.0 kmh 30.50 in1032.8 mb 0.00 in0.0 mm 0.00 in0.0 mm 0.02 in0.5 mm
02:54 PM 33.8°F1.0°C 8.1°F-13.3°C 34% 12.0 mph NNW19.3 kmh NNW 20.0 mph32.2 kmh 30.50 in1032.8 mb 0.00 in0.0 mm 0.00 in0.0 mm 0.02 in0.5 mm
02:55 PM 33.8°F1.0°C 8.8°F-12.9°C 35% 9.0 mph NNW14.5 kmh NNW 20.0 mph32.2 kmh 30.51 in1033.2 mb 0.00 in0.0 mm 0.00 in0.0 mm 0.02 in0.5 mm
02:56 PM 33.8°F1.0°C 8.8°F-12.9°C 35% 13.0 mph NW20.9 kmh NW 20.0 mph32.2 kmh 30.50 in1032.8 mb 0.00 in0.0 mm 0.00 in0.0 mm 0.02 in0.5 mm
02:57 PM 34.0°F1.1°C 9.0°F-12.8°C 35% 13.0 mph NW20.9 kmh NW 20.0 mph32.2 kmh 30.50 in1032.8 mb 0.00 in0.0 mm 0.00 in0.0 mm 0.02 in0.5 mm
02:58 PM 34.0°F1.1°C 9.0°F-12.8°C 35% 7.0 mph NNW11.3 kmh NNW 20.0 mph32.2 kmh 30.50 in1032.8 mb 0.00 in0.0 mm 0.00 in0.0 mm 0.02 in0.5 mm
02:59 PM 34.2°F1.2°C 10.4°F-12.0°C 37% 9.0 mph W14.5 kmh W 20.0 mph32.2 kmh 30.51 in1033.2 mb 0.00 in0.0 mm 0.00 in0.0 mm 0.02 in0.5 mm
03:00 PM 34.2°F1.2°C 9.1°F-12.7°C 35% 10.0 mph W16.1 kmh W 20.0 mph32.2 kmh 30.50 in1032.8 mb 0.00 in0.0 mm 0.00 in0.0 mm 0.02 in0.5 mm
03:01 PM 34.2°F1.2°C 10.4°F-12.0°C 37% 7.0 mph NW11.3 kmh NW 20.0 mph32.2 kmh 30.51 in1033.2 mb 0.00 in0.0 mm 0.00 in0.0 mm 0.02 in0.5 mm
03:02 PM 34.5°F1.4°C 10.7°F-11.8°C 37% 10.0 mph NNW16.1 kmh NNW 20.0 mph32.2 kmh 30.50 in1032.8 mb 0.00 in0.0 mm 0.00 in0.0 mm 0.02 in0.5 mm
03:03 PM 34.7°F1.5°C 9.6°F-12.4°C 35% 10.0 mph 16.1 kmh 20.0 mph32.2 kmh 30.51 in1033.2 mb 0.00 in0.0 mm 0.00 in0.0 mm 0.02 in0.5 mm
03:04 PM 34.5°F1.4°C 8.8°F-12.9°C 34% 13.0 mph NW20.9 kmh NW 16.0 mph25.7 kmh 30.50 in1032.8 mb 0.00 in0.0 mm 0.00 in0.0 mm 0.02 in0.5 mm
03:05 PM 34.5°F1.4°C 9.4°F-12.6°C 35% 11.0 mph NW17.7 kmh NW 16.0 mph25.7 kmh 30.51 in1033.2 mb 0.00 in0.0 mm 0.00 in0.0 mm 0.02 in0.5 mm
03:06 PM 34.2°F1.2°C 9.1°F-12.7°C 35% 12.0 mph NW19.3 kmh NW 17.0 mph27.4 kmh 30.51 in1033.2 mb 0.00 in0.0 mm 0.00 in0.0 mm 0.02 in0.5 mm
03:07 PM 34.2°F1.2°C 10.4°F-12.0°C 37% 11.0 mph NNW17.7 kmh NNW 17.0 mph27.4 kmh 30.51 in1033.2 mb 0.00 in0.0 mm 0.00 in0.0 mm 0.02 in0.5 mm
03:08 PM 34.2°F1.2°C 9.1°F-12.7°C 35% 10.0 mph WNW16.1 kmh WNW 17.0 mph27.4 kmh 30.50 in1032.8 mb 0.00 in0.0 mm 0.00 in0.0 mm 0.02 in0.5 mm
03:09 PM 34.2°F1.2°C 10.4°F-12.0°C 37% 14.0 mph NW22.5 kmh NW 17.0 mph27.4 kmh 30.51 in1033.2 mb 0.00 in0.0 mm 0.00 in0.0 mm 0.02 in0.5 mm
03:10 PM 34.2°F1.2°C 10.4°F-12.0°C 37% 10.0 mph WNW16.1 kmh WNW 17.0 mph27.4 kmh 30.51 in1033.2 mb 0.00 in0.0 mm 0.00 in0.0 mm 0.02 in0.5 mm
03:11 PM 34.0°F1.1°C 8.3°F-13.2°C 34% 12.0 mph NW19.3 kmh NW 17.0 mph27.4 kmh 30.51 in1033.2 mb 0.00 in0.0 mm 0.00 in0.0 mm 0.02 in0.5 mm
03:12 PM 34.0°F1.1°C 9.0°F-12.8°C 35% 13.0 mph NW20.9 kmh NW 17.0 mph27.4 kmh 30.51 in1033.2 mb 0.00 in0.0 mm 0.00 in0.0 mm 0.02 in0.5 mm
03:13 PM 34.0°F1.1°C 9.0°F-12.8°C 35% 9.0 mph NW14.5 kmh NW 17.0 mph27.4 kmh 30.51 in1033.2 mb 0.00 in0.0 mm 0.00 in0.0 mm 0.02 in0.5 mm
03:14 PM 34.0°F1.1°C 8.3°F-13.2°C 34% 16.0 mph NNW25.7 kmh NNW 17.0 mph27.4 kmh 30.50 in1032.8 mb 0.00 in0.0 mm 0.00 in0.0 mm 0.02 in0.5 mm
03:15 PM 34.0°F1.1°C 8.3°F-13.2°C 34% 10.0 mph WNW16.1 kmh WNW 17.0 mph27.4 kmh 30.51 in1033.2 mb 0.00 in0.0 mm 0.00 in0.0 mm 0.02 in0.5 mm
03:16 PM 34.0°F1.1°C 9.0°F-12.8°C 35% 13.0 mph NW20.9 kmh NW 16.0 mph25.7 kmh 30.50 in1032.8 mb 0.00 in0.0 mm 0.00 in0.0 mm 0.02 in0.5 mm
03:17 PM 34.0°F1.1°C 9.0°F-12.8°C 35% 10.0 mph NW16.1 kmh NW 16.0 mph25.7 kmh 30.51 in1033.2 mb 0.00 in0.0 mm 0.00 in0.0 mm 0.02 in0.5 mm
03:18 PM 33.8°F1.0°C 8.8°F-12.9°C 35% 14.0 mph NNW22.5 kmh NNW 18.0 mph29.0 kmh 30.51 in1033.2 mb 0.00 in0.0 mm 0.00 in0.0 mm 0.02 in0.5 mm
03:19 PM 33.8°F1.0°C 8.8°F-12.9°C 35% 12.0 mph WNW19.3 kmh WNW 18.0 mph29.0 kmh 30.51 in1033.2 mb 0.00 in0.0 mm 0.00 in0.0 mm 0.02 in0.5 mm
03:20 PM 33.8°F1.0°C 8.8°F-12.9°C 35% 9.0 mph NW14.5 kmh NW 18.0 mph29.0 kmh 30.50 in1032.8 mb 0.00 in0.0 mm 0.00 in0.0 mm 0.02 in0.5 mm
03:21 PM 33.8°F1.0°C 8.8°F-12.9°C 35% 13.0 mph WNW20.9 kmh WNW 18.0 mph29.0 kmh 30.51 in1033.2 mb 0.00 in0.0 mm 0.00 in0.0 mm 0.02 in0.5 mm
03:22 PM 34.0°F1.1°C 11.4°F-11.4°C 39% 15.0 mph WNW24.1 kmh WNW 18.0 mph29.0 kmh 30.51 in1033.2 mb 0.00 in0.0 mm 0.00 in0.0 mm 0.02 in0.5 mm
03:23 PM 34.0°F1.1°C 10.2°F-12.1°C 37% 11.0 mph NW17.7 kmh NW 18.0 mph29.0 kmh 30.52 in1033.5 mb 0.00 in0.0 mm 0.00 in0.0 mm 0.02 in0.5 mm
03:24 PM 34.0°F1.1°C 9.0°F-12.8°C 35% 14.0 mph W22.5 kmh W 18.0 mph29.0 kmh 30.51 in1033.2 mb 0.00 in0.0 mm 0.00 in0.0 mm 0.02 in0.5 mm
03:25 PM 34.0°F1.1°C 10.2°F-12.1°C 37% 14.0 mph WNW22.5 kmh WNW 18.0 mph29.0 kmh 30.51 in1033.2 mb 0.00 in0.0 mm 0.00 in0.0 mm 0.02 in0.5 mm
03:26 PM 34.0°F1.1°C 10.2°F-12.1°C 37% 16.0 mph WNW25.7 kmh WNW 22.0 mph35.4 kmh 30.52 in1033.5 mb 0.00 in0.0 mm 0.00 in0.0 mm 0.02 in0.5 mm
03:27 PM 34.0°F1.1°C 10.2°F-12.1°C 37% 12.0 mph NW19.3 kmh NW 22.0 mph35.4 kmh 30.52 in1033.5 mb 0.00 in0.0 mm 0.00 in0.0 mm 0.02 in0.5 mm
03:28 PM 34.0°F1.1°C 10.2°F-12.1°C 37% 12.0 mph NNW19.3 kmh NNW 22.0 mph35.4 kmh 30.51 in1033.2 mb 0.00 in0.0 mm 0.00 in0.0 mm 0.02 in0.5 mm
03:29 PM 34.0°F1.1°C 10.2°F-12.1°C 37% 12.0 mph WNW19.3 kmh WNW 22.0 mph35.4 kmh 30.52 in1033.5 mb 0.00 in0.0 mm 0.00 in0.0 mm 0.02 in0.5 mm
03:30 PM 34.0°F1.1°C 8.3°F-13.2°C 34% 11.0 mph WNW17.7 kmh WNW 22.0 mph35.4 kmh 30.51 in1033.2 mb 0.00 in0.0 mm 0.00 in0.0 mm 0.02 in0.5 mm
03:31 PM 34.0°F1.1°C 9.0°F-12.8°C 35% 12.0 mph W19.3 kmh W 22.0 mph35.4 kmh 30.52 in1033.5 mb 0.00 in0.0 mm 0.00 in0.0 mm 0.02 in0.5 mm
03:32 PM 34.2°F1.2°C 9.1°F-12.7°C 35% 11.0 mph WNW17.7 kmh WNW 22.0 mph35.4 kmh 30.51 in1033.2 mb 0.00 in0.0 mm 0.00 in0.0 mm 0.02 in0.5 mm
03:33 PM 34.0°F1.1°C 10.2°F-12.1°C 37% 22.0 mph WNW35.4 kmh WNW 22.0 mph35.4 kmh 30.52 in1033.5 mb 0.00 in0.0 mm 0.00 in0.0 mm 0.02 in0.5 mm
03:34 PM 33.8°F1.0°C 8.8°F-12.9°C 35% 19.0 mph NW30.6 kmh NW 22.0 mph35.4 kmh 30.52 in1033.5 mb 0.00 in0.0 mm 0.00 in0.0 mm 0.02 in0.5 mm
03:35 PM 33.5°F0.8°C 7.9°F-13.4°C 34% 12.0 mph NW19.3 kmh NW 22.0 mph35.4 kmh 30.52 in1033.5 mb 0.00 in0.0 mm 0.00 in0.0 mm 0.02 in0.5 mm
03:36 PM 33.5°F0.8°C 8.5°F-13.1°C 35% 14.0 mph WNW22.5 kmh WNW 22.0 mph35.4 kmh 30.51 in1033.2 mb 0.00 in0.0 mm 0.00 in0.0 mm 0.02 in0.5 mm
03:37 PM 33.8°F1.0°C 10.0°F-12.2°C 37% 22.0 mph NW35.4 kmh NW 22.0 mph35.4 kmh 30.52 in1033.5 mb 0.00 in0.0 mm 0.00 in0.0 mm 0.02 in0.5 mm
03:38 PM 33.8°F1.0°C 8.8°F-12.9°C 35% 14.0 mph NW22.5 kmh NW 22.0 mph35.4 kmh 30.52 in1033.5 mb 0.00 in0.0 mm 0.00 in0.0 mm 0.02 in0.5 mm
03:39 PM 33.5°F0.8°C 8.5°F-13.1°C 35% 16.0 mph NW25.7 kmh NW 22.0 mph35.4 kmh 30.52 in1033.5 mb 0.00 in0.0 mm 0.00 in0.0 mm 0.02 in0.5 mm
03:40 PM 33.4°F0.8°C 8.4°F-13.1°C 35% 17.0 mph NNW27.4 kmh NNW 22.0 mph35.4 kmh 30.52 in1033.5 mb 0.00 in0.0 mm 0.00 in0.0 mm 0.02 in0.5 mm
03:41 PM 33.4°F0.8°C 9.7°F-12.4°C 37% 16.0 mph NW25.7 kmh NW 22.0 mph35.4 kmh 30.52 in1033.5 mb 0.00 in0.0 mm 0.00 in0.0 mm 0.02 in0.5 mm
03:42 PM 33.4°F0.8°C 8.4°F-13.1°C 35% 13.0 mph WNW20.9 kmh WNW 22.0 mph35.4 kmh 30.52 in1033.5 mb 0.00 in0.0 mm 0.00 in0.0 mm 0.02 in0.5 mm
03:43 PM 33.8°F1.0°C 10.0°F-12.2°C 37% 15.0 mph NW24.1 kmh NW 22.0 mph35.4 kmh 30.52 in1033.5 mb 0.00 in0.0 mm 0.00 in0.0 mm 0.02 in0.5 mm
03:44 PM 33.5°F0.8°C 9.8°F-12.3°C 37% 12.0 mph W19.3 kmh W 22.0 mph35.4 kmh 30.52 in1033.5 mb 0.00 in0.0 mm 0.00 in0.0 mm 0.02 in0.5 mm
03:45 PM 33.5°F0.8°C 11.0°F-11.7°C 39% 13.0 mph WNW20.9 kmh WNW 22.0 mph35.4 kmh 30.53 in1033.9 mb 0.00 in0.0 mm 0.00 in0.0 mm 0.02 in0.5 mm
03:46 PM 33.5°F0.8°C 9.8°F-12.3°C 37% 18.0 mph WNW29.0 kmh WNW 22.0 mph35.4 kmh 30.52 in1033.5 mb 0.00 in0.0 mm 0.00 in0.0 mm 0.02 in0.5 mm
03:47 PM 33.4°F0.8°C 8.4°F-13.1°C 35% 15.0 mph WNW24.1 kmh WNW 22.0 mph35.4 kmh 30.52 in1033.5 mb 0.00 in0.0 mm 0.00 in0.0 mm 0.02 in0.5 mm
03:48 PM 33.4°F0.8°C 11.5°F-11.4°C 40% 17.0 mph NW27.4 kmh NW 22.0 mph35.4 kmh 30.52 in1033.5 mb 0.00 in0.0 mm 0.00 in0.0 mm 0.02 in0.5 mm
03:49 PM 33.4°F0.8°C 10.9°F-11.7°C 39% 16.0 mph NW25.7 kmh NW 20.0 mph32.2 kmh 30.52 in1033.5 mb 0.00 in0.0 mm 0.00 in0.0 mm 0.02 in0.5 mm
03:50 PM 33.4°F0.8°C 9.7°F-12.4°C 37% 16.0 mph WNW25.7 kmh WNW 19.0 mph30.6 kmh 30.52 in1033.5 mb 0.00 in0.0 mm 0.00 in0.0 mm 0.02 in0.5 mm
03:51 PM 33.2°F0.7°C 9.5°F-12.5°C 37% 15.0 mph NW24.1 kmh NW 19.0 mph30.6 kmh 30.53 in1033.9 mb 0.00 in0.0 mm 0.00 in0.0 mm 0.02 in0.5 mm
03:52 PM 33.2°F0.7°C 9.5°F-12.5°C 37% 15.0 mph WNW24.1 kmh WNW 19.0 mph30.6 kmh 30.52 in1033.5 mb 0.00 in0.0 mm 0.00 in0.0 mm 0.02 in0.5 mm
03:53 PM 33.2°F0.7°C 9.5°F-12.5°C 37% 12.0 mph NW19.3 kmh NW 19.0 mph30.6 kmh 30.53 in1033.9 mb 0.00 in0.0 mm 0.00 in0.0 mm 0.02 in0.5 mm
03:54 PM 33.5°F0.8°C 9.8°F-12.3°C 37% 15.0 mph WNW24.1 kmh WNW 19.0 mph30.6 kmh 30.52 in1033.5 mb 0.00 in0.0 mm 0.00 in0.0 mm 0.02 in0.5 mm
03:55 PM 33.4°F0.8°C 8.4°F-13.1°C 35% 20.0 mph W32.2 kmh W 20.0 mph32.2 kmh 30.52 in1033.5 mb 0.00 in0.0 mm 0.00 in0.0 mm 0.02 in0.5 mm
03:56 PM 33.4°F0.8°C 9.7°F-12.4°C 37% 14.0 mph NW22.5 kmh NW 20.0 mph32.2 kmh 30.52 in1033.5 mb 0.00 in0.0 mm 0.00 in0.0 mm 0.02 in0.5 mm
03:57 PM 33.4°F0.8°C 9.7°F-12.4°C 37% 21.0 mph WNW33.8 kmh WNW 21.0 mph33.8 kmh 30.52 in1033.5 mb 0.00 in0.0 mm 0.00 in0.0 mm 0.02 in0.5 mm
03:58 PM 33.2°F0.7°C 8.3°F-13.2°C 35% 15.0 mph W24.1 kmh W 21.0 mph33.8 kmh 30.52 in1033.5 mb 0.00 in0.0 mm 0.00 in0.0 mm 0.02 in0.5 mm
03:59 PM 33.2°F0.7°C 9.5°F-12.5°C 37% 15.0 mph NW24.1 kmh NW 21.0 mph33.8 kmh 30.52 in1033.5 mb 0.00 in0.0 mm 0.00 in0.0 mm 0.02 in0.5 mm
04:00 PM 33.4°F0.8°C 9.7°F-12.4°C 37% 13.0 mph NW20.9 kmh NW 21.0 mph33.8 kmh 30.52 in1033.5 mb 0.00 in0.0 mm 0.00 in0.0 mm 0.02 in0.5 mm
04:01 PM 33.4°F0.8°C 9.7°F-12.4°C 37% 10.0 mph 16.1 kmh 21.0 mph33.8 kmh 30.53 in1033.9 mb 0.00 in0.0 mm 0.00 in0.0 mm 0.02 in0.5 mm
04:02 PM 33.5°F0.8°C 8.5°F-13.1°C 35% 17.0 mph NW27.4 kmh NW 21.0 mph33.8 kmh 30.52 in1033.5 mb 0.00 in0.0 mm 0.00 in0.0 mm 0.02 in0.5 mm
04:03 PM 33.5°F0.8°C 8.5°F-13.1°C 35% 18.0 mph W29.0 kmh W 21.0 mph33.8 kmh 30.52 in1033.5 mb 0.00 in0.0 mm 0.00 in0.0 mm 0.02 in0.5 mm
04:04 PM 33.5°F0.8°C 8.5°F-13.1°C 35% 19.0 mph WNW30.6 kmh WNW 21.0 mph33.8 kmh 30.52 in1033.5 mb 0.00 in0.0 mm 0.00 in0.0 mm 0.02 in0.5 mm
04:05 PM 33.2°F0.7°C 8.3°F-13.2°C 35% 15.0 mph NW24.1 kmh NW 21.0 mph33.8 kmh 30.52 in1033.5 mb 0.00 in0.0 mm 0.00 in0.0 mm 0.02 in0.5 mm
04:06 PM 33.2°F0.7°C 9.5°F-12.5°C 37% 19.0 mph WNW30.6 kmh WNW 21.0 mph33.8 kmh 30.52 in1033.5 mb 0.00 in0.0 mm 0.00 in0.0 mm 0.02 in0.5 mm
04:07 PM 33.2°F0.7°C 9.5°F-12.5°C 37% 19.0 mph WNW30.6 kmh WNW 21.0 mph33.8 kmh 30.53 in1033.9 mb 0.00 in0.0 mm 0.00 in0.0 mm 0.02 in0.5 mm
04:08 PM 33.0°F0.6°C 8.1°F-13.3°C 35% 20.0 mph WNW32.2 kmh WNW 22.0 mph35.4 kmh 30.52 in1033.5 mb 0.00 in0.0 mm 0.00 in0.0 mm 0.02 in0.5 mm
04:09 PM 32.9°F0.5°C 9.2°F-12.7°C 37% 20.0 mph WNW32.2 kmh WNW 23.0 mph37.0 kmh 30.53 in1033.9 mb 0.00 in0.0 mm 0.00 in0.0 mm 0.02 in0.5 mm
04:10 PM 32.9°F0.5°C 9.2°F-12.7°C 37% 20.0 mph NW32.2 kmh NW 23.0 mph37.0 kmh 30.53 in1033.9 mb 0.00 in0.0 mm 0.00 in0.0 mm 0.02 in0.5 mm
04:11 PM 33.0°F0.6°C 9.3°F-12.6°C 37% 17.0 mph W27.4 kmh W 23.0 mph37.0 kmh 30.53 in1033.9 mb 0.00 in0.0 mm 0.00 in0.0 mm 0.02 in0.5 mm
04:12 PM 33.2°F0.7°C 9.5°F-12.5°C 37% 15.0 mph W24.1 kmh W 23.0 mph37.0 kmh 30.52 in1033.5 mb 0.00 in0.0 mm 0.00 in0.0 mm 0.02 in0.5 mm
04:13 PM 33.2°F0.7°C 9.5°F-12.5°C 37% 14.0 mph NW22.5 kmh NW 23.0 mph37.0 kmh 30.53 in1033.9 mb 0.00 in0.0 mm 0.00 in0.0 mm 0.02 in0.5 mm
04:14 PM 33.4°F0.8°C 9.7°F-12.4°C 37% 21.0 mph WNW33.8 kmh WNW 23.0 mph37.0 kmh 30.52 in1033.5 mb 0.00 in0.0 mm 0.00 in0.0 mm 0.02 in0.5 mm
04:15 PM 33.2°F0.7°C 9.5°F-12.5°C 37% 18.0 mph WNW29.0 kmh WNW 23.0 mph37.0 kmh 30.53 in1033.9 mb 0.00 in0.0 mm 0.00 in0.0 mm 0.02 in0.5 mm
04:16 PM 33.4°F0.8°C 10.9°F-11.7°C 39% 13.0 mph NW20.9 kmh NW 23.0 mph37.0 kmh 30.53 in1033.9 mb 0.00 in0.0 mm 0.00 in0.0 mm 0.02 in0.5 mm
04:17 PM 33.4°F0.8°C 9.7°F-12.4°C 37% 12.0 mph NW19.3 kmh NW 23.0 mph37.0 kmh 30.53 in1033.9 mb 0.00 in0.0 mm 0.00 in0.0 mm 0.02 in0.5 mm
04:18 PM 33.4°F0.8°C 8.4°F-13.1°C 35% 16.0 mph WNW25.7 kmh WNW 21.0 mph33.8 kmh 30.54 in1034.2 mb 0.00 in0.0 mm 0.00 in0.0 mm 0.02 in0.5 mm
04:19 PM 33.4°F0.8°C 9.7°F-12.4°C 37% 16.0 mph NW25.7 kmh NW 21.0 mph33.8 kmh 30.54 in1034.2 mb 0.00 in0.0 mm 0.00 in0.0 mm 0.02 in0.5 mm
04:20 PM 33.4°F0.8°C 8.4°F-13.1°C 35% 11.0 mph NW17.7 kmh NW 21.0 mph33.8 kmh 30.53 in1033.9 mb 0.00 in0.0 mm 0.00 in0.0 mm 0.02 in0.5 mm
04:21 PM 33.4°F0.8°C 9.7°F-12.4°C 37% 10.0 mph WNW16.1 kmh WNW 21.0 mph33.8 kmh 30.54 in1034.2 mb 0.00 in0.0 mm 0.00 in0.0 mm 0.02 in0.5 mm
04:22 PM 33.5°F0.8°C 9.8°F-12.3°C 37% 12.0 mph NW19.3 kmh NW 21.0 mph33.8 kmh 30.53 in1033.9 mb 0.00 in0.0 mm 0.00 in0.0 mm 0.02 in0.5 mm
04:23 PM 34.0°F1.1°C 12.0°F-11.1°C 40% 6.0 mph W9.7 kmh W 21.0 mph33.8 kmh 30.53 in1033.9 mb 0.00 in0.0 mm 0.00 in0.0 mm 0.02 in0.5 mm
04:24 PM 34.0°F1.1°C 10.2°F-12.1°C 37% 10.0 mph WNW16.1 kmh WNW 21.0 mph33.8 kmh 30.53 in1033.9 mb 0.00 in0.0 mm 0.00 in0.0 mm 0.02 in0.5 mm
04:25 PM 34.0°F1.1°C 10.2°F-12.1°C 37% 8.0 mph NW12.9 kmh NW 18.0 mph29.0 kmh 30.54 in1034.2 mb 0.00 in0.0 mm 0.00 in0.0 mm 0.02 in0.5 mm
04:26 PM 34.0°F1.1°C 9.0°F-12.8°C 35% 12.0 mph NW19.3 kmh NW 18.0 mph29.0 kmh 30.53 in1033.9 mb 0.00 in0.0 mm 0.00 in0.0 mm 0.02 in0.5 mm
04:27 PM 34.0°F1.1°C 10.2°F-12.1°C 37% 11.0 mph NW17.7 kmh NW 18.0 mph29.0 kmh 30.54 in1034.2 mb 0.00 in0.0 mm 0.00 in0.0 mm 0.02 in0.5 mm
04:28 PM 34.0°F1.1°C 10.2°F-12.1°C 37% 15.0 mph W24.1 kmh W 17.0 mph27.4 kmh 30.53 in1033.9 mb 0.00 in0.0 mm 0.00 in0.0 mm 0.02 in0.5 mm
04:29 PM 33.8°F1.0°C 10.0°F-12.2°C 37% 11.0 mph WNW17.7 kmh WNW 17.0 mph27.4 kmh 30.53 in1033.9 mb 0.00 in0.0 mm 0.00 in0.0 mm 0.02 in0.5 mm
04:30 PM 33.8°F1.0°C 11.2°F-11.6°C 39% 10.0 mph NNW16.1 kmh NNW 17.0 mph27.4 kmh 30.53 in1033.9 mb 0.00 in0.0 mm 0.00 in0.0 mm 0.02 in0.5 mm
04:31 PM 33.8°F1.0°C 11.2°F-11.6°C 39% 8.0 mph NNE12.9 kmh NNE 17.0 mph27.4 kmh 30.54 in1034.2 mb 0.00 in0.0 mm 0.00 in0.0 mm 0.02 in0.5 mm
04:32 PM 33.8°F1.0°C 11.2°F-11.6°C 39% 7.0 mph NW11.3 kmh NW 17.0 mph27.4 kmh 30.53 in1033.9 mb 0.00 in0.0 mm 0.00 in0.0 mm 0.02 in0.5 mm
04:33 PM 34.0°F1.1°C 11.4°F-11.4°C 39% 8.0 mph NNW12.9 kmh NNW 17.0 mph27.4 kmh 30.54 in1034.2 mb 0.00 in0.0 mm 0.00 in0.0 mm 0.02 in0.5 mm
04:34 PM 34.0°F1.1°C 11.4°F-11.4°C 39% 12.0 mph WNW19.3 kmh WNW 17.0 mph27.4 kmh 30.53 in1033.9 mb 0.00 in0.0 mm 0.00 in0.0 mm 0.02 in0.5 mm
04:35 PM 34.0°F1.1°C 10.2°F-12.1°C 37% 10.0 mph NW16.1 kmh NW 17.0 mph27.4 kmh 30.54 in1034.2 mb 0.00 in0.0 mm 0.00 in0.0 mm 0.02 in0.5 mm
04:36 PM 34.0°F1.1°C 9.0°F-12.8°C 35% 11.0 mph NNW17.7 kmh NNW 17.0 mph27.4 kmh 30.54 in1034.2 mb 0.00 in0.0 mm 0.00 in0.0 mm 0.02 in0.5 mm
04:37 PM 33.8°F1.0°C 8.8°F-12.9°C 35% 16.0 mph WNW25.7 kmh WNW 17.0 mph27.4 kmh 30.54 in1034.2 mb 0.00 in0.0 mm 0.00 in0.0 mm 0.02 in0.5 mm
04:38 PM 33.8°F1.0°C 10.0°F-12.2°C 37% 13.0 mph WNW20.9 kmh WNW 17.0 mph27.4 kmh 30.53 in1033.9 mb 0.00 in0.0 mm 0.00 in0.0 mm 0.02 in0.5 mm
04:39 PM 33.4°F0.8°C 8.4°F-13.1°C 35% 13.0 mph WNW20.9 kmh WNW 17.0 mph27.4 kmh 30.54 in1034.2 mb 0.00 in0.0 mm 0.00 in0.0 mm 0.02 in0.5 mm
04:40 PM 33.2°F0.7°C 8.3°F-13.2°C 35% 16.0 mph WNW25.7 kmh WNW 17.0 mph27.4 kmh 30.54 in1034.2 mb 0.00 in0.0 mm 0.00 in0.0 mm 0.02 in0.5 mm
04:41 PM 33.0°F0.6°C 8.1°F-13.3°C 35% 11.0 mph WNW17.7 kmh WNW 17.0 mph27.4 kmh 30.54 in1034.2 mb 0.00 in0.0 mm 0.00 in0.0 mm 0.02 in0.5 mm
04:42 PM 33.2°F0.7°C 10.7°F-11.8°C 39% 12.0 mph NNW19.3 kmh NNW 17.0 mph27.4 kmh 30.54 in1034.2 mb 0.00 in0.0 mm 0.00 in0.0 mm 0.02 in0.5 mm
04:43 PM 33.2°F0.7°C 10.7°F-11.8°C 39% 12.0 mph W19.3 kmh W 17.0 mph27.4 kmh 30.55 in1034.5 mb 0.00 in0.0 mm 0.00 in0.0 mm 0.02 in0.5 mm
04:44 PM 33.0°F0.6°C 9.3°F-12.6°C 37% 12.0 mph NW19.3 kmh NW 17.0 mph27.4 kmh 30.54 in1034.2 mb 0.00 in0.0 mm 0.00 in0.0 mm 0.02 in0.5 mm
04:45 PM 33.0°F0.6°C 9.3°F-12.6°C 37% 12.0 mph WNW19.3 kmh WNW 17.0 mph27.4 kmh 30.54 in1034.2 mb 0.00 in0.0 mm 0.00 in0.0 mm 0.02 in0.5 mm
04:46 PM 33.0°F0.6°C 10.5°F-11.9°C 39% 10.0 mph WNW16.1 kmh WNW 17.0 mph27.4 kmh 30.54 in1034.2 mb 0.00 in0.0 mm 0.00 in0.0 mm 0.02 in0.5 mm
04:47 PM 33.0°F0.6°C 11.1°F-11.6°C 40% 11.0 mph WNW17.7 kmh WNW 16.0 mph25.7 kmh 30.54 in1034.2 mb 0.00 in0.0 mm 0.00 in0.0 mm 0.02 in0.5 mm
04:48 PM 32.9°F0.5°C 11.0°F-11.7°C 40% 10.0 mph NW16.1 kmh NW 16.0 mph25.7 kmh 30.54 in1034.2 mb 0.00 in0.0 mm 0.00 in0.0 mm 0.02 in0.5 mm
04:49 PM 32.6°F0.3°C 10.2°F-12.1°C 39% 6.0 mph NNW9.7 kmh NNW 16.0 mph25.7 kmh 30.55 in1034.5 mb 0.00 in0.0 mm 0.00 in0.0 mm 0.02 in0.5 mm
04:50 PM 32.6°F0.3°C 10.2°F-12.1°C 39% 12.0 mph WNW19.3 kmh WNW 16.0 mph25.7 kmh 30.55 in1034.5 mb 0.00 in0.0 mm 0.00 in0.0 mm 0.02 in0.5 mm
04:51 PM 32.4°F0.2°C 8.8°F-12.9°C 37% 10.0 mph WNW16.1 kmh WNW 16.0 mph25.7 kmh 30.55 in1034.5 mb 0.00 in0.0 mm 0.00 in0.0 mm 0.02 in0.5 mm
04:52 PM 32.4°F0.2°C 10.5°F-11.9°C 40% 7.0 mph WNW11.3 kmh WNW 16.0 mph25.7 kmh 30.55 in1034.5 mb 0.00 in0.0 mm 0.00 in0.0 mm 0.02 in0.5 mm
04:53 PM 32.2°F0.1°C 9.8°F-12.3°C 39% 8.0 mph NW12.9 kmh NW 14.0 mph22.5 kmh 30.55 in1034.5 mb 0.00 in0.0 mm 0.00 in0.0 mm 0.02 in0.5 mm
04:54 PM 32.2°F0.1°C 8.6°F-13.0°C 37% 8.0 mph NW12.9 kmh NW 12.0 mph19.3 kmh 30.54 in1034.2 mb 0.00 in0.0 mm 0.00 in0.0 mm 0.02 in0.5 mm
04:55 PM 31.9°F-0.1°C 8.3°F-13.2°C 37% 6.0 mph NNW9.7 kmh NNW 12.0 mph19.3 kmh 30.55 in1034.5 mb 0.00 in0.0 mm 0.00 in0.0 mm 0.02 in0.5 mm
04:56 PM 31.9°F-0.1°C 9.5°F-12.5°C 39% 5.0 mph NNW8.0 kmh NNW 12.0 mph19.3 kmh 30.55 in1034.5 mb 0.00 in0.0 mm 0.00 in0.0 mm 0.02 in0.5 mm
04:57 PM 31.9°F-0.1°C 8.3°F-13.2°C 37% 6.0 mph WNW9.7 kmh WNW 12.0 mph19.3 kmh 30.55 in1034.5 mb 0.00 in0.0 mm 0.00 in0.0 mm 0.02 in0.5 mm
04:58 PM 31.9°F-0.1°C 10.1°F-12.2°C 40% 10.0 mph WNW16.1 kmh WNW 12.0 mph19.3 kmh 30.55 in1034.5 mb 0.00 in0.0 mm 0.00 in0.0 mm 0.02 in0.5 mm
04:59 PM 31.9°F-0.1°C 9.5°F-12.5°C 39% 5.0 mph NNW8.0 kmh NNW 13.0 mph20.9 kmh 30.55 in1034.5 mb 0.00 in0.0 mm 0.00 in0.0 mm 0.02 in0.5 mm
05:00 PM 31.9°F-0.1°C 9.5°F-12.5°C 39% 11.0 mph WNW17.7 kmh WNW 13.0 mph20.9 kmh 30.55 in1034.5 mb 0.00 in0.0 mm 0.00 in0.0 mm 0.02 in0.5 mm
05:01 PM 31.9°F-0.1°C 7.1°F-13.8°C 35% 9.0 mph NW14.5 kmh NW 13.0 mph20.9 kmh 30.55 in1034.5 mb 0.00 in0.0 mm 0.00 in0.0 mm 0.02 in0.5 mm
05:02 PM 31.9°F-0.1°C 8.3°F-13.2°C 37% 9.0 mph NW14.5 kmh NW 13.0 mph20.9 kmh 30.55 in1034.5 mb 0.00 in0.0 mm 0.00 in0.0 mm 0.02 in0.5 mm
05:03 PM 31.9°F-0.1°C 8.3°F-13.2°C 37% 10.0 mph WNW16.1 kmh WNW 13.0 mph20.9 kmh 30.55 in1034.5 mb 0.00 in0.0 mm 0.00 in0.0 mm 0.02 in0.5 mm
05:04 PM 31.9°F-0.1°C 9.5°F-12.5°C 39% 11.0 mph W17.7 kmh W 13.0 mph20.9 kmh 30.55 in1034.5 mb 0.00 in0.0 mm 0.00 in0.0 mm 0.02 in0.5 mm
05:05 PM 31.9°F-0.1°C 10.1°F-12.2°C 40% 11.0 mph WNW17.7 kmh WNW 13.0 mph20.9 kmh 30.55 in1034.5 mb 0.00 in0.0 mm 0.00 in0.0 mm 0.02 in0.5 mm
05:06 PM 31.9°F-0.1°C 8.3°F-13.2°C 37% 12.0 mph NW19.3 kmh NW 16.0 mph25.7 kmh 30.55 in1034.5 mb 0.00 in0.0 mm 0.00 in0.0 mm 0.02 in0.5 mm
05:07 PM 31.7°F-0.2°C 8.2°F-13.2°C 37% 10.0 mph NW16.1 kmh NW 16.0 mph25.7 kmh 30.55 in1034.5 mb 0.00 in0.0 mm 0.00 in0.0 mm 0.02 in0.5 mm
05:08 PM 31.7°F-0.2°C 8.2°F-13.2°C 37% 15.0 mph NW24.1 kmh NW 16.0 mph25.7 kmh 30.56 in1034.9 mb 0.00 in0.0 mm 0.00 in0.0 mm 0.02 in0.5 mm
05:09 PM 31.7°F-0.2°C 8.2°F-13.2°C 37% 12.0 mph WNW19.3 kmh WNW 16.0 mph25.7 kmh 30.56 in1034.9 mb 0.00 in0.0 mm 0.00 in0.0 mm 0.02 in0.5 mm
05:10 PM 31.7°F-0.2°C 8.2°F-13.2°C 37% 10.0 mph WNW16.1 kmh WNW 16.0 mph25.7 kmh 30.56 in1034.9 mb 0.00 in0.0 mm 0.00 in0.0 mm 0.02 in0.5 mm
05:11 PM 31.6°F-0.2°C 8.1°F-13.3°C 37% 10.0 mph NW16.1 kmh NW 16.0 mph25.7 kmh 30.55 in1034.5 mb 0.00 in0.0 mm 0.00 in0.0 mm 0.02 in0.5 mm
05:12 PM 31.5°F-0.3°C 8.0°F-13.3°C 37% 10.0 mph NW16.1 kmh NW 16.0 mph25.7 kmh 30.56 in1034.9 mb 0.00 in0.0 mm 0.00 in0.0 mm 0.02 in0.5 mm
05:13 PM 31.5°F-0.3°C 9.2°F-12.7°C 39% 10.0 mph NW16.1 kmh NW 16.0 mph25.7 kmh 30.56 in1034.9 mb 0.00 in0.0 mm 0.00 in0.0 mm 0.02 in0.5 mm
05:14 PM 31.5°F-0.3°C 9.7°F-12.4°C 40% 7.0 mph WNW11.3 kmh WNW 16.0 mph25.7 kmh 30.56 in1034.9 mb 0.00 in0.0 mm 0.00 in0.0 mm 0.02 in0.5 mm
05:15 PM 31.5°F-0.3°C 11.4°F-11.4°C 43% 8.0 mph NW12.9 kmh NW 16.0 mph25.7 kmh 30.56 in1034.9 mb 0.00 in0.0 mm 0.00 in0.0 mm 0.02 in0.5 mm
05:16 PM 31.2°F-0.4°C 9.5°F-12.5°C 40% 10.0 mph NW16.1 kmh NW 15.0 mph24.1 kmh 30.56 in1034.9 mb 0.00 in0.0 mm 0.00 in0.0 mm 0.02 in0.5 mm
05:17 PM 31.2°F-0.4°C 8.9°F-12.8°C 39% 10.0 mph WNW16.1 kmh WNW 15.0 mph24.1 kmh 30.56 in1034.9 mb 0.00 in0.0 mm 0.00 in0.0 mm 0.02 in0.5 mm
05:18 PM 31.1°F-0.5°C 9.4°F-12.6°C 40% 7.0 mph NNW11.3 kmh NNW 15.0 mph24.1 kmh 30.57 in1035.2 mb 0.00 in0.0 mm 0.00 in0.0 mm 0.02 in0.5 mm
05:19 PM 31.1°F-0.5°C 9.4°F-12.6°C 40% 10.0 mph NW16.1 kmh NW 15.0 mph24.1 kmh 30.56 in1034.9 mb 0.00 in0.0 mm 0.00 in0.0 mm 0.02 in0.5 mm
05:20 PM 31.1°F-0.5°C 9.4°F-12.6°C 40% 11.0 mph NW17.7 kmh NW 15.0 mph24.1 kmh 30.56 in1034.9 mb 0.00 in0.0 mm 0.00 in0.0 mm 0.02 in0.5 mm
05:21 PM 31.1°F-0.5°C 9.4°F-12.6°C 40% 10.0 mph NW16.1 kmh NW 12.0 mph19.3 kmh 30.55 in1034.5 mb 0.00 in0.0 mm 0.00 in0.0 mm 0.02 in0.5 mm
05:22 PM 30.8°F-0.7°C 8.5°F-13.1°C 39% 9.0 mph NW14.5 kmh NW 11.0 mph17.7 kmh 30.56 in1034.9 mb 0.00 in0.0 mm 0.00 in0.0 mm 0.02 in0.5 mm
05:23 PM 30.8°F-0.7°C 7.3°F-13.7°C 37% 13.0 mph NW20.9 kmh NW 13.0 mph20.9 kmh 30.56 in1034.9 mb 0.00 in0.0 mm 0.00 in0.0 mm 0.02 in0.5 mm
05:24 PM 30.8°F-0.7°C 9.1°F-12.7°C 40% 12.0 mph NW19.3 kmh NW 17.0 mph27.4 kmh 30.57 in1035.2 mb 0.00 in0.0 mm 0.00 in0.0 mm 0.02 in0.5 mm
05:25 PM 30.8°F-0.7°C 8.5°F-13.1°C 39% 11.0 mph NW17.7 kmh NW 17.0 mph27.4 kmh 30.56 in1034.9 mb 0.00 in0.0 mm 0.00 in0.0 mm 0.02 in0.5 mm
05:26 PM 30.8°F-0.7°C 9.7°F-12.4°C 41% 15.0 mph NW24.1 kmh NW 17.0 mph27.4 kmh 30.57 in1035.2 mb 0.00 in0.0 mm 0.00 in0.0 mm 0.02 in0.5 mm
05:28 PM 30.8°F-0.7°C 9.7°F-12.4°C 41% 9.0 mph NW14.5 kmh NW 17.0 mph27.4 kmh 30.57 in1035.2 mb 0.00 in0.0 mm 0.00 in0.0 mm 0.02 in0.5 mm
05:29 PM 30.8°F-0.7°C 9.1°F-12.7°C 40% 7.0 mph NW11.3 kmh NW 17.0 mph27.4 kmh 30.56 in1034.9 mb 0.00 in0.0 mm 0.00 in0.0 mm 0.02 in0.5 mm
05:30 PM 30.8°F-0.7°C 9.1°F-12.7°C 40% 11.0 mph NNW17.7 kmh NNW 17.0 mph27.4 kmh 30.57 in1035.2 mb 0.00 in0.0 mm 0.00 in0.0 mm 0.02 in0.5 mm
05:31 PM 30.8°F-0.7°C 8.5°F-13.1°C 39% 12.0 mph NNW19.3 kmh NNW 17.0 mph27.4 kmh 30.57 in1035.2 mb 0.00 in0.0 mm 0.00 in0.0 mm 0.02 in0.5 mm
05:32 PM 30.8°F-0.7°C 9.1°F-12.7°C 40% 13.0 mph NW20.9 kmh NW 17.0 mph27.4 kmh 30.57 in1035.2 mb 0.00 in0.0 mm 0.00 in0.0 mm 0.02 in0.5 mm
05:33 PM 30.8°F-0.7°C 9.7°F-12.4°C 41% 12.0 mph NW19.3 kmh NW 18.0 mph29.0 kmh 30.56 in1034.9 mb 0.00 in0.0 mm 0.00 in0.0 mm 0.02 in0.5 mm
05:34 PM 30.8°F-0.7°C 10.8°F-11.8°C 43% 9.0 mph NW14.5 kmh NW 18.0 mph29.0 kmh 30.57 in1035.2 mb 0.00 in0.0 mm 0.00 in0.0 mm 0.02 in0.5 mm
05:35 PM 30.8°F-0.7°C 9.7°F-12.4°C 41% 10.0 mph WNW16.1 kmh WNW 18.0 mph29.0 kmh 30.56 in1034.9 mb 0.00 in0.0 mm 0.00 in0.0 mm 0.02 in0.5 mm
05:36 PM 30.8°F-0.7°C 9.1°F-12.7°C 40% 11.0 mph NW17.7 kmh NW 18.0 mph29.0 kmh 30.57 in1035.2 mb 0.00 in0.0 mm 0.00 in0.0 mm 0.02 in0.5 mm
05:37 PM 30.8°F-0.7°C 9.1°F-12.7°C 40% 11.0 mph WNW17.7 kmh WNW 18.0 mph29.0 kmh 30.56 in1034.9 mb 0.00 in0.0 mm 0.00 in0.0 mm 0.02 in0.5 mm
05:38 PM 30.8°F-0.7°C 9.1°F-12.7°C 40% 9.0 mph NW14.5 kmh NW 18.0 mph29.0 kmh 30.57 in1035.2 mb 0.00 in0.0 mm 0.00 in0.0 mm 0.02 in0.5 mm
05:39 PM 30.7°F-0.7°C 8.4°F-13.1°C 39% 8.0 mph WNW12.9 kmh WNW 18.0 mph29.0 kmh 30.56 in1034.9 mb 0.00 in0.0 mm 0.00 in0.0 mm 0.02 in0.5 mm
05:40 PM 30.7°F-0.7°C 9.0°F-12.8°C 40% 10.0 mph WNW16.1 kmh WNW 18.0 mph29.0 kmh 30.57 in1035.2 mb 0.00 in0.0 mm 0.00 in0.0 mm 0.02 in0.5 mm
05:41 PM 30.7°F-0.7°C 9.0°F-12.8°C 40% 11.0 mph WNW17.7 kmh WNW 18.0 mph29.0 kmh 30.57 in1035.2 mb 0.00 in0.0 mm 0.00 in0.0 mm 0.02 in0.5 mm
05:42 PM 30.7°F-0.7°C 9.0°F-12.8°C 40% 12.0 mph NW19.3 kmh NW 18.0 mph29.0 kmh 30.57 in1035.2 mb 0.00 in0.0 mm 0.00 in0.0 mm 0.02 in0.5 mm
05:43 PM 30.7°F-0.7°C 9.0°F-12.8°C 40% 12.0 mph NNW19.3 kmh NNW 14.0 mph22.5 kmh 30.57 in1035.2 mb 0.00 in0.0 mm 0.00 in0.0 mm 0.02 in0.5 mm
05:44 PM 30.7°F-0.7°C 8.4°F-13.1°C 39% 8.0 mph WNW12.9 kmh WNW 14.0 mph22.5 kmh 30.57 in1035.2 mb 0.00 in0.0 mm 0.00 in0.0 mm 0.02 in0.5 mm
05:45 PM 30.7°F-0.7°C 9.6°F-12.4°C 41% 10.0 mph W16.1 kmh W 14.0 mph22.5 kmh 30.56 in1034.9 mb 0.00 in0.0 mm 0.00 in0.0 mm 0.02 in0.5 mm
05:46 PM 30.7°F-0.7°C 9.0°F-12.8°C 40% 13.0 mph W20.9 kmh W 14.0 mph22.5 kmh 30.57 in1035.2 mb 0.00 in0.0 mm 0.00 in0.0 mm 0.02 in0.5 mm
05:47 PM 30.7°F-0.7°C 9.0°F-12.8°C 40% 10.0 mph WNW16.1 kmh WNW 14.0 mph22.5 kmh 30.57 in1035.2 mb 0.00 in0.0 mm 0.00 in0.0 mm 0.02 in0.5 mm
05:48 PM 30.7°F-0.7°C 9.6°F-12.4°C 41% 9.0 mph NW14.5 kmh NW 14.0 mph22.5 kmh 30.57 in1035.2 mb 0.00 in0.0 mm 0.00 in0.0 mm 0.02 in0.5 mm
05:49 PM 30.7°F-0.7°C 10.7°F-11.8°C 43% 8.0 mph WNW12.9 kmh WNW 13.0 mph20.9 kmh 30.57 in1035.2 mb 0.00 in0.0 mm 0.00 in0.0 mm 0.02 in0.5 mm
05:50 PM 30.7°F-0.7°C 9.0°F-12.8°C 40% 9.0 mph NW14.5 kmh NW 13.0 mph20.9 kmh 30.57 in1035.2 mb 0.00 in0.0 mm 0.00 in0.0 mm 0.02 in0.5 mm
05:51 PM 30.5°F-0.8°C 9.4°F-12.6°C 41% 11.0 mph WNW17.7 kmh WNW 13.0 mph20.9 kmh 30.57 in1035.2 mb 0.00 in0.0 mm 0.00 in0.0 mm 0.02 in0.5 mm
05:52 PM 30.5°F-0.8°C 8.8°F-12.9°C 40% 8.0 mph NW12.9 kmh NW 13.0 mph20.9 kmh 30.58 in1035.6 mb 0.00 in0.0 mm 0.00 in0.0 mm 0.02 in0.5 mm
05:53 PM 30.5°F-0.8°C 9.4°F-12.6°C 41% 9.0 mph WNW14.5 kmh WNW 13.0 mph20.9 kmh 30.57 in1035.2 mb 0.00 in0.0 mm 0.00 in0.0 mm 0.02 in0.5 mm
05:54 PM 30.5°F-0.8°C 9.4°F-12.6°C 41% 8.0 mph WNW12.9 kmh WNW 13.0 mph20.9 kmh 30.57 in1035.2 mb 0.00 in0.0 mm 0.00 in0.0 mm 0.02 in0.5 mm
05:55 PM 30.5°F-0.8°C 10.5°F-11.9°C 43% 9.0 mph WNW14.5 kmh WNW 13.0 mph20.9 kmh 30.57 in1035.2 mb 0.00 in0.0 mm 0.00 in0.0 mm 0.02 in0.5 mm
05:56 PM 30.3°F-0.9°C 8.7°F-12.9°C 40% 6.0 mph WNW9.7 kmh WNW 12.0 mph19.3 kmh 30.58 in1035.6 mb 0.00 in0.0 mm 0.00 in0.0 mm 0.02 in0.5 mm
05:57 PM 30.3°F-0.9°C 10.3°F-12.1°C 43% 5.0 mph W8.0 kmh W 12.0 mph19.3 kmh 30.58 in1035.6 mb 0.00 in0.0 mm 0.00 in0.0 mm 0.02 in0.5 mm
05:58 PM 30.3°F-0.9°C 9.2°F-12.7°C 41% 6.0 mph WNW9.7 kmh WNW 12.0 mph19.3 kmh 30.58 in1035.6 mb 0.00 in0.0 mm 0.00 in0.0 mm 0.02 in0.5 mm
05:59 PM 30.3°F-0.9°C 9.2°F-12.7°C 41% 7.0 mph WNW11.3 kmh WNW 12.0 mph19.3 kmh 30.57 in1035.2 mb 0.00 in0.0 mm 0.00 in0.0 mm 0.02 in0.5 mm
06:00 PM 30.3°F-0.9°C 9.2°F-12.7°C 41% 8.0 mph WNW12.9 kmh WNW 12.0 mph19.3 kmh 30.58 in1035.6 mb 0.00 in0.0 mm 0.00 in0.0 mm 0.02 in0.5 mm
06:01 PM 30.3°F-0.9°C 9.2°F-12.7°C 41% 10.0 mph 16.1 kmh 10.0 mph16.1 kmh 30.58 in1035.6 mb 0.00 in0.0 mm 0.00 in0.0 mm 0.02 in0.5 mm
06:02 PM 30.3°F-0.9°C 9.2°F-12.7°C 41% 8.0 mph NW12.9 kmh NW 10.0 mph16.1 kmh 30.58 in1035.6 mb 0.00 in0.0 mm 0.00 in0.0 mm 0.02 in0.5 mm
06:03 PM 30.3°F-0.9°C 9.2°F-12.7°C 41% 7.0 mph WNW11.3 kmh WNW 10.0 mph16.1 kmh 30.58 in1035.6 mb 0.00 in0.0 mm 0.00 in0.0 mm 0.02 in0.5 mm
06:04 PM 30.3°F-0.9°C 8.7°F-12.9°C 40% 9.0 mph WNW14.5 kmh WNW 10.0 mph16.1 kmh 30.58 in1035.6 mb 0.00 in0.0 mm 0.00 in0.0 mm 0.02 in0.5 mm
06:05 PM 30.1°F-1.1°C 7.9°F-13.4°C 39% 7.0 mph NNW11.3 kmh NNW 10.0 mph16.1 kmh 30.58 in1035.6 mb 0.00 in0.0 mm 0.00 in0.0 mm 0.02 in0.5 mm
06:06 PM 30.1°F-1.1°C 9.0°F-12.8°C 41% 8.0 mph WNW12.9 kmh WNW 10.0 mph16.1 kmh 30.58 in1035.6 mb 0.00 in0.0 mm 0.00 in0.0 mm 0.02 in0.5 mm
06:07 PM 30.1°F-1.1°C 8.5°F-13.1°C 40% 10.0 mph WNW16.1 kmh WNW 10.0 mph16.1 kmh 30.58 in1035.6 mb 0.00 in0.0 mm 0.00 in0.0 mm 0.02 in0.5 mm
06:08 PM 30.1°F-1.1°C 8.5°F-13.1°C 40% 12.0 mph NW19.3 kmh NW 14.0 mph22.5 kmh 30.59 in1035.9 mb 0.00 in0.0 mm 0.00 in0.0 mm 0.02 in0.5 mm
06:09 PM 30.1°F-1.1°C 8.5°F-13.1°C 40% 9.0 mph NW14.5 kmh NW 14.0 mph22.5 kmh 30.58 in1035.6 mb 0.00 in0.0 mm 0.00 in0.0 mm 0.02 in0.5 mm
06:10 PM 30.1°F-1.1°C 10.1°F-12.2°C 43% 8.0 mph NW12.9 kmh NW 14.0 mph22.5 kmh 30.59 in1035.9 mb 0.00 in0.0 mm 0.00 in0.0 mm 0.02 in0.5 mm
06:11 PM 30.1°F-1.1°C 9.0°F-12.8°C 41% 7.0 mph WNW11.3 kmh WNW 14.0 mph22.5 kmh 30.58 in1035.6 mb 0.00 in0.0 mm 0.00 in0.0 mm 0.02 in0.5 mm
06:12 PM 30.1°F-1.1°C 9.0°F-12.8°C 41% 7.0 mph WNW11.3 kmh WNW 14.0 mph22.5 kmh 30.59 in1035.9 mb 0.00 in0.0 mm 0.00 in0.0 mm 0.02 in0.5 mm
06:13 PM 30.1°F-1.1°C 10.1°F-12.2°C 43% 8.0 mph NW12.9 kmh NW 14.0 mph22.5 kmh 30.59 in1035.9 mb 0.00 in0.0 mm 0.00 in0.0 mm 0.02 in0.5 mm
06:14 PM 30.1°F-1.1°C 9.0°F-12.8°C 41% 7.0 mph NW11.3 kmh NW 14.0 mph22.5 kmh 30.59 in1035.9 mb 0.00 in0.0 mm 0.00 in0.0 mm 0.02 in0.5 mm
06:15 PM 30.0°F-1.1°C 8.4°F-13.1°C 40% 6.0 mph WNW9.7 kmh WNW 14.0 mph22.5 kmh 30.59 in1035.9 mb 0.00 in0.0 mm 0.00 in0.0 mm 0.02 in0.5 mm
06:16 PM 30.0°F-1.1°C 8.4°F-13.1°C 40% 4.0 mph NW6.4 kmh NW 14.0 mph22.5 kmh 30.59 in1035.9 mb 0.00 in0.0 mm 0.00 in0.0 mm 0.02 in0.5 mm
06:17 PM 30.0°F-1.1°C 10.6°F-11.9°C 44% 7.0 mph WNW11.3 kmh WNW 14.0 mph22.5 kmh 30.59 in1035.9 mb 0.00 in0.0 mm 0.00 in0.0 mm 0.02 in0.5 mm
06:18 PM 30.0°F-1.1°C 8.9°F-12.8°C 41% 8.0 mph NW12.9 kmh NW 9.0 mph14.5 kmh 30.59 in1035.9 mb 0.00 in0.0 mm 0.00 in0.0 mm 0.02 in0.5 mm
06:19 PM 30.0°F-1.1°C 10.0°F-12.2°C 43% 6.0 mph WNW9.7 kmh WNW 9.0 mph14.5 kmh 30.59 in1035.9 mb 0.00 in0.0 mm 0.00 in0.0 mm 0.02 in0.5 mm
06:20 PM 30.0°F-1.1°C 10.0°F-12.2°C 43% 8.0 mph WNW12.9 kmh WNW 9.0 mph14.5 kmh 30.59 in1035.9 mb 0.00 in0.0 mm 0.00 in0.0 mm 0.02 in0.5 mm
06:21 PM 30.0°F-1.1°C 8.4°F-13.1°C 40% 8.0 mph NW12.9 kmh NW 9.0 mph14.5 kmh 30.59 in1035.9 mb 0.00 in0.0 mm 0.00 in0.0 mm 0.02 in0.5 mm
06:22 PM 29.8°F-1.2°C 8.2°F-13.2°C 40% 7.0 mph NW11.3 kmh NW 9.0 mph14.5 kmh 30.59 in1035.9 mb 0.00 in0.0 mm 0.00 in0.0 mm 0.02 in0.5 mm
06:23 PM 29.8°F-1.2°C 8.8°F-12.9°C 41% 7.0 mph NNW11.3 kmh NNW 9.0 mph14.5 kmh 30.59 in1035.9 mb 0.00 in0.0 mm 0.00 in0.0 mm 0.02 in0.5 mm
06:24 PM 29.8°F-1.2°C 8.8°F-12.9°C 41% 7.0 mph NW11.3 kmh NW 9.0 mph14.5 kmh 30.59 in1035.9 mb 0.00 in0.0 mm 0.00 in0.0 mm 0.02 in0.5 mm
06:25 PM 29.8°F-1.2°C 8.2°F-13.2°C 40% 6.0 mph NW9.7 kmh NW 9.0 mph14.5 kmh 30.59 in1035.9 mb 0.00 in0.0 mm 0.00 in0.0 mm 0.02 in0.5 mm
06:26 PM 29.8°F-1.2°C 8.2°F-13.2°C 40% 8.0 mph W12.9 kmh W 9.0 mph14.5 kmh 30.59 in1035.9 mb 0.00 in0.0 mm 0.00 in0.0 mm 0.02 in0.5 mm
06:27 PM 29.8°F-1.2°C 8.2°F-13.2°C 40% 8.0 mph NNW12.9 kmh NNW 9.0 mph14.5 kmh 30.59 in1035.9 mb 0.00 in0.0 mm 0.00 in0.0 mm 0.02 in0.5 mm
06:28 PM 29.8°F-1.2°C 8.2°F-13.2°C 40% 7.0 mph WNW11.3 kmh WNW 9.0 mph14.5 kmh 30.60 in1036.2 mb 0.00 in0.0 mm 0.00 in0.0 mm 0.02 in0.5 mm
06:29 PM 29.8°F-1.2°C 8.2°F-13.2°C 40% 7.0 mph WNW11.3 kmh WNW 9.0 mph14.5 kmh 30.60 in1036.2 mb 0.00 in0.0 mm 0.00 in0.0 mm 0.02 in0.5 mm
06:30 PM 29.8°F-1.2°C 8.2°F-13.2°C 40% 6.0 mph NW9.7 kmh NW 9.0 mph14.5 kmh 30.60 in1036.2 mb 0.00 in0.0 mm 0.00 in0.0 mm 0.02 in0.5 mm
06:31 PM 29.8°F-1.2°C 9.8°F-12.3°C 43% 6.0 mph WNW9.7 kmh WNW 9.0 mph14.5 kmh 30.59 in1035.9 mb 0.00 in0.0 mm 0.00 in0.0 mm 0.02 in0.5 mm
06:32 PM 29.8°F-1.2°C 10.4°F-12.0°C 44% 6.0 mph NW9.7 kmh NW 9.0 mph14.5 kmh 30.60 in1036.2 mb 0.00 in0.0 mm 0.00 in0.0 mm 0.02 in0.5 mm
06:33 PM 29.8°F-1.2°C 8.8°F-12.9°C 41% 8.0 mph NW12.9 kmh NW 9.0 mph14.5 kmh 30.60 in1036.2 mb 0.00 in0.0 mm 0.00 in0.0 mm 0.02 in0.5 mm
06:34 PM 29.8°F-1.2°C 8.2°F-13.2°C 40% 6.0 mph W9.7 kmh W 9.0 mph14.5 kmh 30.60 in1036.2 mb 0.00 in0.0 mm 0.00 in0.0 mm 0.02 in0.5 mm
06:35 PM 29.8°F-1.2°C 9.8°F-12.3°C 43% 4.0 mph WNW6.4 kmh WNW 9.0 mph14.5 kmh 30.60 in1036.2 mb 0.00 in0.0 mm 0.00 in0.0 mm 0.02 in0.5 mm
06:36 PM 29.8°F-1.2°C 9.8°F-12.3°C 43% 9.0 mph NW14.5 kmh NW 9.0 mph14.5 kmh 30.60 in1036.2 mb 0.00 in0.0 mm 0.00 in0.0 mm 0.02 in0.5 mm
06:37 PM 29.8°F-1.2°C 8.8°F-12.9°C 41% 6.0 mph W9.7 kmh W 9.0 mph14.5 kmh 30.59 in1035.9 mb 0.00 in0.0 mm 0.00 in0.0 mm 0.02 in0.5 mm
06:38 PM 29.8°F-1.2°C 10.4°F-12.0°C 44% 5.0 mph WNW8.0 kmh WNW 9.0 mph14.5 kmh 30.60 in1036.2 mb 0.00 in0.0 mm 0.00 in0.0 mm 0.02 in0.5 mm
06:39 PM 29.8°F-1.2°C 9.8°F-12.3°C 43% 5.0 mph WNW8.0 kmh WNW 9.0 mph14.5 kmh 30.60 in1036.2 mb 0.00 in0.0 mm 0.00 in0.0 mm 0.02 in0.5 mm
06:40 PM 29.8°F-1.2°C 9.8°F-12.3°C 43% 4.0 mph WNW6.4 kmh WNW 9.0 mph14.5 kmh 30.60 in1036.2 mb 0.00 in0.0 mm 0.00 in0.0 mm 0.02 in0.5 mm
06:41 PM 29.6°F-1.3°C 8.6°F-13.0°C 41% 6.0 mph NW9.7 kmh NW 9.0 mph14.5 kmh 30.60 in1036.2 mb 0.00 in0.0 mm 0.00 in0.0 mm 0.02 in0.5 mm
06:42 PM 29.6°F-1.3°C 8.6°F-13.0°C 41% 5.0 mph NW8.0 kmh NW 9.0 mph14.5 kmh 30.60 in1036.2 mb 0.00 in0.0 mm 0.00 in0.0 mm 0.02 in0.5 mm
06:43 PM 29.6°F-1.3°C 8.6°F-13.0°C 41% 5.0 mph WNW8.0 kmh WNW 9.0 mph14.5 kmh 30.60 in1036.2 mb 0.00 in0.0 mm 0.00 in0.0 mm 0.02 in0.5 mm
06:44 PM 29.6°F-1.3°C 10.2°F-12.1°C 44% 5.0 mph WNW8.0 kmh WNW 9.0 mph14.5 kmh 30.60 in1036.2 mb 0.00 in0.0 mm 0.00 in0.0 mm 0.02 in0.5 mm
06:45 PM 29.5°F-1.4°C 7.9°F-13.4°C 40% 7.0 mph NW11.3 kmh NW 9.0 mph14.5 kmh 30.60 in1036.2 mb 0.00 in0.0 mm 0.00 in0.0 mm 0.02 in0.5 mm
06:46 PM 29.5°F-1.4°C 8.5°F-13.1°C 41% 5.0 mph WNW8.0 kmh WNW 9.0 mph14.5 kmh 30.60 in1036.2 mb 0.00 in0.0 mm 0.00 in0.0 mm 0.02 in0.5 mm
06:47 PM 29.5°F-1.4°C 10.1°F-12.2°C 44% 5.0 mph WNW8.0 kmh WNW 7.0 mph11.3 kmh 30.60 in1036.2 mb 0.00 in0.0 mm 0.00 in0.0 mm 0.02 in0.5 mm
06:48 PM 29.5°F-1.4°C 8.5°F-13.1°C 41% 6.0 mph WNW9.7 kmh WNW 7.0 mph11.3 kmh 30.60 in1036.2 mb 0.00 in0.0 mm 0.00 in0.0 mm 0.02 in0.5 mm
06:49 PM 29.5°F-1.4°C 7.9°F-13.4°C 40% 6.0 mph WNW9.7 kmh WNW 8.0 mph12.9 kmh 30.60 in1036.2 mb 0.00 in0.0 mm 0.00 in0.0 mm 0.02 in0.5 mm
06:50 PM 29.5°F-1.4°C 9.6°F-12.4°C 43% 4.0 mph W6.4 kmh W 8.0 mph12.9 kmh 30.60 in1036.2 mb 0.00 in0.0 mm 0.00 in0.0 mm 0.02 in0.5 mm
06:51 PM 29.5°F-1.4°C 8.5°F-13.1°C 41% 5.0 mph WNW8.0 kmh WNW 8.0 mph12.9 kmh 30.60 in1036.2 mb 0.00 in0.0 mm 0.00 in0.0 mm 0.02 in0.5 mm
06:52 PM 29.5°F-1.4°C 7.9°F-13.4°C 40% 5.0 mph WNW8.0 kmh WNW 8.0 mph12.9 kmh 30.60 in1036.2 mb 0.00 in0.0 mm 0.00 in0.0 mm 0.02 in0.5 mm
06:53 PM 29.5°F-1.4°C 8.5°F-13.1°C 41% 6.0 mph W9.7 kmh W 8.0 mph12.9 kmh 30.60 in1036.2 mb 0.00 in0.0 mm 0.00 in0.0 mm 0.02 in0.5 mm
06:54 PM 29.5°F-1.4°C 7.9°F-13.4°C 40% 6.0 mph W9.7 kmh W 8.0 mph12.9 kmh 30.60 in1036.2 mb 0.00 in0.0 mm 0.00 in0.0 mm 0.02 in0.5 mm
06:55 PM 29.5°F-1.4°C 8.5°F-13.1°C 41% 8.0 mph WNW12.9 kmh WNW 8.0 mph12.9 kmh 30.60 in1036.2 mb 0.00 in0.0 mm 0.00 in0.0 mm 0.02 in0.5 mm
06:56 PM 29.5°F-1.4°C 8.5°F-13.1°C 41% 6.0 mph WNW9.7 kmh WNW 9.0 mph14.5 kmh 30.60 in1036.2 mb 0.00 in0.0 mm 0.00 in0.0 mm 0.02 in0.5 mm
06:57 PM 29.5°F-1.4°C 7.9°F-13.4°C 40% 8.0 mph WNW12.9 kmh WNW 9.0 mph14.5 kmh 30.60 in1036.2 mb 0.00 in0.0 mm 0.00 in0.0 mm 0.02 in0.5 mm
06:58 PM 29.5°F-1.4°C 7.9°F-13.4°C 40% 7.0 mph W11.3 kmh W 9.0 mph14.5 kmh 30.61 in1036.6 mb 0.00 in0.0 mm 0.00 in0.0 mm 0.02 in0.5 mm
06:59 PM 29.5°F-1.4°C 8.5°F-13.1°C 41% 6.0 mph WNW9.7 kmh WNW 9.0 mph14.5 kmh 30.60 in1036.2 mb 0.00 in0.0 mm 0.00 in0.0 mm 0.02 in0.5 mm
07:00 PM 29.5°F-1.4°C 9.6°F-12.4°C 43% 7.0 mph W11.3 kmh W 9.0 mph14.5 kmh 30.60 in1036.2 mb 0.00 in0.0 mm 0.00 in0.0 mm 0.02 in0.5 mm
07:01 PM 29.5°F-1.4°C 10.1°F-12.2°C 44% 8.0 mph W12.9 kmh W 9.0 mph14.5 kmh 30.60 in1036.2 mb 0.00 in0.0 mm 0.00 in0.0 mm 0.02 in0.5 mm
07:02 PM 29.5°F-1.4°C 10.6°F-11.9°C 45% 10.0 mph W16.1 kmh W 10.0 mph16.1 kmh 30.61 in1036.6 mb 0.00 in0.0 mm 0.00 in0.0 mm 0.02 in0.5 mm
07:03 PM 29.5°F-1.4°C 9.6°F-12.4°C 43% 7.0 mph WNW11.3 kmh WNW 10.0 mph16.1 kmh 30.60 in1036.2 mb 0.00 in0.0 mm 0.00 in0.0 mm 0.02 in0.5 mm
07:04 PM 29.5°F-1.4°C 9.6°F-12.4°C 43% 7.0 mph W11.3 kmh W 10.0 mph16.1 kmh 30.61 in1036.6 mb 0.00 in0.0 mm 0.00 in0.0 mm 0.02 in0.5 mm
07:05 PM 29.5°F-1.4°C 8.5°F-13.1°C 41% 9.0 mph WNW14.5 kmh WNW 10.0 mph16.1 kmh 30.61 in1036.6 mb 0.00 in0.0 mm 0.00 in0.0 mm 0.02 in0.5 mm
07:06 PM 29.5°F-1.4°C 8.5°F-13.1°C 41% 7.0 mph WNW11.3 kmh WNW 10.0 mph16.1 kmh 30.61 in1036.6 mb 0.00 in0.0 mm 0.00 in0.0 mm 0.02 in0.5 mm
07:07 PM 29.5°F-1.4°C 9.6°F-12.4°C 43% 6.0 mph WNW9.7 kmh WNW 10.0 mph16.1 kmh 30.60 in1036.2 mb 0.00 in0.0 mm 0.00 in0.0 mm 0.02 in0.5 mm
07:08 PM 29.5°F-1.4°C 9.6°F-12.4°C 43% 5.0 mph WNW8.0 kmh WNW 10.0 mph16.1 kmh 30.61 in1036.6 mb 0.00 in0.0 mm 0.00 in0.0 mm 0.02 in0.5 mm
07:09 PM 29.5°F-1.4°C 10.1°F-12.2°C 44% 5.0 mph WNW8.0 kmh WNW 10.0 mph16.1 kmh 30.61 in1036.6 mb 0.00 in0.0 mm 0.00 in0.0 mm 0.02 in0.5 mm
07:10 PM 29.5°F-1.4°C 8.5°F-13.1°C 41% 9.0 mph WNW14.5 kmh WNW 10.0 mph16.1 kmh 30.61 in1036.6 mb 0.00 in0.0 mm 0.00 in0.0 mm 0.02 in0.5 mm
07:11 PM 29.2°F-1.6°C 8.2°F-13.2°C 41% 5.0 mph WNW8.0 kmh WNW 10.0 mph16.1 kmh 30.61 in1036.6 mb 0.00 in0.0 mm 0.00 in0.0 mm 0.02 in0.5 mm
07:12 PM 29.2°F-1.6°C 9.3°F-12.6°C 43% 8.0 mph WNW12.9 kmh WNW 10.0 mph16.1 kmh 30.62 in1036.9 mb 0.00 in0.0 mm 0.00 in0.0 mm 0.02 in0.5 mm
07:13 PM 29.2°F-1.6°C 7.7°F-13.5°C 40% 7.0 mph WNW11.3 kmh WNW 9.0 mph14.5 kmh 30.61 in1036.6 mb 0.00 in0.0 mm 0.00 in0.0 mm 0.02 in0.5 mm
07:14 PM 29.2°F-1.6°C 7.7°F-13.5°C 40% 7.0 mph NW11.3 kmh NW 9.0 mph14.5 kmh 30.61 in1036.6 mb 0.00 in0.0 mm 0.00 in0.0 mm 0.02 in0.5 mm
07:15 PM 29.2°F-1.6°C 8.2°F-13.2°C 41% 5.0 mph W8.0 kmh W 9.0 mph14.5 kmh 30.61 in1036.6 mb 0.00 in0.0 mm 0.00 in0.0 mm 0.02 in0.5 mm
07:16 PM 29.2°F-1.6°C 7.7°F-13.5°C 40% 5.0 mph WNW8.0 kmh WNW 9.0 mph14.5 kmh 30.62 in1036.9 mb 0.00 in0.0 mm 0.00 in0.0 mm 0.02 in0.5 mm
07:17 PM 29.2°F-1.6°C 7.7°F-13.5°C 40% 4.0 mph W6.4 kmh W 9.0 mph14.5 kmh 30.61 in1036.6 mb 0.00 in0.0 mm 0.00 in0.0 mm 0.02 in0.5 mm
07:18 PM 29.2°F-1.6°C 9.3°F-12.6°C 43% 6.0 mph W9.7 kmh W 9.0 mph14.5 kmh 30.62 in1036.9 mb 0.00 in0.0 mm 0.00 in0.0 mm 0.02 in0.5 mm
07:19 PM 29.2°F-1.6°C 8.2°F-13.2°C 41% 6.0 mph WNW9.7 kmh WNW 9.0 mph14.5 kmh 30.62 in1036.9 mb 0.00 in0.0 mm 0.00 in0.0 mm 0.02 in0.5 mm
07:20 PM 29.1°F-1.6°C 7.6°F-13.6°C 40% 6.0 mph W9.7 kmh W 9.0 mph14.5 kmh 30.62 in1036.9 mb 0.00 in0.0 mm 0.00 in0.0 mm 0.02 in0.5 mm
07:21 PM 29.1°F-1.6°C 9.2°F-12.7°C 43% 4.0 mph WNW6.4 kmh WNW 9.0 mph14.5 kmh 30.62 in1036.9 mb 0.00 in0.0 mm 0.00 in0.0 mm 0.02 in0.5 mm
07:22 PM 29.1°F-1.6°C 9.7°F-12.4°C 44% 6.0 mph WNW9.7 kmh WNW 9.0 mph14.5 kmh 30.62 in1036.9 mb 0.00 in0.0 mm 0.00 in0.0 mm 0.02 in0.5 mm
07:23 PM 29.1°F-1.6°C 9.7°F-12.4°C 44% 6.0 mph W9.7 kmh W 9.0 mph14.5 kmh 30.62 in1036.9 mb 0.00 in0.0 mm 0.00 in0.0 mm 0.02 in0.5 mm
07:24 PM 29.1°F-1.6°C 10.3°F-12.1°C 45% 6.0 mph WNW9.7 kmh WNW 9.0 mph14.5 kmh 30.62 in1036.9 mb 0.00 in0.0 mm 0.00 in0.0 mm 0.02 in0.5 mm
07:25 PM 29.1°F-1.6°C 9.7°F-12.4°C 44% 8.0 mph WNW12.9 kmh WNW 9.0 mph14.5 kmh 30.62 in1036.9 mb 0.00 in0.0 mm 0.00 in0.0 mm 0.02 in0.5 mm
07:26 PM 29.1°F-1.6°C 9.2°F-12.7°C 43% 6.0 mph W9.7 kmh W 9.0 mph14.5 kmh 30.62 in1036.9 mb 0.00 in0.0 mm 0.00 in0.0 mm 0.02 in0.5 mm
07:27 PM 29.1°F-1.6°C 8.1°F-13.3°C 41% 9.0 mph WNW14.5 kmh WNW 9.0 mph14.5 kmh 30.62 in1036.9 mb 0.00 in0.0 mm 0.00 in0.0 mm 0.02 in0.5 mm
07:28 PM 29.1°F-1.6°C 7.6°F-13.6°C 40% 4.0 mph W6.4 kmh W 9.0 mph14.5 kmh 30.62 in1036.9 mb 0.00 in0.0 mm 0.00 in0.0 mm 0.02 in0.5 mm
07:29 PM 29.1°F-1.6°C 9.2°F-12.7°C 43% 7.0 mph WNW11.3 kmh WNW 9.0 mph14.5 kmh 30.62 in1036.9 mb 0.00 in0.0 mm 0.00 in0.0 mm 0.02 in0.5 mm
07:30 PM 29.1°F-1.6°C 9.2°F-12.7°C 43% 4.0 mph WNW6.4 kmh WNW 9.0 mph14.5 kmh 30.63 in1037.3 mb 0.00 in0.0 mm 0.00 in0.0 mm 0.02 in0.5 mm
07:31 PM 29.1°F-1.6°C 8.1°F-13.3°C 41% 5.0 mph WNW8.0 kmh WNW 9.0 mph14.5 kmh